<?xml version='1.0' encoding='UTF-8'?>
<gpx version="1.1" creator="https://www.komoot.de" xmlns="http://www.topografix.com/GPX/1/1" xmlns:xsi="http://www.w3.org/2001/XMLSchema-instance" xsi:schemaLocation="http://www.topografix.com/GPX/1/1 http://www.topografix.com/GPX/1/1/gpx.xsd">
  <metadata>
    <name>48_400WehrHasel</name>
    <author>
      <link href="https://www.komoot.de">
        <text>komoot</text>
        <type>text/html</type>
      </link>
    </author>
  </metadata>
  <trk>
    <name>48_400WehrHasel</name>
    <trkseg>
      <trkpt lat="47.541392" lon="7.870806">
        <ele>341.120140</ele>
        <time>2021-11-08T20:42:31.174Z</time>
      </trkpt>
      <trkpt lat="47.541410" lon="7.870791">
        <ele>341.120140</ele>
        <time>2021-11-08T20:42:31.461Z</time>
      </trkpt>
      <trkpt lat="47.541576" lon="7.870664">
        <ele>341.120140</ele>
        <time>2021-11-08T20:42:35.639Z</time>
      </trkpt>
      <trkpt lat="47.541623" lon="7.870746">
        <ele>341.120140</ele>
        <time>2021-11-08T20:42:37.583Z</time>
      </trkpt>
      <trkpt lat="47.541796" lon="7.871042">
        <ele>341.120140</ele>
        <time>2021-11-08T20:42:42.819Z</time>
      </trkpt>
      <trkpt lat="47.541953" lon="7.871286">
        <ele>341.120140</ele>
        <time>2021-11-08T20:42:47.540Z</time>
      </trkpt>
      <trkpt lat="47.542039" lon="7.871556">
        <ele>341.404842</ele>
        <time>2021-11-08T20:42:52.045Z</time>
      </trkpt>
      <trkpt lat="47.542067" lon="7.871664">
        <ele>341.704640</ele>
        <time>2021-11-08T20:42:53.626Z</time>
      </trkpt>
      <trkpt lat="47.542091" lon="7.871721">
        <ele>341.878725</ele>
        <time>2021-11-08T20:42:54.210Z</time>
      </trkpt>
      <trkpt lat="47.542218" lon="7.871866">
        <ele>342.494246</ele>
        <time>2021-11-08T20:42:59.466Z</time>
      </trkpt>
      <trkpt lat="47.542394" lon="7.872341">
        <ele>343.898370</ele>
        <time>2021-11-08T20:43:09.528Z</time>
      </trkpt>
      <trkpt lat="47.542436" lon="7.872494">
        <ele>344.326375</ele>
        <time>2021-11-08T20:43:12.806Z</time>
      </trkpt>
      <trkpt lat="47.542537" lon="7.872430">
        <ele>344.748073</ele>
        <time>2021-11-08T20:43:14.865Z</time>
      </trkpt>
      <trkpt lat="47.542714" lon="7.872334">
        <ele>345.471645</ele>
        <time>2021-11-08T20:43:22.007Z</time>
      </trkpt>
      <trkpt lat="47.542814" lon="7.872280">
        <ele>345.880232</ele>
        <time>2021-11-08T20:43:24.884Z</time>
      </trkpt>
      <trkpt lat="47.542919" lon="7.872226">
        <ele>346.306902</ele>
        <time>2021-11-08T20:43:28.725Z</time>
      </trkpt>
      <trkpt lat="47.543013" lon="7.872182">
        <ele>346.685333</ele>
        <time>2021-11-08T20:43:32.355Z</time>
      </trkpt>
      <trkpt lat="47.543233" lon="7.872082">
        <ele>347.568725</ele>
        <time>2021-11-08T20:43:39.453Z</time>
      </trkpt>
      <trkpt lat="47.543251" lon="7.872152">
        <ele>347.762832</ele>
        <time>2021-11-08T20:43:42.867Z</time>
      </trkpt>
      <trkpt lat="47.543332" lon="7.872237">
        <ele>348.223774</ele>
        <time>2021-11-08T20:43:46.277Z</time>
      </trkpt>
      <trkpt lat="47.544390" lon="7.872423">
        <ele>355.056122</ele>
        <time>2021-11-08T20:44:27.909Z</time>
      </trkpt>
      <trkpt lat="47.544883" lon="7.872555">
        <ele>358.268851</ele>
        <time>2021-11-08T20:44:50.251Z</time>
      </trkpt>
      <trkpt lat="47.545131" lon="7.872664">
        <ele>359.935321</ele>
        <time>2021-11-08T20:45:01.256Z</time>
      </trkpt>
      <trkpt lat="47.545375" lon="7.872836">
        <ele>361.703783</ele>
        <time>2021-11-08T20:45:12.196Z</time>
      </trkpt>
      <trkpt lat="47.545478" lon="7.872968">
        <ele>362.595107</ele>
        <time>2021-11-08T20:45:19.004Z</time>
      </trkpt>
      <trkpt lat="47.545515" lon="7.873015">
        <ele>362.914088</ele>
        <time>2021-11-08T20:45:20.960Z</time>
      </trkpt>
      <trkpt lat="47.545746" lon="7.873302">
        <ele>364.887182</ele>
        <time>2021-11-08T20:45:34.160Z</time>
      </trkpt>
      <trkpt lat="47.545934" lon="7.873549">
        <ele>366.531723</ele>
        <time>2021-11-08T20:45:44.260Z</time>
      </trkpt>
      <trkpt lat="47.546077" lon="7.873763">
        <ele>367.861994</ele>
        <time>2021-11-08T20:45:53.457Z</time>
      </trkpt>
      <trkpt lat="47.546135" lon="7.873859">
        <ele>368.431155</ele>
        <time>2021-11-08T20:45:56.696Z</time>
      </trkpt>
      <trkpt lat="47.546309" lon="7.874154">
        <ele>370.161800</ele>
        <time>2021-11-08T20:46:07.810Z</time>
      </trkpt>
      <trkpt lat="47.547126" lon="7.875801">
        <ele>375.850815</ele>
        <time>2021-11-08T20:46:53.572Z</time>
      </trkpt>
      <trkpt lat="47.547574" lon="7.876801">
        <ele>377.915854</ele>
        <time>2021-11-08T20:47:12.567Z</time>
      </trkpt>
      <trkpt lat="47.547992" lon="7.877974">
        <ele>377.140379</ele>
        <time>2021-11-08T20:47:25.368Z</time>
      </trkpt>
      <trkpt lat="47.548234" lon="7.878638">
        <ele>376.699212</ele>
        <time>2021-11-08T20:47:30.680Z</time>
      </trkpt>
      <trkpt lat="47.548422" lon="7.878959">
        <ele>376.102543</ele>
        <time>2021-11-08T20:47:33.523Z</time>
      </trkpt>
      <trkpt lat="47.548718" lon="7.879258">
        <ele>374.608635</ele>
        <time>2021-11-08T20:47:37.061Z</time>
      </trkpt>
      <trkpt lat="47.549140" lon="7.879391">
        <ele>372.809528</ele>
        <time>2021-11-08T20:47:41.248Z</time>
      </trkpt>
      <trkpt lat="47.549318" lon="7.879398">
        <ele>372.067010</ele>
        <time>2021-11-08T20:47:42.875Z</time>
      </trkpt>
      <trkpt lat="47.549327" lon="7.879547">
        <ele>371.645965</ele>
        <time>2021-11-08T20:47:43.861Z</time>
      </trkpt>
      <trkpt lat="47.549726" lon="7.880786">
        <ele>367.954762</ele>
        <time>2021-11-08T20:47:52.796Z</time>
      </trkpt>
      <trkpt lat="47.549927" lon="7.881490">
        <ele>366.098162</ele>
        <time>2021-11-08T20:47:57.828Z</time>
      </trkpt>
      <trkpt lat="47.550234" lon="7.883221">
        <ele>361.590680</ele>
        <time>2021-11-08T20:48:10.228Z</time>
      </trkpt>
      <trkpt lat="47.550332" lon="7.884727">
        <ele>357.195188</ele>
        <time>2021-11-08T20:48:20.073Z</time>
      </trkpt>
      <trkpt lat="47.550391" lon="7.885109">
        <ele>356.056724</ele>
        <time>2021-11-08T20:48:22.605Z</time>
      </trkpt>
      <trkpt lat="47.550548" lon="7.885799">
        <ele>353.659625</ele>
        <time>2021-11-08T20:48:27.210Z</time>
      </trkpt>
      <trkpt lat="47.550677" lon="7.886476">
        <ele>350.966148</ele>
        <time>2021-11-08T20:48:31.640Z</time>
      </trkpt>
      <trkpt lat="47.550758" lon="7.887295">
        <ele>347.796808</ele>
        <time>2021-11-08T20:48:36.782Z</time>
      </trkpt>
      <trkpt lat="47.550789" lon="7.887816">
        <ele>345.794228</ele>
        <time>2021-11-08T20:48:40.014Z</time>
      </trkpt>
      <trkpt lat="47.550831" lon="7.888611">
        <ele>342.546054</ele>
        <time>2021-11-08T20:48:44.970Z</time>
      </trkpt>
      <trkpt lat="47.550833" lon="7.889069">
        <ele>340.610841</ele>
        <time>2021-11-08T20:48:47.780Z</time>
      </trkpt>
      <trkpt lat="47.550915" lon="7.890600">
        <ele>334.121625</ele>
        <time>2021-11-08T20:48:57.173Z</time>
      </trkpt>
      <trkpt lat="47.550904" lon="7.891725">
        <ele>330.722727</ele>
        <time>2021-11-08T20:49:04.177Z</time>
      </trkpt>
      <trkpt lat="47.550892" lon="7.893176">
        <ele>326.670519</ele>
        <time>2021-11-08T20:49:13.789Z</time>
      </trkpt>
      <trkpt lat="47.550908" lon="7.894308">
        <ele>325.181379</ele>
        <time>2021-11-08T20:49:22.994Z</time>
      </trkpt>
      <trkpt lat="47.550878" lon="7.895158">
        <ele>324.451979</ele>
        <time>2021-11-08T20:49:30.179Z</time>
      </trkpt>
      <trkpt lat="47.550838" lon="7.895509">
        <ele>324.146934</ele>
        <time>2021-11-08T20:49:33.343Z</time>
      </trkpt>
      <trkpt lat="47.550660" lon="7.896255">
        <ele>323.279651</ele>
        <time>2021-11-08T20:49:39.831Z</time>
      </trkpt>
      <trkpt lat="47.550639" lon="7.896345">
        <ele>323.106873</ele>
        <time>2021-11-08T20:49:41.019Z</time>
      </trkpt>
      <trkpt lat="47.550648" lon="7.896481">
        <ele>322.858934</ele>
        <time>2021-11-08T20:49:41.974Z</time>
      </trkpt>
      <trkpt lat="47.550819" lon="7.898109">
        <ele>319.869566</ele>
        <time>2021-11-08T20:49:53.722Z</time>
      </trkpt>
      <trkpt lat="47.550801" lon="7.900244">
        <ele>314.355196</ele>
        <time>2021-11-08T20:50:07.559Z</time>
      </trkpt>
      <trkpt lat="47.550769" lon="7.901362">
        <ele>311.139216</ele>
        <time>2021-11-08T20:50:14.831Z</time>
      </trkpt>
      <trkpt lat="47.550757" lon="7.901591">
        <ele>310.568706</ele>
        <time>2021-11-08T20:50:16.967Z</time>
      </trkpt>
      <trkpt lat="47.550688" lon="7.902451">
        <ele>308.417565</ele>
        <time>2021-11-08T20:50:25.401Z</time>
      </trkpt>
      <trkpt lat="47.550498" lon="7.903445">
        <ele>305.851521</ele>
        <time>2021-11-08T20:50:35.651Z</time>
      </trkpt>
      <trkpt lat="47.550302" lon="7.904164">
        <ele>303.898941</ele>
        <time>2021-11-08T20:50:42.911Z</time>
      </trkpt>
      <trkpt lat="47.550025" lon="7.904774">
        <ele>301.991804</ele>
        <time>2021-11-08T20:50:49.777Z</time>
      </trkpt>
      <trkpt lat="47.549868" lon="7.905010">
        <ele>301.132233</ele>
        <time>2021-11-08T20:50:52.889Z</time>
      </trkpt>
      <trkpt lat="47.549867" lon="7.905155">
        <ele>300.756080</ele>
        <time>2021-11-08T20:50:54.281Z</time>
      </trkpt>
      <trkpt lat="47.550067" lon="7.905245">
        <ele>299.952750</ele>
        <time>2021-11-08T20:50:57.179Z</time>
      </trkpt>
      <trkpt lat="47.550283" lon="7.905413">
        <ele>299.015164</ele>
        <time>2021-11-08T20:51:00.609Z</time>
      </trkpt>
      <trkpt lat="47.550497" lon="7.905558">
        <ele>298.110774</ele>
        <time>2021-11-08T20:51:03.977Z</time>
      </trkpt>
      <trkpt lat="47.550426" lon="7.905785">
        <ele>297.520857</ele>
        <time>2021-11-08T20:51:05.622Z</time>
      </trkpt>
      <trkpt lat="47.549539" lon="7.908625">
        <ele>292.974612</ele>
        <time>2021-11-08T20:51:28.547Z</time>
      </trkpt>
      <trkpt lat="47.549520" lon="7.908678">
        <ele>292.921630</ele>
        <time>2021-11-08T20:51:29.065Z</time>
      </trkpt>
      <trkpt lat="47.549382" lon="7.909136">
        <ele>292.478819</ele>
        <time>2021-11-08T20:51:33.248Z</time>
      </trkpt>
      <trkpt lat="47.549195" lon="7.909756">
        <ele>291.879279</ele>
        <time>2021-11-08T20:51:38.876Z</time>
      </trkpt>
      <trkpt lat="47.549102" lon="7.910058">
        <ele>291.586215</ele>
        <time>2021-11-08T20:51:41.597Z</time>
      </trkpt>
      <trkpt lat="47.549012" lon="7.910340">
        <ele>291.310817</ele>
        <time>2021-11-08T20:51:44.127Z</time>
      </trkpt>
      <trkpt lat="47.548412" lon="7.912168">
        <ele>289.796650</ele>
        <time>2021-11-08T20:52:00.490Z</time>
      </trkpt>
      <trkpt lat="47.548027" lon="7.913334">
        <ele>289.066751</ele>
        <time>2021-11-08T20:52:11.251Z</time>
      </trkpt>
      <trkpt lat="47.547994" lon="7.913433">
        <ele>289.043866</ele>
        <time>2021-11-08T20:52:12.172Z</time>
      </trkpt>
      <trkpt lat="47.547423" lon="7.915080">
        <ele>288.660094</ele>
        <time>2021-11-08T20:52:29.661Z</time>
      </trkpt>
      <trkpt lat="47.547113" lon="7.915971">
        <ele>288.827973</ele>
        <time>2021-11-08T20:52:40.298Z</time>
      </trkpt>
      <trkpt lat="47.547091" lon="7.916039">
        <ele>288.852397</ele>
        <time>2021-11-08T20:52:41.349Z</time>
      </trkpt>
      <trkpt lat="47.547032" lon="7.916218">
        <ele>288.916916</ele>
        <time>2021-11-08T20:52:43.619Z</time>
      </trkpt>
      <trkpt lat="47.546821" lon="7.916867">
        <ele>289.150232</ele>
        <time>2021-11-08T20:52:52.034Z</time>
      </trkpt>
      <trkpt lat="47.546262" lon="7.919081">
        <ele>289.781886</ele>
        <time>2021-11-08T20:53:19.663Z</time>
      </trkpt>
      <trkpt lat="47.546128" lon="7.919617">
        <ele>289.912373</ele>
        <time>2021-11-08T20:53:25.095Z</time>
      </trkpt>
      <trkpt lat="47.546089" lon="7.919788">
        <ele>289.953579</ele>
        <time>2021-11-08T20:53:26.779Z</time>
      </trkpt>
      <trkpt lat="47.545973" lon="7.920313">
        <ele>290.102435</ele>
        <time>2021-11-08T20:53:32.487Z</time>
      </trkpt>
      <trkpt lat="47.545913" lon="7.920765">
        <ele>290.462428</ele>
        <time>2021-11-08T20:53:37.254Z</time>
      </trkpt>
      <trkpt lat="47.545881" lon="7.921096">
        <ele>290.723737</ele>
        <time>2021-11-08T20:53:41.247Z</time>
      </trkpt>
      <trkpt lat="47.545810" lon="7.921755">
        <ele>291.245251</ele>
        <time>2021-11-08T20:53:49.849Z</time>
      </trkpt>
      <trkpt lat="47.545778" lon="7.921947">
        <ele>291.399801</ele>
        <time>2021-11-08T20:53:52.783Z</time>
      </trkpt>
      <trkpt lat="47.545714" lon="7.922249">
        <ele>291.647166</ele>
        <time>2021-11-08T20:53:56.681Z</time>
      </trkpt>
      <trkpt lat="47.545699" lon="7.922325">
        <ele>291.709046</ele>
        <time>2021-11-08T20:53:57.889Z</time>
      </trkpt>
      <trkpt lat="47.545690" lon="7.922369">
        <ele>291.744975</ele>
        <time>2021-11-08T20:53:58.967Z</time>
      </trkpt>
      <trkpt lat="47.545641" lon="7.922610">
        <ele>291.941670</ele>
        <time>2021-11-08T20:54:02.326Z</time>
      </trkpt>
      <trkpt lat="47.545587" lon="7.922895">
        <ele>292.215537</ele>
        <time>2021-11-08T20:54:07.158Z</time>
      </trkpt>
      <trkpt lat="47.545553" lon="7.923142">
        <ele>292.824833</ele>
        <time>2021-11-08T20:54:10.769Z</time>
      </trkpt>
      <trkpt lat="47.545536" lon="7.923407">
        <ele>293.468236</ele>
        <time>2021-11-08T20:54:15.644Z</time>
      </trkpt>
      <trkpt lat="47.545521" lon="7.923709">
        <ele>294.200157</ele>
        <time>2021-11-08T20:54:20.811Z</time>
      </trkpt>
      <trkpt lat="47.545481" lon="7.924396">
        <ele>295.866834</ele>
        <time>2021-11-08T20:54:35.414Z</time>
      </trkpt>
      <trkpt lat="47.545466" lon="7.924880">
        <ele>297.037917</ele>
        <time>2021-11-08T20:54:46.721Z</time>
      </trkpt>
      <trkpt lat="47.545446" lon="7.925350">
        <ele>298.176185</ele>
        <time>2021-11-08T20:54:57.096Z</time>
      </trkpt>
      <trkpt lat="47.545417" lon="7.925848">
        <ele>299.113647</ele>
        <time>2021-11-08T20:55:07.575Z</time>
      </trkpt>
      <trkpt lat="47.545409" lon="7.926773">
        <ele>300.584513</ele>
        <time>2021-11-08T20:55:24.776Z</time>
      </trkpt>
      <trkpt lat="47.545407" lon="7.927001">
        <ele>300.947062</ele>
        <time>2021-11-08T20:55:28.585Z</time>
      </trkpt>
      <trkpt lat="47.545406" lon="7.927306">
        <ele>301.432016</ele>
        <time>2021-11-08T20:55:33.189Z</time>
      </trkpt>
      <trkpt lat="47.545421" lon="7.927686">
        <ele>302.037247</ele>
        <time>2021-11-08T20:55:38.725Z</time>
      </trkpt>
      <trkpt lat="47.545475" lon="7.928419">
        <ele>302.613322</ele>
        <time>2021-11-08T20:55:48.042Z</time>
      </trkpt>
      <trkpt lat="47.545563" lon="7.929641">
        <ele>301.498167</ele>
        <time>2021-11-08T20:55:57.922Z</time>
      </trkpt>
      <trkpt lat="47.545661" lon="7.930955">
        <ele>300.303897</ele>
        <time>2021-11-08T20:56:07.318Z</time>
      </trkpt>
      <trkpt lat="47.545696" lon="7.931497">
        <ele>299.833032</ele>
        <time>2021-11-08T20:56:11.286Z</time>
      </trkpt>
      <trkpt lat="47.545721" lon="7.931992">
        <ele>299.403757</ele>
        <time>2021-11-08T20:56:15.079Z</time>
      </trkpt>
      <trkpt lat="47.545724" lon="7.932758">
        <ele>298.741304</ele>
        <time>2021-11-08T20:56:21.288Z</time>
      </trkpt>
      <trkpt lat="47.545702" lon="7.933290">
        <ele>298.280365</ele>
        <time>2021-11-08T20:56:25.931Z</time>
      </trkpt>
      <trkpt lat="47.545674" lon="7.933625">
        <ele>298.190675</ele>
        <time>2021-11-08T20:56:29.132Z</time>
      </trkpt>
      <trkpt lat="47.545457" lon="7.935110">
        <ele>299.105904</ele>
        <time>2021-11-08T20:56:47.267Z</time>
      </trkpt>
      <trkpt lat="47.545074" lon="7.936484">
        <ele>300.277076</ele>
        <time>2021-11-08T20:57:08.794Z</time>
      </trkpt>
      <trkpt lat="47.544903" lon="7.936917">
        <ele>300.867946</ele>
        <time>2021-11-08T20:57:16.110Z</time>
      </trkpt>
      <trkpt lat="47.544705" lon="7.937395">
        <ele>301.528503</ele>
        <time>2021-11-08T20:57:24.294Z</time>
      </trkpt>
      <trkpt lat="47.544472" lon="7.937932">
        <ele>302.280397</ele>
        <time>2021-11-08T20:57:33.702Z</time>
      </trkpt>
      <trkpt lat="47.543826" lon="7.939433">
        <ele>304.337714</ele>
        <time>2021-11-08T20:58:00.583Z</time>
      </trkpt>
      <trkpt lat="47.543435" lon="7.940670">
        <ele>305.905009</ele>
        <time>2021-11-08T20:58:20.544Z</time>
      </trkpt>
      <trkpt lat="47.543161" lon="7.942213">
        <ele>306.600998</ele>
        <time>2021-11-08T20:58:41.552Z</time>
      </trkpt>
      <trkpt lat="47.543007" lon="7.943867">
        <ele>306.385582</ele>
        <time>2021-11-08T20:58:57.381Z</time>
      </trkpt>
      <trkpt lat="47.542929" lon="7.945023">
        <ele>305.060291</ele>
        <time>2021-11-08T20:59:06.434Z</time>
      </trkpt>
      <trkpt lat="47.542913" lon="7.945267">
        <ele>304.780634</ele>
        <time>2021-11-08T20:59:08.161Z</time>
      </trkpt>
      <trkpt lat="47.542903" lon="7.945393">
        <ele>304.635908</ele>
        <time>2021-11-08T20:59:09.112Z</time>
      </trkpt>
      <trkpt lat="47.542872" lon="7.945781">
        <ele>304.190202</ele>
        <time>2021-11-08T20:59:11.777Z</time>
      </trkpt>
      <trkpt lat="47.542875" lon="7.946089">
        <ele>303.750914</ele>
        <time>2021-11-08T20:59:13.893Z</time>
      </trkpt>
      <trkpt lat="47.542902" lon="7.946514">
        <ele>303.037259</ele>
        <time>2021-11-08T20:59:16.760Z</time>
      </trkpt>
      <trkpt lat="47.542943" lon="7.946806">
        <ele>302.538644</ele>
        <time>2021-11-08T20:59:18.785Z</time>
      </trkpt>
      <trkpt lat="47.542974" lon="7.946965">
        <ele>302.261962</ele>
        <time>2021-11-08T20:59:19.987Z</time>
      </trkpt>
      <trkpt lat="47.542979" lon="7.946989">
        <ele>302.219972</ele>
        <time>2021-11-08T20:59:20.143Z</time>
      </trkpt>
      <trkpt lat="47.543007" lon="7.947104">
        <ele>302.015591</ele>
        <time>2021-11-08T20:59:20.999Z</time>
      </trkpt>
      <trkpt lat="47.543087" lon="7.947317">
        <ele>301.608090</ele>
        <time>2021-11-08T20:59:22.687Z</time>
      </trkpt>
      <trkpt lat="47.543191" lon="7.947615">
        <ele>301.047253</ele>
        <time>2021-11-08T20:59:25.118Z</time>
      </trkpt>
      <trkpt lat="47.543242" lon="7.947745">
        <ele>300.795882</ele>
        <time>2021-11-08T20:59:26.250Z</time>
      </trkpt>
      <trkpt lat="47.543273" lon="7.947816">
        <ele>300.654520</ele>
        <time>2021-11-08T20:59:26.878Z</time>
      </trkpt>
      <trkpt lat="47.543358" lon="7.947967">
        <ele>300.325824</ele>
        <time>2021-11-08T20:59:28.321Z</time>
      </trkpt>
      <trkpt lat="47.543455" lon="7.948127">
        <ele>299.966297</ele>
        <time>2021-11-08T20:59:29.988Z</time>
      </trkpt>
      <trkpt lat="47.543532" lon="7.948214">
        <ele>299.726463</ele>
        <time>2021-11-08T20:59:31.068Z</time>
      </trkpt>
      <trkpt lat="47.543579" lon="7.948287">
        <ele>299.571276</ele>
        <time>2021-11-08T20:59:31.832Z</time>
      </trkpt>
      <trkpt lat="47.543760" lon="7.948548">
        <ele>299.496698</ele>
        <time>2021-11-08T20:59:34.721Z</time>
      </trkpt>
      <trkpt lat="47.543864" lon="7.948694">
        <ele>299.454395</ele>
        <time>2021-11-08T20:59:36.392Z</time>
      </trkpt>
      <trkpt lat="47.544239" lon="7.949202">
        <ele>299.304364</ele>
        <time>2021-11-08T20:59:43.754Z</time>
      </trkpt>
      <trkpt lat="47.544521" lon="7.949558">
        <ele>299.194972</ele>
        <time>2021-11-08T20:59:49.927Z</time>
      </trkpt>
      <trkpt lat="47.544901" lon="7.950044">
        <ele>299.046751</ele>
        <time>2021-11-08T20:59:58.728Z</time>
      </trkpt>
      <trkpt lat="47.545166" lon="7.950366">
        <ele>298.425264</ele>
        <time>2021-11-08T21:00:03.968Z</time>
      </trkpt>
      <trkpt lat="47.545434" lon="7.950668">
        <ele>297.789759</ele>
        <time>2021-11-08T21:00:08.209Z</time>
      </trkpt>
      <trkpt lat="47.545542" lon="7.950842">
        <ele>297.488618</ele>
        <time>2021-11-08T21:00:09.988Z</time>
      </trkpt>
      <trkpt lat="47.545667" lon="7.950979">
        <ele>297.195157</ele>
        <time>2021-11-08T21:00:11.757Z</time>
      </trkpt>
      <trkpt lat="47.545737" lon="7.951055">
        <ele>297.031363</ele>
        <time>2021-11-08T21:00:12.688Z</time>
      </trkpt>
      <trkpt lat="47.545759" lon="7.950982">
        <ele>296.929515</ele>
        <time>2021-11-08T21:00:13.254Z</time>
      </trkpt>
      <trkpt lat="47.545852" lon="7.950808">
        <ele>296.646769</ele>
        <time>2021-11-08T21:00:14.826Z</time>
      </trkpt>
      <trkpt lat="47.545858" lon="7.950769">
        <ele>296.595810</ele>
        <time>2021-11-08T21:00:15.106Z</time>
      </trkpt>
      <trkpt lat="47.545875" lon="7.950668">
        <ele>296.463200</ele>
        <time>2021-11-08T21:00:15.849Z</time>
      </trkpt>
      <trkpt lat="47.545948" lon="7.950297">
        <ele>295.970890</ele>
        <time>2021-11-08T21:00:18.449Z</time>
      </trkpt>
      <trkpt lat="47.545949" lon="7.950185">
        <ele>295.828194</ele>
        <time>2021-11-08T21:00:19.207Z</time>
      </trkpt>
      <trkpt lat="47.546159" lon="7.949303">
        <ele>293.722065</ele>
        <time>2021-11-08T21:00:25.230Z</time>
      </trkpt>
      <trkpt lat="47.546572" lon="7.947545">
        <ele>289.204625</ele>
        <time>2021-11-08T21:00:37.702Z</time>
      </trkpt>
      <trkpt lat="47.546664" lon="7.947227">
        <ele>288.914883</ele>
        <time>2021-11-08T21:00:40.224Z</time>
      </trkpt>
      <trkpt lat="47.546749" lon="7.946929">
        <ele>288.659122</ele>
        <time>2021-11-08T21:00:42.610Z</time>
      </trkpt>
      <trkpt lat="47.546772" lon="7.946847">
        <ele>288.588921</ele>
        <time>2021-11-08T21:00:43.285Z</time>
      </trkpt>
      <trkpt lat="47.546815" lon="7.946690">
        <ele>288.454974</ele>
        <time>2021-11-08T21:00:44.570Z</time>
      </trkpt>
      <trkpt lat="47.546959" lon="7.946071">
        <ele>287.937365</ele>
        <time>2021-11-08T21:00:49.873Z</time>
      </trkpt>
      <trkpt lat="47.547022" lon="7.945790">
        <ele>287.703282</ele>
        <time>2021-11-08T21:00:52.735Z</time>
      </trkpt>
      <trkpt lat="47.547072" lon="7.945567">
        <ele>287.517514</ele>
        <time>2021-11-08T21:00:54.866Z</time>
      </trkpt>
      <trkpt lat="47.547075" lon="7.945550">
        <ele>287.503623</ele>
        <time>2021-11-08T21:00:55.068Z</time>
      </trkpt>
      <trkpt lat="47.547150" lon="7.945242">
        <ele>287.244769</ele>
        <time>2021-11-08T21:00:58.866Z</time>
      </trkpt>
      <trkpt lat="47.547161" lon="7.945196">
        <ele>287.206189</ele>
        <time>2021-11-08T21:00:59.338Z</time>
      </trkpt>
      <trkpt lat="47.547282" lon="7.944699">
        <ele>286.972864</ele>
        <time>2021-11-08T21:01:04.987Z</time>
      </trkpt>
      <trkpt lat="47.547318" lon="7.944515">
        <ele>286.919235</ele>
        <time>2021-11-08T21:01:06.679Z</time>
      </trkpt>
      <trkpt lat="47.547344" lon="7.944382">
        <ele>286.880473</ele>
        <time>2021-11-08T21:01:08.054Z</time>
      </trkpt>
      <trkpt lat="47.547354" lon="7.944331">
        <ele>286.865606</ele>
        <time>2021-11-08T21:01:08.584Z</time>
      </trkpt>
      <trkpt lat="47.547734" lon="7.942722">
        <ele>286.388411</ele>
        <time>2021-11-08T21:01:23.568Z</time>
      </trkpt>
      <trkpt lat="47.547790" lon="7.942490">
        <ele>286.310476</ele>
        <time>2021-11-08T21:01:25.603Z</time>
      </trkpt>
      <trkpt lat="47.548087" lon="7.941446">
        <ele>285.660421</ele>
        <time>2021-11-08T21:01:35.651Z</time>
      </trkpt>
      <trkpt lat="47.548484" lon="7.940313">
        <ele>284.927956</ele>
        <time>2021-11-08T21:01:45.981Z</time>
      </trkpt>
      <trkpt lat="47.548550" lon="7.940126">
        <ele>284.806877</ele>
        <time>2021-11-08T21:01:47.724Z</time>
      </trkpt>
      <trkpt lat="47.548587" lon="7.940118">
        <ele>284.779695</ele>
        <time>2021-11-08T21:01:48.212Z</time>
      </trkpt>
      <trkpt lat="47.548632" lon="7.940087">
        <ele>284.745636</ele>
        <time>2021-11-08T21:01:48.852Z</time>
      </trkpt>
      <trkpt lat="47.548653" lon="7.940052">
        <ele>284.723943</ele>
        <time>2021-11-08T21:01:49.257Z</time>
      </trkpt>
      <trkpt lat="47.548676" lon="7.939951">
        <ele>284.674564</ele>
        <time>2021-11-08T21:01:50.138Z</time>
      </trkpt>
      <trkpt lat="47.548673" lon="7.939890">
        <ele>284.646232</ele>
        <time>2021-11-08T21:01:50.670Z</time>
      </trkpt>
      <trkpt lat="47.548643" lon="7.939810">
        <ele>284.603837</ele>
        <time>2021-11-08T21:01:51.438Z</time>
      </trkpt>
      <trkpt lat="47.548614" lon="7.939778">
        <ele>284.579020</ele>
        <time>2021-11-08T21:01:51.872Z</time>
      </trkpt>
      <trkpt lat="47.548563" lon="7.939753">
        <ele>284.542152</ele>
        <time>2021-11-08T21:01:52.541Z</time>
      </trkpt>
      <trkpt lat="47.548509" lon="7.939765">
        <ele>284.504676</ele>
        <time>2021-11-08T21:01:53.257Z</time>
      </trkpt>
      <trkpt lat="47.548230" lon="7.939581">
        <ele>284.295080</ele>
        <time>2021-11-08T21:01:57.086Z</time>
      </trkpt>
      <trkpt lat="47.548150" lon="7.939478">
        <ele>284.222339</ele>
        <time>2021-11-08T21:01:58.487Z</time>
      </trkpt>
      <trkpt lat="47.548129" lon="7.939460">
        <ele>284.205688</ele>
        <time>2021-11-08T21:01:58.784Z</time>
      </trkpt>
      <trkpt lat="47.548085" lon="7.939422">
        <ele>284.170734</ele>
        <time>2021-11-08T21:01:59.427Z</time>
      </trkpt>
      <trkpt lat="47.547922" lon="7.939269">
        <ele>284.038302</ele>
        <time>2021-11-08T21:02:01.904Z</time>
      </trkpt>
      <trkpt lat="47.547474" lon="7.938844">
        <ele>283.673200</ele>
        <time>2021-11-08T21:02:09.077Z</time>
      </trkpt>
      <trkpt lat="47.547174" lon="7.938475">
        <ele>283.559135</ele>
        <time>2021-11-08T21:02:14.140Z</time>
      </trkpt>
      <trkpt lat="47.547115" lon="7.938377">
        <ele>283.557061</ele>
        <time>2021-11-08T21:02:15.312Z</time>
      </trkpt>
      <trkpt lat="47.547044" lon="7.938237">
        <ele>283.554294</ele>
        <time>2021-11-08T21:02:16.996Z</time>
      </trkpt>
      <trkpt lat="47.546969" lon="7.938023">
        <ele>283.550486</ele>
        <time>2021-11-08T21:02:19.397Z</time>
      </trkpt>
      <trkpt lat="47.546915" lon="7.937800">
        <ele>283.546743</ele>
        <time>2021-11-08T21:02:21.780Z</time>
      </trkpt>
      <trkpt lat="47.546890" lon="7.937602">
        <ele>283.543561</ele>
        <time>2021-11-08T21:02:23.964Z</time>
      </trkpt>
      <trkpt lat="47.546895" lon="7.937196">
        <ele>283.537147</ele>
        <time>2021-11-08T21:02:28.048Z</time>
      </trkpt>
      <trkpt lat="47.547020" lon="7.936617">
        <ele>283.527545</ele>
        <time>2021-11-08T21:02:34.364Z</time>
      </trkpt>
      <trkpt lat="47.547523" lon="7.935115">
        <ele>283.914569</ele>
        <time>2021-11-08T21:02:52.456Z</time>
      </trkpt>
      <trkpt lat="47.547539" lon="7.935068">
        <ele>283.929802</ele>
        <time>2021-11-08T21:02:53.022Z</time>
      </trkpt>
      <trkpt lat="47.547663" lon="7.934665">
        <ele>284.057966</ele>
        <time>2021-11-08T21:02:57.975Z</time>
      </trkpt>
      <trkpt lat="47.547956" lon="7.933604">
        <ele>284.456448</ele>
        <time>2021-11-08T21:03:11.325Z</time>
      </trkpt>
      <trkpt lat="47.548144" lon="7.932614">
        <ele>284.960731</ele>
        <time>2021-11-08T21:03:24.250Z</time>
      </trkpt>
      <trkpt lat="47.548252" lon="7.930989">
        <ele>285.804957</ele>
        <time>2021-11-08T21:03:43.749Z</time>
      </trkpt>
      <trkpt lat="47.548241" lon="7.930335">
        <ele>286.212465</ele>
        <time>2021-11-08T21:03:50.948Z</time>
      </trkpt>
      <trkpt lat="47.548236" lon="7.930144">
        <ele>286.331529</ele>
        <time>2021-11-08T21:03:52.927Z</time>
      </trkpt>
      <trkpt lat="47.548226" lon="7.929841">
        <ele>286.520495</ele>
        <time>2021-11-08T21:03:56.909Z</time>
      </trkpt>
      <trkpt lat="47.548192" lon="7.928866">
        <ele>287.128639</ele>
        <time>2021-11-08T21:04:09.581Z</time>
      </trkpt>
      <trkpt lat="47.548186" lon="7.928343">
        <ele>287.671249</ele>
        <time>2021-11-08T21:04:17.080Z</time>
      </trkpt>
      <trkpt lat="47.548228" lon="7.928033">
        <ele>288.087897</ele>
        <time>2021-11-08T21:04:21.117Z</time>
      </trkpt>
      <trkpt lat="47.548275" lon="7.927880">
        <ele>288.309409</ele>
        <time>2021-11-08T21:04:23.447Z</time>
      </trkpt>
      <trkpt lat="47.548298" lon="7.927820">
        <ele>288.400334</ele>
        <time>2021-11-08T21:04:25.221Z</time>
      </trkpt>
      <trkpt lat="47.548534" lon="7.927518">
        <ele>289.009145</ele>
        <time>2021-11-08T21:04:31.576Z</time>
      </trkpt>
      <trkpt lat="47.548590" lon="7.927498">
        <ele>289.121605</ele>
        <time>2021-11-08T21:04:33.691Z</time>
      </trkpt>
      <trkpt lat="47.548777" lon="7.927430">
        <ele>289.497520</ele>
        <time>2021-11-08T21:04:37.572Z</time>
      </trkpt>
      <trkpt lat="47.548912" lon="7.927437">
        <ele>289.761241</ele>
        <time>2021-11-08T21:04:41.225Z</time>
      </trkpt>
      <trkpt lat="47.549059" lon="7.927444">
        <ele>290.048376</ele>
        <time>2021-11-08T21:04:44.875Z</time>
      </trkpt>
      <trkpt lat="47.549697" lon="7.927581">
        <ele>291.118789</ele>
        <time>2021-11-08T21:05:00.515Z</time>
      </trkpt>
      <trkpt lat="47.550041" lon="7.927651">
        <ele>291.558418</ele>
        <time>2021-11-08T21:05:08.081Z</time>
      </trkpt>
      <trkpt lat="47.550381" lon="7.927709">
        <ele>291.991737</ele>
        <time>2021-11-08T21:05:15.188Z</time>
      </trkpt>
      <trkpt lat="47.550481" lon="7.927724">
        <ele>292.118994</ele>
        <time>2021-11-08T21:05:17.127Z</time>
      </trkpt>
      <trkpt lat="47.550669" lon="7.927757">
        <ele>292.358686</ele>
        <time>2021-11-08T21:05:20.345Z</time>
      </trkpt>
      <trkpt lat="47.551076" lon="7.927850">
        <ele>292.880083</ele>
        <time>2021-11-08T21:05:27.324Z</time>
      </trkpt>
      <trkpt lat="47.551163" lon="7.927871">
        <ele>292.991686</ele>
        <time>2021-11-08T21:05:28.718Z</time>
      </trkpt>
      <trkpt lat="47.551192" lon="7.927575">
        <ele>293.100736</ele>
        <time>2021-11-08T21:05:32.079Z</time>
      </trkpt>
      <trkpt lat="47.551183" lon="7.927256">
        <ele>293.172056</ele>
        <time>2021-11-08T21:05:35.593Z</time>
      </trkpt>
      <trkpt lat="47.551204" lon="7.927090">
        <ele>293.209782</ele>
        <time>2021-11-08T21:05:37.372Z</time>
      </trkpt>
      <trkpt lat="47.551209" lon="7.927048">
        <ele>293.219309</ele>
        <time>2021-11-08T21:05:37.861Z</time>
      </trkpt>
      <trkpt lat="47.551236" lon="7.926890">
        <ele>293.255716</ele>
        <time>2021-11-08T21:05:39.731Z</time>
      </trkpt>
      <trkpt lat="47.551262" lon="7.926787">
        <ele>293.280280</ele>
        <time>2021-11-08T21:05:40.831Z</time>
      </trkpt>
      <trkpt lat="47.551300" lon="7.926708">
        <ele>293.301950</ele>
        <time>2021-11-08T21:05:41.842Z</time>
      </trkpt>
      <trkpt lat="47.551345" lon="7.926636">
        <ele>293.323870</ele>
        <time>2021-11-08T21:05:42.866Z</time>
      </trkpt>
      <trkpt lat="47.551423" lon="7.926561">
        <ele>293.354645</ele>
        <time>2021-11-08T21:05:44.469Z</time>
      </trkpt>
      <trkpt lat="47.551676" lon="7.926477">
        <ele>293.440455</ele>
        <time>2021-11-08T21:05:48.420Z</time>
      </trkpt>
      <trkpt lat="47.551788" lon="7.926512">
        <ele>293.478339</ele>
        <time>2021-11-08T21:05:50.405Z</time>
      </trkpt>
      <trkpt lat="47.552250" lon="7.926787">
        <ele>293.643121</ele>
        <time>2021-11-08T21:05:58.160Z</time>
      </trkpt>
      <trkpt lat="47.552388" lon="7.926860">
        <ele>293.686058</ele>
        <time>2021-11-08T21:06:00.598Z</time>
      </trkpt>
      <trkpt lat="47.552729" lon="7.927061">
        <ele>293.793291</ele>
        <time>2021-11-08T21:06:06.622Z</time>
      </trkpt>
      <trkpt lat="47.552928" lon="7.927209">
        <ele>293.858351</ele>
        <time>2021-11-08T21:06:10.275Z</time>
      </trkpt>
      <trkpt lat="47.553166" lon="7.927389">
        <ele>293.936428</ele>
        <time>2021-11-08T21:06:14.857Z</time>
      </trkpt>
      <trkpt lat="47.553221" lon="7.927438">
        <ele>293.955180</ele>
        <time>2021-11-08T21:06:15.812Z</time>
      </trkpt>
      <trkpt lat="47.553257" lon="7.927322">
        <ele>293.980358</ele>
        <time>2021-11-08T21:06:17.260Z</time>
      </trkpt>
      <trkpt lat="47.553294" lon="7.927186">
        <ele>294.009274</ele>
        <time>2021-11-08T21:06:18.898Z</time>
      </trkpt>
      <trkpt lat="47.553381" lon="7.926895">
        <ele>294.072039</ele>
        <time>2021-11-08T21:06:22.231Z</time>
      </trkpt>
      <trkpt lat="47.553408" lon="7.926803">
        <ele>294.091822</ele>
        <time>2021-11-08T21:06:23.346Z</time>
      </trkpt>
      <trkpt lat="47.553539" lon="7.926451">
        <ele>294.169348</ele>
        <time>2021-11-08T21:06:27.474Z</time>
      </trkpt>
      <trkpt lat="47.553834" lon="7.925632">
        <ele>294.121894</ele>
        <time>2021-11-08T21:06:36.613Z</time>
      </trkpt>
      <trkpt lat="47.554226" lon="7.924713">
        <ele>294.066321</ele>
        <time>2021-11-08T21:06:47.131Z</time>
      </trkpt>
      <trkpt lat="47.554705" lon="7.923835">
        <ele>293.976452</ele>
        <time>2021-11-08T21:06:57.956Z</time>
      </trkpt>
      <trkpt lat="47.555272" lon="7.922934">
        <ele>293.832039</ele>
        <time>2021-11-08T21:07:09.563Z</time>
      </trkpt>
      <trkpt lat="47.556542" lon="7.921551">
        <ele>293.657968</ele>
        <time>2021-11-08T21:07:32.276Z</time>
      </trkpt>
      <trkpt lat="47.557147" lon="7.921064">
        <ele>293.611618</ele>
        <time>2021-11-08T21:07:42.453Z</time>
      </trkpt>
      <trkpt lat="47.558098" lon="7.920440">
        <ele>293.487251</ele>
        <time>2021-11-08T21:07:57.729Z</time>
      </trkpt>
      <trkpt lat="47.560368" lon="7.919331">
        <ele>292.635198</ele>
        <time>2021-11-08T21:08:31.126Z</time>
      </trkpt>
      <trkpt lat="47.560912" lon="7.919065">
        <ele>292.124112</ele>
        <time>2021-11-08T21:08:37.941Z</time>
      </trkpt>
      <trkpt lat="47.561244" lon="7.918902">
        <ele>291.612316</ele>
        <time>2021-11-08T21:08:41.973Z</time>
      </trkpt>
      <trkpt lat="47.561405" lon="7.918835">
        <ele>291.367606</ele>
        <time>2021-11-08T21:08:43.876Z</time>
      </trkpt>
      <trkpt lat="47.561792" lon="7.918633">
        <ele>290.767195</ele>
        <time>2021-11-08T21:08:48.543Z</time>
      </trkpt>
      <trkpt lat="47.562098" lon="7.918473">
        <ele>290.292359</ele>
        <time>2021-11-08T21:08:52.257Z</time>
      </trkpt>
      <trkpt lat="47.562192" lon="7.918413">
        <ele>290.142589</ele>
        <time>2021-11-08T21:08:53.407Z</time>
      </trkpt>
      <trkpt lat="47.562330" lon="7.918325">
        <ele>289.922747</ele>
        <time>2021-11-08T21:08:55.148Z</time>
      </trkpt>
      <trkpt lat="47.562491" lon="7.918206">
        <ele>289.736573</ele>
        <time>2021-11-08T21:08:57.170Z</time>
      </trkpt>
      <trkpt lat="47.562766" lon="7.918001">
        <ele>289.486510</ele>
        <time>2021-11-08T21:09:00.741Z</time>
      </trkpt>
      <trkpt lat="47.562783" lon="7.917983">
        <ele>289.469538</ele>
        <time>2021-11-08T21:09:00.960Z</time>
      </trkpt>
      <trkpt lat="47.563304" lon="7.917434">
        <ele>288.950230</ele>
        <time>2021-11-08T21:09:08.704Z</time>
      </trkpt>
      <trkpt lat="47.563485" lon="7.917258">
        <ele>288.774373</ele>
        <time>2021-11-08T21:09:11.558Z</time>
      </trkpt>
      <trkpt lat="47.564482" lon="7.916219">
        <ele>288.489689</ele>
        <time>2021-11-08T21:09:29.940Z</time>
      </trkpt>
      <trkpt lat="47.564500" lon="7.916200">
        <ele>288.493296</ele>
        <time>2021-11-08T21:09:30.294Z</time>
      </trkpt>
      <trkpt lat="47.564526" lon="7.916174">
        <ele>288.498415</ele>
        <time>2021-11-08T21:09:30.781Z</time>
      </trkpt>
      <trkpt lat="47.564899" lon="7.915798">
        <ele>288.572035</ele>
        <time>2021-11-08T21:09:37.974Z</time>
      </trkpt>
      <trkpt lat="47.565627" lon="7.915066">
        <ele>288.652850</ele>
        <time>2021-11-08T21:09:51.866Z</time>
      </trkpt>
      <trkpt lat="47.565672" lon="7.915025">
        <ele>288.650735</ele>
        <time>2021-11-08T21:09:52.704Z</time>
      </trkpt>
      <trkpt lat="47.565748" lon="7.914949">
        <ele>288.647062</ele>
        <time>2021-11-08T21:09:54.159Z</time>
      </trkpt>
      <trkpt lat="47.565830" lon="7.914880">
        <ele>288.643286</ele>
        <time>2021-11-08T21:09:55.666Z</time>
      </trkpt>
      <trkpt lat="47.565995" lon="7.914739">
        <ele>288.635657</ele>
        <time>2021-11-08T21:09:58.591Z</time>
      </trkpt>
      <trkpt lat="47.566025" lon="7.914720">
        <ele>288.634350</ele>
        <time>2021-11-08T21:09:59.021Z</time>
      </trkpt>
      <trkpt lat="47.566096" lon="7.914676">
        <ele>288.631268</ele>
        <time>2021-11-08T21:10:00.202Z</time>
      </trkpt>
      <trkpt lat="47.566250" lon="7.914580">
        <ele>288.624576</ele>
        <time>2021-11-08T21:10:02.722Z</time>
      </trkpt>
      <trkpt lat="47.566474" lon="7.914468">
        <ele>288.615107</ele>
        <time>2021-11-08T21:10:06.034Z</time>
      </trkpt>
      <trkpt lat="47.566489" lon="7.914461">
        <ele>288.614477</ele>
        <time>2021-11-08T21:10:06.273Z</time>
      </trkpt>
      <trkpt lat="47.566534" lon="7.914439">
        <ele>288.612579</ele>
        <time>2021-11-08T21:10:06.950Z</time>
      </trkpt>
      <trkpt lat="47.566601" lon="7.914411">
        <ele>288.609791</ele>
        <time>2021-11-08T21:10:07.965Z</time>
      </trkpt>
      <trkpt lat="47.566984" lon="7.914229">
        <ele>288.593681</ele>
        <time>2021-11-08T21:10:13.499Z</time>
      </trkpt>
      <trkpt lat="47.567335" lon="7.914048">
        <ele>288.423733</ele>
        <time>2021-11-08T21:10:18.429Z</time>
      </trkpt>
      <trkpt lat="47.567374" lon="7.914028">
        <ele>288.404255</ele>
        <time>2021-11-08T21:10:18.909Z</time>
      </trkpt>
      <trkpt lat="47.568301" lon="7.913554">
        <ele>287.941427</ele>
        <time>2021-11-08T21:10:31.910Z</time>
      </trkpt>
      <trkpt lat="47.568566" lon="7.913414">
        <ele>287.808645</ele>
        <time>2021-11-08T21:10:35.617Z</time>
      </trkpt>
      <trkpt lat="47.569155" lon="7.913298">
        <ele>287.724347</ele>
        <time>2021-11-08T21:10:43.657Z</time>
      </trkpt>
      <trkpt lat="47.569682" lon="7.913220">
        <ele>287.701309</ele>
        <time>2021-11-08T21:10:51.227Z</time>
      </trkpt>
      <trkpt lat="47.571638" lon="7.913041">
        <ele>287.711449</ele>
        <time>2021-11-08T21:11:21.803Z</time>
      </trkpt>
      <trkpt lat="47.571807" lon="7.913030">
        <ele>287.718141</ele>
        <time>2021-11-08T21:11:24.454Z</time>
      </trkpt>
      <trkpt lat="47.571801" lon="7.912878">
        <ele>287.722204</ele>
        <time>2021-11-08T21:11:25.973Z</time>
      </trkpt>
      <trkpt lat="47.571815" lon="7.912822">
        <ele>287.723798</ele>
        <time>2021-11-08T21:11:26.560Z</time>
      </trkpt>
      <trkpt lat="47.571842" lon="7.912780">
        <ele>287.725346</ele>
        <time>2021-11-08T21:11:27.042Z</time>
      </trkpt>
      <trkpt lat="47.572195" lon="7.912650">
        <ele>287.698697</ele>
        <time>2021-11-08T21:11:32.210Z</time>
      </trkpt>
      <trkpt lat="47.572843" lon="7.912399">
        <ele>287.301505</ele>
        <time>2021-11-08T21:11:41.263Z</time>
      </trkpt>
      <trkpt lat="47.572921" lon="7.912369">
        <ele>287.253716</ele>
        <time>2021-11-08T21:11:42.220Z</time>
      </trkpt>
      <trkpt lat="47.573759" lon="7.912034">
        <ele>286.738996</ele>
        <time>2021-11-08T21:11:53.221Z</time>
      </trkpt>
      <trkpt lat="47.573998" lon="7.911915">
        <ele>286.589758</ele>
        <time>2021-11-08T21:11:56.338Z</time>
      </trkpt>
      <trkpt lat="47.574566" lon="7.911447">
        <ele>286.205703</ele>
        <time>2021-11-08T21:12:04.663Z</time>
      </trkpt>
      <trkpt lat="47.574901" lon="7.911251">
        <ele>285.992859</ele>
        <time>2021-11-08T21:12:09.349Z</time>
      </trkpt>
      <trkpt lat="47.575508" lon="7.910912">
        <ele>285.609513</ele>
        <time>2021-11-08T21:12:17.977Z</time>
      </trkpt>
      <trkpt lat="47.575539" lon="7.910898">
        <ele>285.606104</ele>
        <time>2021-11-08T21:12:18.487Z</time>
      </trkpt>
      <trkpt lat="47.575854" lon="7.910743">
        <ele>285.589777</ele>
        <time>2021-11-08T21:12:22.992Z</time>
      </trkpt>
      <trkpt lat="47.576932" lon="7.910134">
        <ele>285.533024</ele>
        <time>2021-11-08T21:12:39.978Z</time>
      </trkpt>
      <trkpt lat="47.577424" lon="7.909886">
        <ele>285.635942</ele>
        <time>2021-11-08T21:12:48.134Z</time>
      </trkpt>
      <trkpt lat="47.577771" lon="7.909710">
        <ele>285.817890</ele>
        <time>2021-11-08T21:12:54.226Z</time>
      </trkpt>
      <trkpt lat="47.578895" lon="7.909087">
        <ele>286.411443</ele>
        <time>2021-11-08T21:13:14.916Z</time>
      </trkpt>
      <trkpt lat="47.579056" lon="7.908962">
        <ele>286.414692</ele>
        <time>2021-11-08T21:13:18.380Z</time>
      </trkpt>
      <trkpt lat="47.579708" lon="7.908314">
        <ele>286.428724</ele>
        <time>2021-11-08T21:13:31.294Z</time>
      </trkpt>
      <trkpt lat="47.580105" lon="7.908168">
        <ele>286.436036</ele>
        <time>2021-11-08T21:13:37.043Z</time>
      </trkpt>
      <trkpt lat="47.580194" lon="7.908192">
        <ele>286.437653</ele>
        <time>2021-11-08T21:13:38.207Z</time>
      </trkpt>
      <trkpt lat="47.580422" lon="7.908273">
        <ele>286.441844</ele>
        <time>2021-11-08T21:13:41.337Z</time>
      </trkpt>
      <trkpt lat="47.580470" lon="7.908164">
        <ele>286.443414</ele>
        <time>2021-11-08T21:13:42.326Z</time>
      </trkpt>
      <trkpt lat="47.580552" lon="7.908081">
        <ele>286.345547</ele>
        <time>2021-11-08T21:13:43.693Z</time>
      </trkpt>
      <trkpt lat="47.581568" lon="7.907612">
        <ele>285.222496</ele>
        <time>2021-11-08T21:13:56.551Z</time>
      </trkpt>
      <trkpt lat="47.581793" lon="7.907472">
        <ele>284.964967</ele>
        <time>2021-11-08T21:13:59.322Z</time>
      </trkpt>
      <trkpt lat="47.582248" lon="7.907090">
        <ele>284.579483</ele>
        <time>2021-11-08T21:14:05.535Z</time>
      </trkpt>
      <trkpt lat="47.582657" lon="7.906618">
        <ele>284.721095</ele>
        <time>2021-11-08T21:14:12.169Z</time>
      </trkpt>
      <trkpt lat="47.582951" lon="7.906415">
        <ele>284.809707</ele>
        <time>2021-11-08T21:14:17.097Z</time>
      </trkpt>
      <trkpt lat="47.583077" lon="7.906399">
        <ele>284.844259</ele>
        <time>2021-11-08T21:14:18.976Z</time>
      </trkpt>
      <trkpt lat="47.583245" lon="7.906443">
        <ele>284.890870</ele>
        <time>2021-11-08T21:14:22.389Z</time>
      </trkpt>
      <trkpt lat="47.583451" lon="7.906619">
        <ele>284.955831</ele>
        <time>2021-11-08T21:14:26.930Z</time>
      </trkpt>
      <trkpt lat="47.583711" lon="7.906911">
        <ele>285.110136</ele>
        <time>2021-11-08T21:14:33.673Z</time>
      </trkpt>
      <trkpt lat="47.583887" lon="7.907113">
        <ele>285.651178</ele>
        <time>2021-11-08T21:14:38.655Z</time>
      </trkpt>
      <trkpt lat="47.584719" lon="7.908091">
        <ele>288.232172</ele>
        <time>2021-11-08T21:15:04.278Z</time>
      </trkpt>
      <trkpt lat="47.585084" lon="7.908692">
        <ele>289.650693</ele>
        <time>2021-11-08T21:15:18.964Z</time>
      </trkpt>
      <trkpt lat="47.585149" lon="7.908804">
        <ele>290.043137</ele>
        <time>2021-11-08T21:15:21.919Z</time>
      </trkpt>
      <trkpt lat="47.585222" lon="7.908901">
        <ele>290.429162</ele>
        <time>2021-11-08T21:15:25.081Z</time>
      </trkpt>
      <trkpt lat="47.585337" lon="7.909031">
        <ele>290.998640</ele>
        <time>2021-11-08T21:15:29.260Z</time>
      </trkpt>
      <trkpt lat="47.585078" lon="7.909509">
        <ele>292.627176</ele>
        <time>2021-11-08T21:15:41.299Z</time>
      </trkpt>
      <trkpt lat="47.585045" lon="7.909674">
        <ele>293.084291</ele>
        <time>2021-11-08T21:15:44.712Z</time>
      </trkpt>
      <trkpt lat="47.585051" lon="7.909751">
        <ele>293.290171</ele>
        <time>2021-11-08T21:15:46.568Z</time>
      </trkpt>
      <trkpt lat="47.585066" lon="7.909809">
        <ele>293.455160</ele>
        <time>2021-11-08T21:15:47.848Z</time>
      </trkpt>
      <trkpt lat="47.585093" lon="7.909869">
        <ele>293.646737</ele>
        <time>2021-11-08T21:15:49.181Z</time>
      </trkpt>
      <trkpt lat="47.585157" lon="7.909965">
        <ele>294.005253</ele>
        <time>2021-11-08T21:15:51.557Z</time>
      </trkpt>
      <trkpt lat="47.585271" lon="7.910136">
        <ele>294.643859</ele>
        <time>2021-11-08T21:15:56.529Z</time>
      </trkpt>
      <trkpt lat="47.585430" lon="7.910346">
        <ele>295.482398</ele>
        <time>2021-11-08T21:16:03.451Z</time>
      </trkpt>
      <trkpt lat="47.585610" lon="7.910640">
        <ele>296.538086</ele>
        <time>2021-11-08T21:16:13.079Z</time>
      </trkpt>
      <trkpt lat="47.586028" lon="7.911561">
        <ele>299.556630</ele>
        <time>2021-11-08T21:16:39.159Z</time>
      </trkpt>
      <trkpt lat="47.586263" lon="7.911881">
        <ele>300.842979</ele>
        <time>2021-11-08T21:16:49.415Z</time>
      </trkpt>
      <trkpt lat="47.586433" lon="7.912047">
        <ele>301.663620</ele>
        <time>2021-11-08T21:16:55.994Z</time>
      </trkpt>
      <trkpt lat="47.586622" lon="7.912140">
        <ele>302.466439</ele>
        <time>2021-11-08T21:17:01.715Z</time>
      </trkpt>
      <trkpt lat="47.586917" lon="7.912301">
        <ele>303.733743</ele>
        <time>2021-11-08T21:17:09.572Z</time>
      </trkpt>
      <trkpt lat="47.587725" lon="7.912508">
        <ele>304.753820</ele>
        <time>2021-11-08T21:17:28.268Z</time>
      </trkpt>
      <trkpt lat="47.587897" lon="7.912517">
        <ele>304.966591</ele>
        <time>2021-11-08T21:17:31.824Z</time>
      </trkpt>
      <trkpt lat="47.588907" lon="7.912607">
        <ele>306.024720</ele>
        <time>2021-11-08T21:17:47.281Z</time>
      </trkpt>
      <trkpt lat="47.589326" lon="7.912720">
        <ele>306.146795</ele>
        <time>2021-11-08T21:17:53.620Z</time>
      </trkpt>
      <trkpt lat="47.589873" lon="7.912855">
        <ele>306.305747</ele>
        <time>2021-11-08T21:18:02.119Z</time>
      </trkpt>
      <trkpt lat="47.590231" lon="7.912830">
        <ele>306.408480</ele>
        <time>2021-11-08T21:18:07.843Z</time>
      </trkpt>
      <trkpt lat="47.590570" lon="7.912784">
        <ele>306.573042</ele>
        <time>2021-11-08T21:18:13.964Z</time>
      </trkpt>
      <trkpt lat="47.591044" lon="7.912710">
        <ele>307.091768</ele>
        <time>2021-11-08T21:18:23.037Z</time>
      </trkpt>
      <trkpt lat="47.591348" lon="7.912662">
        <ele>307.424495</ele>
        <time>2021-11-08T21:18:29.119Z</time>
      </trkpt>
      <trkpt lat="47.591443" lon="7.912678">
        <ele>307.528552</ele>
        <time>2021-11-08T21:18:30.697Z</time>
      </trkpt>
      <trkpt lat="47.591605" lon="7.912829">
        <ele>307.736806</ele>
        <time>2021-11-08T21:18:34.941Z</time>
      </trkpt>
      <trkpt lat="47.591714" lon="7.913064">
        <ele>307.946150</ele>
        <time>2021-11-08T21:18:38.248Z</time>
      </trkpt>
      <trkpt lat="47.591721" lon="7.913096">
        <ele>307.970843</ele>
        <time>2021-11-08T21:18:38.633Z</time>
      </trkpt>
      <trkpt lat="47.591746" lon="7.913330">
        <ele>308.144738</ele>
        <time>2021-11-08T21:18:42.358Z</time>
      </trkpt>
      <trkpt lat="47.591809" lon="7.913704">
        <ele>308.427682</ele>
        <time>2021-11-08T21:18:46.577Z</time>
      </trkpt>
      <trkpt lat="47.591858" lon="7.913783">
        <ele>308.548257</ele>
        <time>2021-11-08T21:18:48.489Z</time>
      </trkpt>
      <trkpt lat="47.591953" lon="7.913843">
        <ele>308.730940</ele>
        <time>2021-11-08T21:18:50.485Z</time>
      </trkpt>
      <trkpt lat="47.592496" lon="7.914014">
        <ele>309.713029</ele>
        <time>2021-11-08T21:19:01.440Z</time>
      </trkpt>
      <trkpt lat="47.592589" lon="7.914035">
        <ele>309.879459</ele>
        <time>2021-11-08T21:19:04.461Z</time>
      </trkpt>
      <trkpt lat="47.592672" lon="7.914009">
        <ele>310.029542</ele>
        <time>2021-11-08T21:19:06.124Z</time>
      </trkpt>
      <trkpt lat="47.592807" lon="7.913929">
        <ele>310.286748</ele>
        <time>2021-11-08T21:19:08.586Z</time>
      </trkpt>
      <trkpt lat="47.593189" lon="7.913725">
        <ele>311.005066</ele>
        <time>2021-11-08T21:19:18.030Z</time>
      </trkpt>
      <trkpt lat="47.593511" lon="7.913649">
        <ele>311.581912</ele>
        <time>2021-11-08T21:19:25.963Z</time>
      </trkpt>
      <trkpt lat="47.593654" lon="7.913672">
        <ele>311.894855</ele>
        <time>2021-11-08T21:19:29.708Z</time>
      </trkpt>
      <trkpt lat="47.594163" lon="7.913924">
        <ele>313.102859</ele>
        <time>2021-11-08T21:19:42.863Z</time>
      </trkpt>
      <trkpt lat="47.594719" lon="7.914022">
        <ele>314.363299</ele>
        <time>2021-11-08T21:19:56.706Z</time>
      </trkpt>
      <trkpt lat="47.594871" lon="7.914141">
        <ele>314.750232</ele>
        <time>2021-11-08T21:20:00.683Z</time>
      </trkpt>
      <trkpt lat="47.595031" lon="7.914316">
        <ele>315.197791</ele>
        <time>2021-11-08T21:20:05.556Z</time>
      </trkpt>
      <trkpt lat="47.595292" lon="7.914664">
        <ele>315.857977</ele>
        <time>2021-11-08T21:20:13.184Z</time>
      </trkpt>
      <trkpt lat="47.595476" lon="7.914889">
        <ele>316.174898</ele>
        <time>2021-11-08T21:20:18.270Z</time>
      </trkpt>
      <trkpt lat="47.595688" lon="7.915084">
        <ele>316.506410</ele>
        <time>2021-11-08T21:20:23.702Z</time>
      </trkpt>
      <trkpt lat="47.595861" lon="7.915155">
        <ele>316.744944</ele>
        <time>2021-11-08T21:20:27.223Z</time>
      </trkpt>
      <trkpt lat="47.595909" lon="7.915188">
        <ele>316.815251</ele>
        <time>2021-11-08T21:20:28.305Z</time>
      </trkpt>
      <trkpt lat="47.595949" lon="7.915202">
        <ele>316.869865</ele>
        <time>2021-11-08T21:20:29.237Z</time>
      </trkpt>
      <trkpt lat="47.596117" lon="7.915243">
        <ele>317.096116</ele>
        <time>2021-11-08T21:20:32.833Z</time>
      </trkpt>
      <trkpt lat="47.596349" lon="7.915301">
        <ele>317.408761</ele>
        <time>2021-11-08T21:20:37.263Z</time>
      </trkpt>
      <trkpt lat="47.596736" lon="7.915598">
        <ele>317.987815</ele>
        <time>2021-11-08T21:20:45.101Z</time>
      </trkpt>
      <trkpt lat="47.596850" lon="7.915674">
        <ele>318.134139</ele>
        <time>2021-11-08T21:20:47.091Z</time>
      </trkpt>
      <trkpt lat="47.597083" lon="7.915733">
        <ele>318.381487</ele>
        <time>2021-11-08T21:20:51.222Z</time>
      </trkpt>
      <trkpt lat="47.597656" lon="7.915778">
        <ele>318.981934</ele>
        <time>2021-11-08T21:21:01.396Z</time>
      </trkpt>
      <trkpt lat="47.599120" lon="7.915596">
        <ele>320.449350</ele>
        <time>2021-11-08T21:21:31.367Z</time>
      </trkpt>
      <trkpt lat="47.599374" lon="7.915625">
        <ele>320.683576</ele>
        <time>2021-11-08T21:21:36.079Z</time>
      </trkpt>
      <trkpt lat="47.599906" lon="7.915798">
        <ele>321.184334</ele>
        <time>2021-11-08T21:21:45.906Z</time>
      </trkpt>
      <trkpt lat="47.600078" lon="7.915859">
        <ele>321.346935</ele>
        <time>2021-11-08T21:21:48.970Z</time>
      </trkpt>
      <trkpt lat="47.600344" lon="7.915900">
        <ele>321.592821</ele>
        <time>2021-11-08T21:21:53.464Z</time>
      </trkpt>
      <trkpt lat="47.600545" lon="7.915898">
        <ele>321.670655</ele>
        <time>2021-11-08T21:21:56.930Z</time>
      </trkpt>
      <trkpt lat="47.600689" lon="7.915853">
        <ele>321.725928</ele>
        <time>2021-11-08T21:21:59.260Z</time>
      </trkpt>
      <trkpt lat="47.601054" lon="7.915633">
        <ele>321.873908</ele>
        <time>2021-11-08T21:22:05.677Z</time>
      </trkpt>
      <trkpt lat="47.601546" lon="7.915285">
        <ele>322.078641</ele>
        <time>2021-11-08T21:22:14.081Z</time>
      </trkpt>
      <trkpt lat="47.601809" lon="7.915168">
        <ele>322.181770</ele>
        <time>2021-11-08T21:22:18.288Z</time>
      </trkpt>
      <trkpt lat="47.602131" lon="7.915025">
        <ele>322.383242</ele>
        <time>2021-11-08T21:22:23.766Z</time>
      </trkpt>
      <trkpt lat="47.602754" lon="7.914823">
        <ele>323.127663</ele>
        <time>2021-11-08T21:22:35.586Z</time>
      </trkpt>
      <trkpt lat="47.603302" lon="7.914722">
        <ele>323.772279</ele>
        <time>2021-11-08T21:22:46.746Z</time>
      </trkpt>
      <trkpt lat="47.603466" lon="7.914620">
        <ele>323.979873</ele>
        <time>2021-11-08T21:22:50.634Z</time>
      </trkpt>
      <trkpt lat="47.603615" lon="7.914449">
        <ele>324.199797</ele>
        <time>2021-11-08T21:22:54.609Z</time>
      </trkpt>
      <trkpt lat="47.603884" lon="7.914671">
        <ele>324.611145</ele>
        <time>2021-11-08T21:23:01.294Z</time>
      </trkpt>
      <trkpt lat="47.603957" lon="7.914712">
        <ele>324.727573</ele>
        <time>2021-11-08T21:23:03.034Z</time>
      </trkpt>
      <trkpt lat="47.604062" lon="7.914772">
        <ele>324.895407</ele>
        <time>2021-11-08T21:23:05.494Z</time>
      </trkpt>
      <trkpt lat="47.604393" lon="7.914885">
        <ele>325.402016</ele>
        <time>2021-11-08T21:23:12.509Z</time>
      </trkpt>
      <trkpt lat="47.604722" lon="7.914915">
        <ele>325.893659</ele>
        <time>2021-11-08T21:23:19.154Z</time>
      </trkpt>
      <trkpt lat="47.605105" lon="7.914869">
        <ele>326.466788</ele>
        <time>2021-11-08T21:23:27.045Z</time>
      </trkpt>
      <trkpt lat="47.605408" lon="7.914750">
        <ele>326.934300</ele>
        <time>2021-11-08T21:23:33.727Z</time>
      </trkpt>
      <trkpt lat="47.605648" lon="7.914613">
        <ele>327.255070</ele>
        <time>2021-11-08T21:23:39.067Z</time>
      </trkpt>
      <trkpt lat="47.605929" lon="7.914457">
        <ele>327.595812</ele>
        <time>2021-11-08T21:23:44.983Z</time>
      </trkpt>
      <trkpt lat="47.606200" lon="7.914255">
        <ele>327.940255</ele>
        <time>2021-11-08T21:23:50.804Z</time>
      </trkpt>
      <trkpt lat="47.606450" lon="7.914067">
        <ele>328.258576</ele>
        <time>2021-11-08T21:23:56.068Z</time>
      </trkpt>
      <trkpt lat="47.606558" lon="7.913988">
        <ele>328.395332</ele>
        <time>2021-11-08T21:23:58.268Z</time>
      </trkpt>
      <trkpt lat="47.606706" lon="7.913869">
        <ele>328.586518</ele>
        <time>2021-11-08T21:24:01.401Z</time>
      </trkpt>
      <trkpt lat="47.606938" lon="7.913697">
        <ele>328.881072</ele>
        <time>2021-11-08T21:24:06.222Z</time>
      </trkpt>
      <trkpt lat="47.607292" lon="7.913435">
        <ele>329.378013</ele>
        <time>2021-11-08T21:24:13.846Z</time>
      </trkpt>
      <trkpt lat="47.607663" lon="7.913198">
        <ele>329.930551</ele>
        <time>2021-11-08T21:24:22.097Z</time>
      </trkpt>
      <trkpt lat="47.608679" lon="7.912703">
        <ele>331.393338</ele>
        <time>2021-11-08T21:24:44.249Z</time>
      </trkpt>
      <trkpt lat="47.609914" lon="7.912278">
        <ele>333.088112</ele>
        <time>2021-11-08T21:25:10.272Z</time>
      </trkpt>
      <trkpt lat="47.610416" lon="7.911983">
        <ele>333.808167</ele>
        <time>2021-11-08T21:25:21.496Z</time>
      </trkpt>
      <trkpt lat="47.611260" lon="7.911383">
        <ele>334.143068</ele>
        <time>2021-11-08T21:25:38.139Z</time>
      </trkpt>
      <trkpt lat="47.611650" lon="7.911158">
        <ele>334.237886</ele>
        <time>2021-11-08T21:25:44.115Z</time>
      </trkpt>
      <trkpt lat="47.612029" lon="7.910940">
        <ele>334.329994</ele>
        <time>2021-11-08T21:25:49.630Z</time>
      </trkpt>
      <trkpt lat="47.612005" lon="7.910790">
        <ele>334.353543</ele>
        <time>2021-11-08T21:25:50.927Z</time>
      </trkpt>
      <trkpt lat="47.611994" lon="7.910676">
        <ele>334.330473</ele>
        <time>2021-11-08T21:25:51.996Z</time>
      </trkpt>
      <trkpt lat="47.611988" lon="7.910610">
        <ele>334.285058</ele>
        <time>2021-11-08T21:25:52.510Z</time>
      </trkpt>
      <trkpt lat="47.611981" lon="7.910534">
        <ele>334.232748</ele>
        <time>2021-11-08T21:25:53.147Z</time>
      </trkpt>
      <trkpt lat="47.611986" lon="7.910466">
        <ele>334.186101</ele>
        <time>2021-11-08T21:25:53.907Z</time>
      </trkpt>
      <trkpt lat="47.612020" lon="7.910364">
        <ele>334.108504</ele>
        <time>2021-11-08T21:25:54.926Z</time>
      </trkpt>
      <trkpt lat="47.612082" lon="7.910269">
        <ele>334.018334</ele>
        <time>2021-11-08T21:25:56.082Z</time>
      </trkpt>
      <trkpt lat="47.612131" lon="7.910214">
        <ele>333.956176</ele>
        <time>2021-11-08T21:25:56.869Z</time>
      </trkpt>
      <trkpt lat="47.612216" lon="7.910134">
        <ele>333.854345</ele>
        <time>2021-11-08T21:25:58.106Z</time>
      </trkpt>
      <trkpt lat="47.612897" lon="7.909812">
        <ele>333.131316</ele>
        <time>2021-11-08T21:26:07.051Z</time>
      </trkpt>
      <trkpt lat="47.613280" lon="7.909624">
        <ele>332.723224</ele>
        <time>2021-11-08T21:26:11.640Z</time>
      </trkpt>
      <trkpt lat="47.613360" lon="7.909602">
        <ele>332.640920</ele>
        <time>2021-11-08T21:26:12.575Z</time>
      </trkpt>
      <trkpt lat="47.613934" lon="7.909339">
        <ele>332.023901</ele>
        <time>2021-11-08T21:26:19.410Z</time>
      </trkpt>
      <trkpt lat="47.614063" lon="7.909285">
        <ele>331.885842</ele>
        <time>2021-11-08T21:26:21.025Z</time>
      </trkpt>
      <trkpt lat="47.614412" lon="7.909095">
        <ele>331.502929</ele>
        <time>2021-11-08T21:26:25.549Z</time>
      </trkpt>
      <trkpt lat="47.614784" lon="7.908839">
        <ele>331.080547</ele>
        <time>2021-11-08T21:26:30.758Z</time>
      </trkpt>
      <trkpt lat="47.614876" lon="7.908760">
        <ele>330.971056</ele>
        <time>2021-11-08T21:26:32.171Z</time>
      </trkpt>
      <trkpt lat="47.615085" lon="7.908567">
        <ele>330.717484</ele>
        <time>2021-11-08T21:26:35.313Z</time>
      </trkpt>
      <trkpt lat="47.615246" lon="7.908385">
        <ele>330.741566</ele>
        <time>2021-11-08T21:26:38.016Z</time>
      </trkpt>
      <trkpt lat="47.615374" lon="7.908222">
        <ele>330.789061</ele>
        <time>2021-11-08T21:26:40.132Z</time>
      </trkpt>
      <trkpt lat="47.615460" lon="7.908111">
        <ele>330.821155</ele>
        <time>2021-11-08T21:26:41.650Z</time>
      </trkpt>
      <trkpt lat="47.615669" lon="7.907870">
        <ele>330.895685</ele>
        <time>2021-11-08T21:26:45.209Z</time>
      </trkpt>
      <trkpt lat="47.615821" lon="7.907747">
        <ele>330.944433</ele>
        <time>2021-11-08T21:26:47.665Z</time>
      </trkpt>
      <trkpt lat="47.615946" lon="7.907692">
        <ele>330.981141</ele>
        <time>2021-11-08T21:26:49.475Z</time>
      </trkpt>
      <trkpt lat="47.616009" lon="7.907686">
        <ele>330.998915</ele>
        <time>2021-11-08T21:26:50.691Z</time>
      </trkpt>
      <trkpt lat="47.616124" lon="7.907729">
        <ele>331.032305</ele>
        <time>2021-11-08T21:26:52.706Z</time>
      </trkpt>
      <trkpt lat="47.616604" lon="7.908203">
        <ele>331.194651</ele>
        <time>2021-11-08T21:27:04.134Z</time>
      </trkpt>
      <trkpt lat="47.616832" lon="7.908284">
        <ele>331.703255</ele>
        <time>2021-11-08T21:27:09.269Z</time>
      </trkpt>
      <trkpt lat="47.617086" lon="7.908230">
        <ele>332.286128</ele>
        <time>2021-11-08T21:27:14.935Z</time>
      </trkpt>
      <trkpt lat="47.617238" lon="7.908130">
        <ele>332.663836</ele>
        <time>2021-11-08T21:27:18.486Z</time>
      </trkpt>
      <trkpt lat="47.617957" lon="7.907285">
        <ele>334.747495</ele>
        <time>2021-11-08T21:27:40.584Z</time>
      </trkpt>
      <trkpt lat="47.618470" lon="7.907083">
        <ele>336.298972</ele>
        <time>2021-11-08T21:27:55.891Z</time>
      </trkpt>
      <trkpt lat="47.618579" lon="7.906988">
        <ele>336.734497</ele>
        <time>2021-11-08T21:27:59.206Z</time>
      </trkpt>
      <trkpt lat="47.618719" lon="7.906838">
        <ele>337.329446</ele>
        <time>2021-11-08T21:28:04.821Z</time>
      </trkpt>
      <trkpt lat="47.618867" lon="7.906514">
        <ele>338.238331</ele>
        <time>2021-11-08T21:28:11.866Z</time>
      </trkpt>
      <trkpt lat="47.618888" lon="7.906392">
        <ele>338.530732</ele>
        <time>2021-11-08T21:28:15.060Z</time>
      </trkpt>
      <trkpt lat="47.618920" lon="7.906208">
        <ele>338.972011</ele>
        <time>2021-11-08T21:28:18.896Z</time>
      </trkpt>
      <trkpt lat="47.618976" lon="7.905535">
        <ele>340.546716</ele>
        <time>2021-11-08T21:28:31.097Z</time>
      </trkpt>
      <trkpt lat="47.619155" lon="7.905319">
        <ele>341.341628</ele>
        <time>2021-11-08T21:28:38.357Z</time>
      </trkpt>
      <trkpt lat="47.619299" lon="7.905308">
        <ele>341.762242</ele>
        <time>2021-11-08T21:28:41.633Z</time>
      </trkpt>
      <trkpt lat="47.619447" lon="7.905300">
        <ele>342.163970</ele>
        <time>2021-11-08T21:28:46.727Z</time>
      </trkpt>
      <trkpt lat="47.619822" lon="7.905278">
        <ele>343.181980</ele>
        <time>2021-11-08T21:28:57.714Z</time>
      </trkpt>
      <trkpt lat="47.620212" lon="7.905256">
        <ele>344.240649</ele>
        <time>2021-11-08T21:29:07.607Z</time>
      </trkpt>
      <trkpt lat="47.620426" lon="7.905244">
        <ele>344.821554</ele>
        <time>2021-11-08T21:29:12.420Z</time>
      </trkpt>
      <trkpt lat="47.620699" lon="7.905223">
        <ele>345.563082</ele>
        <time>2021-11-08T21:29:18.867Z</time>
      </trkpt>
      <trkpt lat="47.621107" lon="7.905191">
        <ele>346.556147</ele>
        <time>2021-11-08T21:29:28.444Z</time>
      </trkpt>
      <trkpt lat="47.621248" lon="7.905159">
        <ele>346.800240</ele>
        <time>2021-11-08T21:29:31.671Z</time>
      </trkpt>
      <trkpt lat="47.622235" lon="7.904957">
        <ele>348.505232</ele>
        <time>2021-11-08T21:29:53.769Z</time>
      </trkpt>
      <trkpt lat="47.622424" lon="7.904919">
        <ele>348.831613</ele>
        <time>2021-11-08T21:29:57.805Z</time>
      </trkpt>
      <trkpt lat="47.622648" lon="7.904863">
        <ele>349.220336</ele>
        <time>2021-11-08T21:30:02.588Z</time>
      </trkpt>
      <trkpt lat="47.623650" lon="7.904642">
        <ele>350.001882</ele>
        <time>2021-11-08T21:30:21.619Z</time>
      </trkpt>
      <trkpt lat="47.624120" lon="7.904530">
        <ele>350.305182</ele>
        <time>2021-11-08T21:30:29.647Z</time>
      </trkpt>
      <trkpt lat="47.624263" lon="7.904484">
        <ele>350.398412</ele>
        <time>2021-11-08T21:30:31.837Z</time>
      </trkpt>
      <trkpt lat="47.624399" lon="7.904386">
        <ele>350.494744</ele>
        <time>2021-11-08T21:30:34.089Z</time>
      </trkpt>
      <trkpt lat="47.624451" lon="7.904332">
        <ele>350.535185</ele>
        <time>2021-11-08T21:30:35.066Z</time>
      </trkpt>
      <trkpt lat="47.624472" lon="7.904367">
        <ele>350.555308</ele>
        <time>2021-11-08T21:30:35.485Z</time>
      </trkpt>
      <trkpt lat="47.624565" lon="7.904455">
        <ele>350.587546</ele>
        <time>2021-11-08T21:30:37.076Z</time>
      </trkpt>
      <trkpt lat="47.624761" lon="7.904481">
        <ele>350.600435</ele>
        <time>2021-11-08T21:30:39.856Z</time>
      </trkpt>
      <trkpt lat="47.624956" lon="7.904522">
        <ele>350.613335</ele>
        <time>2021-11-08T21:30:42.569Z</time>
      </trkpt>
      <trkpt lat="47.625088" lon="7.904563">
        <ele>350.622169</ele>
        <time>2021-11-08T21:30:44.535Z</time>
      </trkpt>
      <trkpt lat="47.625516" lon="7.904701">
        <ele>350.650857</ele>
        <time>2021-11-08T21:30:50.938Z</time>
      </trkpt>
      <trkpt lat="47.625742" lon="7.904774">
        <ele>350.666007</ele>
        <time>2021-11-08T21:30:54.184Z</time>
      </trkpt>
      <trkpt lat="47.626086" lon="7.904879">
        <ele>350.689011</ele>
        <time>2021-11-08T21:30:59.726Z</time>
      </trkpt>
      <trkpt lat="47.626221" lon="7.904920">
        <ele>350.698037</ele>
        <time>2021-11-08T21:31:01.989Z</time>
      </trkpt>
      <trkpt lat="47.626399" lon="7.904961">
        <ele>350.832869</ele>
        <time>2021-11-08T21:31:04.937Z</time>
      </trkpt>
      <trkpt lat="47.626440" lon="7.905007">
        <ele>350.883112</ele>
        <time>2021-11-08T21:31:05.633Z</time>
      </trkpt>
      <trkpt lat="47.626505" lon="7.904968">
        <ele>350.951643</ele>
        <time>2021-11-08T21:31:06.972Z</time>
      </trkpt>
      <trkpt lat="47.627067" lon="7.904813">
        <ele>351.510377</ele>
        <time>2021-11-08T21:31:17.166Z</time>
      </trkpt>
      <trkpt lat="47.627287" lon="7.904761">
        <ele>351.728126</ele>
        <time>2021-11-08T21:31:21.439Z</time>
      </trkpt>
      <trkpt lat="47.627467" lon="7.904744">
        <ele>351.904422</ele>
        <time>2021-11-08T21:31:25.042Z</time>
      </trkpt>
      <trkpt lat="47.627955" lon="7.904708">
        <ele>352.382004</ele>
        <time>2021-11-08T21:31:35.055Z</time>
      </trkpt>
      <trkpt lat="47.628650" lon="7.904559">
        <ele>353.517973</ele>
        <time>2021-11-08T21:31:49.644Z</time>
      </trkpt>
      <trkpt lat="47.628975" lon="7.904514">
        <ele>354.072439</ele>
        <time>2021-11-08T21:31:56.461Z</time>
      </trkpt>
      <trkpt lat="47.629371" lon="7.904510">
        <ele>354.745129</ele>
        <time>2021-11-08T21:32:05.317Z</time>
      </trkpt>
      <trkpt lat="47.629558" lon="7.904513">
        <ele>355.062799</ele>
        <time>2021-11-08T21:32:09.394Z</time>
      </trkpt>
      <trkpt lat="47.629718" lon="7.904514">
        <ele>355.334588</ele>
        <time>2021-11-08T21:32:13.133Z</time>
      </trkpt>
      <trkpt lat="47.629946" lon="7.904556">
        <ele>355.752933</ele>
        <time>2021-11-08T21:32:18.211Z</time>
      </trkpt>
      <trkpt lat="47.629962" lon="7.904269">
        <ele>356.126574</ele>
        <time>2021-11-08T21:32:22.858Z</time>
      </trkpt>
      <trkpt lat="47.629971" lon="7.903809">
        <ele>356.723654</ele>
        <time>2021-11-08T21:32:30.145Z</time>
      </trkpt>
      <trkpt lat="47.629981" lon="7.903605">
        <ele>356.989034</ele>
        <time>2021-11-08T21:32:33.357Z</time>
      </trkpt>
      <trkpt lat="47.630003" lon="7.903430">
        <ele>357.220004</ele>
        <time>2021-11-08T21:32:36.334Z</time>
      </trkpt>
      <trkpt lat="47.630019" lon="7.903301">
        <ele>357.390187</ele>
        <time>2021-11-08T21:32:38.688Z</time>
      </trkpt>
      <trkpt lat="47.630125" lon="7.903008">
        <ele>357.821653</ele>
        <time>2021-11-08T21:32:43.540Z</time>
      </trkpt>
      <trkpt lat="47.630334" lon="7.902735">
        <ele>358.357718</ele>
        <time>2021-11-08T21:32:50.293Z</time>
      </trkpt>
      <trkpt lat="47.630425" lon="7.902631">
        <ele>358.578855</ele>
        <time>2021-11-08T21:32:52.397Z</time>
      </trkpt>
      <trkpt lat="47.630643" lon="7.902358">
        <ele>359.013548</ele>
        <time>2021-11-08T21:32:58.324Z</time>
      </trkpt>
      <trkpt lat="47.631232" lon="7.901830">
        <ele>359.332767</ele>
        <time>2021-11-08T21:33:11.613Z</time>
      </trkpt>
      <trkpt lat="47.631256" lon="7.901808">
        <ele>359.345854</ele>
        <time>2021-11-08T21:33:11.880Z</time>
      </trkpt>
      <trkpt lat="47.632600" lon="7.900774">
        <ele>359.914824</ele>
        <time>2021-11-08T21:33:33.997Z</time>
      </trkpt>
      <trkpt lat="47.632720" lon="7.900711">
        <ele>359.940596</ele>
        <time>2021-11-08T21:33:35.606Z</time>
      </trkpt>
      <trkpt lat="47.632986" lon="7.900573">
        <ele>359.997650</ele>
        <time>2021-11-08T21:33:39.617Z</time>
      </trkpt>
      <trkpt lat="47.633103" lon="7.900526">
        <ele>360.022192</ele>
        <time>2021-11-08T21:33:41.080Z</time>
      </trkpt>
      <trkpt lat="47.633136" lon="7.900472">
        <ele>360.032138</ele>
        <time>2021-11-08T21:33:41.639Z</time>
      </trkpt>
      <trkpt lat="47.633178" lon="7.900379">
        <ele>360.047413</ele>
        <time>2021-11-08T21:33:42.586Z</time>
      </trkpt>
      <trkpt lat="47.633226" lon="7.900424">
        <ele>360.058908</ele>
        <time>2021-11-08T21:33:44.130Z</time>
      </trkpt>
      <trkpt lat="47.633282" lon="7.900614">
        <ele>360.087203</ele>
        <time>2021-11-08T21:33:46.087Z</time>
      </trkpt>
      <trkpt lat="47.633342" lon="7.900593">
        <ele>360.099685</ele>
        <time>2021-11-08T21:33:47.267Z</time>
      </trkpt>
      <trkpt lat="47.633921" lon="7.900563">
        <ele>360.865782</ele>
        <time>2021-11-08T21:34:01.494Z</time>
      </trkpt>
      <trkpt lat="47.633917" lon="7.900261">
        <ele>361.555377</ele>
        <time>2021-11-08T21:34:06.729Z</time>
      </trkpt>
      <trkpt lat="47.633945" lon="7.900020">
        <ele>362.113695</ele>
        <time>2021-11-08T21:34:13.105Z</time>
      </trkpt>
      <trkpt lat="47.634007" lon="7.899717">
        <ele>362.836627</ele>
        <time>2021-11-08T21:34:19.158Z</time>
      </trkpt>
      <trkpt lat="47.634071" lon="7.899581">
        <ele>363.215328</ele>
        <time>2021-11-08T21:34:24.015Z</time>
      </trkpt>
      <trkpt lat="47.634413" lon="7.899025">
        <ele>364.933962</ele>
        <time>2021-11-08T21:34:41.470Z</time>
      </trkpt>
      <trkpt lat="47.634521" lon="7.898897">
        <ele>365.402224</ele>
        <time>2021-11-08T21:34:47.539Z</time>
      </trkpt>
      <trkpt lat="47.634660" lon="7.898725">
        <ele>366.015374</ele>
        <time>2021-11-08T21:34:54.202Z</time>
      </trkpt>
      <trkpt lat="47.634709" lon="7.898683">
        <ele>366.207082</ele>
        <time>2021-11-08T21:34:56.114Z</time>
      </trkpt>
      <trkpt lat="47.634851" lon="7.898560">
        <ele>367.177948</ele>
        <time>2021-11-08T21:35:03.869Z</time>
      </trkpt>
      <trkpt lat="47.635439" lon="7.898291">
        <ele>371.006181</ele>
        <time>2021-11-08T21:35:29.861Z</time>
      </trkpt>
      <trkpt lat="47.635572" lon="7.898264">
        <ele>371.841371</ele>
        <time>2021-11-08T21:35:36.404Z</time>
      </trkpt>
      <trkpt lat="47.635798" lon="7.898256">
        <ele>373.247870</ele>
        <time>2021-11-08T21:35:46.648Z</time>
      </trkpt>
      <trkpt lat="47.636998" lon="7.898270">
        <ele>380.551137</ele>
        <time>2021-11-08T21:36:44.935Z</time>
      </trkpt>
      <trkpt lat="47.637346" lon="7.898225">
        <ele>382.615638</ele>
        <time>2021-11-08T21:37:00.561Z</time>
      </trkpt>
      <trkpt lat="47.637397" lon="7.898245">
        <ele>382.927398</ele>
        <time>2021-11-08T21:37:03.503Z</time>
      </trkpt>
      <trkpt lat="47.637967" lon="7.898221">
        <ele>386.297500</ele>
        <time>2021-11-08T21:37:23.519Z</time>
      </trkpt>
      <trkpt lat="47.638114" lon="7.898263">
        <ele>387.182235</ele>
        <time>2021-11-08T21:37:29.499Z</time>
      </trkpt>
      <trkpt lat="47.638328" lon="7.898434">
        <ele>388.340193</ele>
        <time>2021-11-08T21:37:37.138Z</time>
      </trkpt>
      <trkpt lat="47.638614" lon="7.898515">
        <ele>389.154436</ele>
        <time>2021-11-08T21:37:47.200Z</time>
      </trkpt>
      <trkpt lat="47.639302" lon="7.898244">
        <ele>391.145065</ele>
        <time>2021-11-08T21:38:06.413Z</time>
      </trkpt>
      <trkpt lat="47.639542" lon="7.898268">
        <ele>391.817756</ele>
        <time>2021-11-08T21:38:11.579Z</time>
      </trkpt>
      <trkpt lat="47.639738" lon="7.898399">
        <ele>392.418895</ele>
        <time>2021-11-08T21:38:15.821Z</time>
      </trkpt>
      <trkpt lat="47.640140" lon="7.898843">
        <ele>393.609466</ele>
        <time>2021-11-08T21:38:24.689Z</time>
      </trkpt>
      <trkpt lat="47.640440" lon="7.899355">
        <ele>394.503112</ele>
        <time>2021-11-08T21:38:34.422Z</time>
      </trkpt>
      <trkpt lat="47.640608" lon="7.899969">
        <ele>395.375913</ele>
        <time>2021-11-08T21:38:44.025Z</time>
      </trkpt>
      <trkpt lat="47.640708" lon="7.900137">
        <ele>395.671153</ele>
        <time>2021-11-08T21:38:48.757Z</time>
      </trkpt>
      <trkpt lat="47.640929" lon="7.900272">
        <ele>396.138304</ele>
        <time>2021-11-08T21:38:53.398Z</time>
      </trkpt>
      <trkpt lat="47.641277" lon="7.900285">
        <ele>396.892140</ele>
        <time>2021-11-08T21:39:02.212Z</time>
      </trkpt>
      <trkpt lat="47.641318" lon="7.900134">
        <ele>397.192585</ele>
        <time>2021-11-08T21:39:06.555Z</time>
      </trkpt>
      <trkpt lat="47.641786" lon="7.899428">
        <ele>399.020360</ele>
        <time>2021-11-08T21:39:24.029Z</time>
      </trkpt>
      <trkpt lat="47.642084" lon="7.899209">
        <ele>399.931174</ele>
        <time>2021-11-08T21:39:32.900Z</time>
      </trkpt>
      <trkpt lat="47.642242" lon="7.899161">
        <ele>400.372915</ele>
        <time>2021-11-08T21:39:38.106Z</time>
      </trkpt>
      <trkpt lat="47.642610" lon="7.899205">
        <ele>401.384148</ele>
        <time>2021-11-08T21:39:48.145Z</time>
      </trkpt>
      <trkpt lat="47.643203" lon="7.899152">
        <ele>401.659997</ele>
        <time>2021-11-08T21:39:59.522Z</time>
      </trkpt>
      <trkpt lat="47.644179" lon="7.899348">
        <ele>401.841638</ele>
        <time>2021-11-08T21:40:13.201Z</time>
      </trkpt>
      <trkpt lat="47.644712" lon="7.899668">
        <ele>401.817191</ele>
        <time>2021-11-08T21:40:19.914Z</time>
      </trkpt>
      <trkpt lat="47.645260" lon="7.899829">
        <ele>401.669025</ele>
        <time>2021-11-08T21:40:26.588Z</time>
      </trkpt>
      <trkpt lat="47.645746" lon="7.900096">
        <ele>401.531576</ele>
        <time>2021-11-08T21:40:34.025Z</time>
      </trkpt>
      <trkpt lat="47.645932" lon="7.900091">
        <ele>401.482235</ele>
        <time>2021-11-08T21:40:36.443Z</time>
      </trkpt>
      <trkpt lat="47.646188" lon="7.900059">
        <ele>401.448767</ele>
        <time>2021-11-08T21:40:41.067Z</time>
      </trkpt>
      <trkpt lat="47.646820" lon="7.899789">
        <ele>403.286818</ele>
        <time>2021-11-08T21:40:56.866Z</time>
      </trkpt>
      <trkpt lat="47.647173" lon="7.899512">
        <ele>404.402779</ele>
        <time>2021-11-08T21:41:07.710Z</time>
      </trkpt>
      <trkpt lat="47.647258" lon="7.899353">
        <ele>404.784960</ele>
        <time>2021-11-08T21:41:11.264Z</time>
      </trkpt>
      <trkpt lat="47.647312" lon="7.898850">
        <ele>405.743994</ele>
        <time>2021-11-08T21:41:22.827Z</time>
      </trkpt>
      <trkpt lat="47.647362" lon="7.898569">
        <ele>406.291224</ele>
        <time>2021-11-08T21:41:29.095Z</time>
      </trkpt>
      <trkpt lat="47.647493" lon="7.898374">
        <ele>406.656969</ele>
        <time>2021-11-08T21:41:34.366Z</time>
      </trkpt>
      <trkpt lat="47.648220" lon="7.897956">
        <ele>407.925679</ele>
        <time>2021-11-08T21:41:54.628Z</time>
      </trkpt>
      <trkpt lat="47.648379" lon="7.897871">
        <ele>408.200691</ele>
        <time>2021-11-08T21:41:59.085Z</time>
      </trkpt>
      <trkpt lat="47.648924" lon="7.897475">
        <ele>409.188130</ele>
        <time>2021-11-08T21:42:09.592Z</time>
      </trkpt>
      <trkpt lat="47.649310" lon="7.897390">
        <ele>408.753937</ele>
        <time>2021-11-08T21:42:13.747Z</time>
      </trkpt>
      <trkpt lat="47.650323" lon="7.897381">
        <ele>406.504128</ele>
        <time>2021-11-08T21:42:24.327Z</time>
      </trkpt>
      <trkpt lat="47.650387" lon="7.897334">
        <ele>406.345548</ele>
        <time>2021-11-08T21:42:24.968Z</time>
      </trkpt>
      <trkpt lat="47.650543" lon="7.897274">
        <ele>405.987648</ele>
        <time>2021-11-08T21:42:26.835Z</time>
      </trkpt>
      <trkpt lat="47.650706" lon="7.897156">
        <ele>405.584888</ele>
        <time>2021-11-08T21:42:28.709Z</time>
      </trkpt>
      <trkpt lat="47.651383" lon="7.897117">
        <ele>404.708602</ele>
        <time>2021-11-08T21:42:36.549Z</time>
      </trkpt>
      <trkpt lat="47.651465" lon="7.897134">
        <ele>404.613866</ele>
        <time>2021-11-08T21:42:37.337Z</time>
      </trkpt>
      <trkpt lat="47.651465" lon="7.897134">
        <ele>404.613866</ele>
        <time>2021-11-08T21:42:37.356Z</time>
      </trkpt>
      <trkpt lat="47.651465" lon="7.897134">
        <ele>404.613866</ele>
        <time>2021-11-08T21:42:37.404Z</time>
      </trkpt>
      <trkpt lat="47.651760" lon="7.897331">
        <ele>404.243743</ele>
        <time>2021-11-08T21:42:41.370Z</time>
      </trkpt>
      <trkpt lat="47.652153" lon="7.897594">
        <ele>403.750489</ele>
        <time>2021-11-08T21:42:46.983Z</time>
      </trkpt>
      <trkpt lat="47.652925" lon="7.897994">
        <ele>403.421705</ele>
        <time>2021-11-08T21:42:58.637Z</time>
      </trkpt>
      <trkpt lat="47.653340" lon="7.898105">
        <ele>403.520725</ele>
        <time>2021-11-08T21:43:05.265Z</time>
      </trkpt>
      <trkpt lat="47.653349" lon="7.897933">
        <ele>403.548013</ele>
        <time>2021-11-08T21:43:07.423Z</time>
      </trkpt>
      <trkpt lat="47.653356" lon="7.897817">
        <ele>403.566435</ele>
        <time>2021-11-08T21:43:08.977Z</time>
      </trkpt>
      <trkpt lat="47.653455" lon="7.897893">
        <ele>403.592607</ele>
        <time>2021-11-08T21:43:10.836Z</time>
      </trkpt>
      <trkpt lat="47.653625" lon="7.897881">
        <ele>403.632572</ele>
        <time>2021-11-08T21:43:13.506Z</time>
      </trkpt>
      <trkpt lat="47.653737" lon="7.897880">
        <ele>403.658872</ele>
        <time>2021-11-08T21:43:15.173Z</time>
      </trkpt>
      <trkpt lat="47.654085" lon="7.897876">
        <ele>403.740592</ele>
        <time>2021-11-08T21:43:21.226Z</time>
      </trkpt>
      <trkpt lat="47.654516" lon="7.897893">
        <ele>405.034240</ele>
        <time>2021-11-08T21:43:29.685Z</time>
      </trkpt>
      <trkpt lat="47.654620" lon="7.897827">
        <ele>405.374050</ele>
        <time>2021-11-08T21:43:32.491Z</time>
      </trkpt>
      <trkpt lat="47.654671" lon="7.897693">
        <ele>405.685529</ele>
        <time>2021-11-08T21:43:34.432Z</time>
      </trkpt>
      <trkpt lat="47.654759" lon="7.897508">
        <ele>406.143867</ele>
        <time>2021-11-08T21:43:37.929Z</time>
      </trkpt>
      <trkpt lat="47.654830" lon="7.897410">
        <ele>406.435134</ele>
        <time>2021-11-08T21:43:40.873Z</time>
      </trkpt>
      <trkpt lat="47.654896" lon="7.897368">
        <ele>406.650875</ele>
        <time>2021-11-08T21:43:42.835Z</time>
      </trkpt>
      <trkpt lat="47.655127" lon="7.897245">
        <ele>407.388184</ele>
        <time>2021-11-08T21:43:50.036Z</time>
      </trkpt>
      <trkpt lat="47.655258" lon="7.897190">
        <ele>407.797198</ele>
        <time>2021-11-08T21:43:54.235Z</time>
      </trkpt>
      <trkpt lat="47.655534" lon="7.897054">
        <ele>408.670898</ele>
        <time>2021-11-08T21:44:03.717Z</time>
      </trkpt>
      <trkpt lat="47.655905" lon="7.896871">
        <ele>410.392640</ele>
        <time>2021-11-08T21:44:18.100Z</time>
      </trkpt>
      <trkpt lat="47.655962" lon="7.896840">
        <ele>410.717416</ele>
        <time>2021-11-08T21:44:20.104Z</time>
      </trkpt>
      <trkpt lat="47.656232" lon="7.896661">
        <ele>412.299439</ele>
        <time>2021-11-08T21:44:31.414Z</time>
      </trkpt>
      <trkpt lat="47.656445" lon="7.896601">
        <ele>413.459349</ele>
        <time>2021-11-08T21:44:39.811Z</time>
      </trkpt>
      <trkpt lat="47.657005" lon="7.896393">
        <ele>416.547764</ele>
        <time>2021-11-08T21:45:01.000Z</time>
      </trkpt>
      <trkpt lat="47.657119" lon="7.896295">
        <ele>417.252546</ele>
        <time>2021-11-08T21:45:05.866Z</time>
      </trkpt>
      <trkpt lat="47.657095" lon="7.896162">
        <ele>417.748736</ele>
        <time>2021-11-08T21:45:09.328Z</time>
      </trkpt>
      <trkpt lat="47.656988" lon="7.895614">
        <ele>419.607650</ele>
        <time>2021-11-08T21:45:22.633Z</time>
      </trkpt>
      <trkpt lat="47.656932" lon="7.895390">
        <ele>420.304987</ele>
        <time>2021-11-08T21:45:28.133Z</time>
      </trkpt>
      <trkpt lat="47.656866" lon="7.895110">
        <ele>421.170781</ele>
        <time>2021-11-08T21:45:35.070Z</time>
      </trkpt>
      <trkpt lat="47.656839" lon="7.894762">
        <ele>422.193161</ele>
        <time>2021-11-08T21:45:42.887Z</time>
      </trkpt>
      <trkpt lat="47.656877" lon="7.894582">
        <ele>422.743703</ele>
        <time>2021-11-08T21:45:47.190Z</time>
      </trkpt>
      <trkpt lat="47.656927" lon="7.894431">
        <ele>423.234781</ele>
        <time>2021-11-08T21:45:50.816Z</time>
      </trkpt>
      <trkpt lat="47.657148" lon="7.894189">
        <ele>424.424668</ele>
        <time>2021-11-08T21:45:59.965Z</time>
      </trkpt>
      <trkpt lat="47.657304" lon="7.894072">
        <ele>425.181971</ele>
        <time>2021-11-08T21:46:05.063Z</time>
      </trkpt>
      <trkpt lat="47.657491" lon="7.893932">
        <ele>426.089434</ele>
        <time>2021-11-08T21:46:10.890Z</time>
      </trkpt>
      <trkpt lat="47.657491" lon="7.893932">
        <ele>426.089434</ele>
        <time>2021-11-08T21:46:11.015Z</time>
      </trkpt>
      <trkpt lat="47.657491" lon="7.893932">
        <ele>426.089434</ele>
        <time>2021-11-08T21:46:11.028Z</time>
      </trkpt>
      <trkpt lat="47.657533" lon="7.893819">
        <ele>426.466109</ele>
        <time>2021-11-08T21:46:13.639Z</time>
      </trkpt>
      <trkpt lat="47.657550" lon="7.893664">
        <ele>426.742149</ele>
        <time>2021-11-08T21:46:16.469Z</time>
      </trkpt>
      <trkpt lat="47.657559" lon="7.893566">
        <ele>426.885988</ele>
        <time>2021-11-08T21:46:18.246Z</time>
      </trkpt>
      <trkpt lat="47.657571" lon="7.893434">
        <ele>427.079695</ele>
        <time>2021-11-08T21:46:20.651Z</time>
      </trkpt>
      <trkpt lat="47.657604" lon="7.893004">
        <ele>427.709084</ele>
        <time>2021-11-08T21:46:27.897Z</time>
      </trkpt>
      <trkpt lat="47.657644" lon="7.892775">
        <ele>428.053131</ele>
        <time>2021-11-08T21:46:32.783Z</time>
      </trkpt>
      <trkpt lat="47.657736" lon="7.892412">
        <ele>428.617171</ele>
        <time>2021-11-08T21:46:38.490Z</time>
      </trkpt>
      <trkpt lat="47.658293" lon="7.891024">
        <ele>430.974544</ele>
        <time>2021-11-08T21:47:01.285Z</time>
      </trkpt>
      <trkpt lat="47.658300" lon="7.890903">
        <ele>431.153776</ele>
        <time>2021-11-08T21:47:03.369Z</time>
      </trkpt>
      <trkpt lat="47.658251" lon="7.890812">
        <ele>431.325717</ele>
        <time>2021-11-08T21:47:04.210Z</time>
      </trkpt>
      <trkpt lat="47.658088" lon="7.890776">
        <ele>431.686797</ele>
        <time>2021-11-08T21:47:06.975Z</time>
      </trkpt>
      <trkpt lat="47.657839" lon="7.891019">
        <ele>432.339696</ele>
        <time>2021-11-08T21:47:11.915Z</time>
      </trkpt>
      <trkpt lat="47.657633" lon="7.891130">
        <ele>432.819872</ele>
        <time>2021-11-08T21:47:17.316Z</time>
      </trkpt>
      <trkpt lat="47.657029" lon="7.890974">
        <ele>434.163177</ele>
        <time>2021-11-08T21:47:34.220Z</time>
      </trkpt>
      <trkpt lat="47.656836" lon="7.890840">
        <ele>434.990665</ele>
        <time>2021-11-08T21:47:41.085Z</time>
      </trkpt>
      <trkpt lat="47.656640" lon="7.890553">
        <ele>436.483813</ele>
        <time>2021-11-08T21:47:49.943Z</time>
      </trkpt>
      <trkpt lat="47.656545" lon="7.890327">
        <ele>437.457058</ele>
        <time>2021-11-08T21:47:55.868Z</time>
      </trkpt>
      <trkpt lat="47.656490" lon="7.890096">
        <ele>438.352154</ele>
        <time>2021-11-08T21:48:02.099Z</time>
      </trkpt>
      <trkpt lat="47.656492" lon="7.889996">
        <ele>438.717650</ele>
        <time>2021-11-08T21:48:04.730Z</time>
      </trkpt>
      <trkpt lat="47.656493" lon="7.889916">
        <ele>439.009969</ele>
        <time>2021-11-08T21:48:07.032Z</time>
      </trkpt>
      <trkpt lat="47.656527" lon="7.889732">
        <ele>439.707022</ele>
        <time>2021-11-08T21:48:11.348Z</time>
      </trkpt>
      <trkpt lat="47.656554" lon="7.889680">
        <ele>439.946888</ele>
        <time>2021-11-08T21:48:13.369Z</time>
      </trkpt>
      <trkpt lat="47.656616" lon="7.889559">
        <ele>440.502312</ele>
        <time>2021-11-08T21:48:17.506Z</time>
      </trkpt>
      <trkpt lat="47.656792" lon="7.889429">
        <ele>441.568526</ele>
        <time>2021-11-08T21:48:24.952Z</time>
      </trkpt>
      <trkpt lat="47.656956" lon="7.889255">
        <ele>442.661830</ele>
        <time>2021-11-08T21:48:33.391Z</time>
      </trkpt>
      <trkpt lat="47.657030" lon="7.888971">
        <ele>443.774299</ele>
        <time>2021-11-08T21:48:41.625Z</time>
      </trkpt>
      <trkpt lat="47.657082" lon="7.888666">
        <ele>444.792884</ele>
        <time>2021-11-08T21:48:51.105Z</time>
      </trkpt>
      <trkpt lat="47.657194" lon="7.888421">
        <ele>445.693795</ele>
        <time>2021-11-08T21:48:58.578Z</time>
      </trkpt>
      <trkpt lat="47.657269" lon="7.888213">
        <ele>446.411635</ele>
        <time>2021-11-08T21:49:05.551Z</time>
      </trkpt>
      <trkpt lat="47.657294" lon="7.888043">
        <ele>446.941063</ele>
        <time>2021-11-08T21:49:09.114Z</time>
      </trkpt>
      <trkpt lat="47.657353" lon="7.887321">
        <ele>449.153933</ele>
        <time>2021-11-08T21:49:24.847Z</time>
      </trkpt>
      <trkpt lat="47.657514" lon="7.886581">
        <ele>451.520001</ele>
        <time>2021-11-08T21:49:40.036Z</time>
      </trkpt>
      <trkpt lat="47.657896" lon="7.885623">
        <ele>454.064417</ele>
        <time>2021-11-08T21:49:58.805Z</time>
      </trkpt>
      <trkpt lat="47.658056" lon="7.885334">
        <ele>454.839430</ele>
        <time>2021-11-08T21:50:04.728Z</time>
      </trkpt>
      <trkpt lat="47.658138" lon="7.885188">
        <ele>455.233253</ele>
        <time>2021-11-08T21:50:07.958Z</time>
      </trkpt>
      <trkpt lat="47.658867" lon="7.883894">
        <ele>459.380537</ele>
        <time>2021-11-08T21:50:40.468Z</time>
      </trkpt>
      <trkpt lat="47.658990" lon="7.883421">
        <ele>461.167825</ele>
        <time>2021-11-08T21:50:51.787Z</time>
      </trkpt>
      <trkpt lat="47.659123" lon="7.883112">
        <ele>462.460469</ele>
        <time>2021-11-08T21:51:00.716Z</time>
      </trkpt>
      <trkpt lat="47.659271" lon="7.882977">
        <ele>463.369541</ele>
        <time>2021-11-08T21:51:07.526Z</time>
      </trkpt>
      <trkpt lat="47.659409" lon="7.882930">
        <ele>464.110531</ele>
        <time>2021-11-08T21:51:12.807Z</time>
      </trkpt>
      <trkpt lat="47.659545" lon="7.882864">
        <ele>464.859352</ele>
        <time>2021-11-08T21:51:18.636Z</time>
      </trkpt>
      <trkpt lat="47.659917" lon="7.882513">
        <ele>467.166121</ele>
        <time>2021-11-08T21:51:35.946Z</time>
      </trkpt>
      <trkpt lat="47.660174" lon="7.882559">
        <ele>468.821340</ele>
        <time>2021-11-08T21:51:46.076Z</time>
      </trkpt>
      <trkpt lat="47.660361" lon="7.882608">
        <ele>470.043164</ele>
        <time>2021-11-08T21:51:54.039Z</time>
      </trkpt>
      <trkpt lat="47.660641" lon="7.882661">
        <ele>471.859373</ele>
        <time>2021-11-08T21:52:05.948Z</time>
      </trkpt>
      <trkpt lat="47.661297" lon="7.882519">
        <ele>476.124949</ele>
        <time>2021-11-08T21:52:33.063Z</time>
      </trkpt>
      <trkpt lat="47.661311" lon="7.882510">
        <ele>476.223112</ele>
        <time>2021-11-08T21:52:33.877Z</time>
      </trkpt>
      <trkpt lat="47.661471" lon="7.882407">
        <ele>477.345213</ele>
        <time>2021-11-08T21:52:40.791Z</time>
      </trkpt>
      <trkpt lat="47.661690" lon="7.882137">
        <ele>479.208513</ele>
        <time>2021-11-08T21:52:52.616Z</time>
      </trkpt>
      <trkpt lat="47.661834" lon="7.881959">
        <ele>480.511603</ele>
        <time>2021-11-08T21:52:59.770Z</time>
      </trkpt>
      <trkpt lat="47.662066" lon="7.881800">
        <ele>482.288650</ele>
        <time>2021-11-08T21:53:09.407Z</time>
      </trkpt>
      <trkpt lat="47.662739" lon="7.881899">
        <ele>486.991987</ele>
        <time>2021-11-08T21:53:36.553Z</time>
      </trkpt>
      <trkpt lat="47.663250" lon="7.881836">
        <ele>490.558000</ele>
        <time>2021-11-08T21:54:00.149Z</time>
      </trkpt>
      <trkpt lat="47.663851" lon="7.881993">
        <ele>496.191274</ele>
        <time>2021-11-08T21:54:30.903Z</time>
      </trkpt>
      <trkpt lat="47.664043" lon="7.881923">
        <ele>498.110689</ele>
        <time>2021-11-08T21:54:41.413Z</time>
      </trkpt>
      <trkpt lat="47.664463" lon="7.880991">
        <ele>505.442941</ele>
        <time>2021-11-08T21:55:23.123Z</time>
      </trkpt>
      <trkpt lat="47.664778" lon="7.880032">
        <ele>511.379514</ele>
        <time>2021-11-08T21:56:06.058Z</time>
      </trkpt>
      <trkpt lat="47.665068" lon="7.879380">
        <ele>515.038411</ele>
        <time>2021-11-08T21:56:31.083Z</time>
      </trkpt>
      <trkpt lat="47.665372" lon="7.878993">
        <ele>517.822661</ele>
        <time>2021-11-08T21:56:47.074Z</time>
      </trkpt>
      <trkpt lat="47.665474" lon="7.878934">
        <ele>518.583796</ele>
        <time>2021-11-08T21:56:52.741Z</time>
      </trkpt>
      <trkpt lat="47.665177" lon="7.878293">
        <ele>521.022737</ele>
        <time>2021-11-08T21:57:06.498Z</time>
      </trkpt>
      <trkpt lat="47.664810" lon="7.878152">
        <ele>520.369789</ele>
        <time>2021-11-08T21:57:13.461Z</time>
      </trkpt>
      <trkpt lat="47.664394" lon="7.877271">
        <ele>519.121662</ele>
        <time>2021-11-08T21:57:21.527Z</time>
      </trkpt>
      <trkpt lat="47.664340" lon="7.876839">
        <ele>518.611980</ele>
        <time>2021-11-08T21:57:24.286Z</time>
      </trkpt>
      <trkpt lat="47.664368" lon="7.876514">
        <ele>518.231905</ele>
        <time>2021-11-08T21:57:26.303Z</time>
      </trkpt>
      <trkpt lat="47.664567" lon="7.876066">
        <ele>516.773270</ele>
        <time>2021-11-08T21:57:29.646Z</time>
      </trkpt>
      <trkpt lat="47.664636" lon="7.875782">
        <ele>515.894935</ele>
        <time>2021-11-08T21:57:31.503Z</time>
      </trkpt>
      <trkpt lat="47.664573" lon="7.875381">
        <ele>514.697020</ele>
        <time>2021-11-08T21:57:34.200Z</time>
      </trkpt>
      <trkpt lat="47.664505" lon="7.875308">
        <ele>514.334548</ele>
        <time>2021-11-08T21:57:34.947Z</time>
      </trkpt>
      <trkpt lat="47.664355" lon="7.875148">
        <ele>513.536726</ele>
        <time>2021-11-08T21:57:36.809Z</time>
      </trkpt>
      <trkpt lat="47.664237" lon="7.875062">
        <ele>512.968906</ele>
        <time>2021-11-08T21:57:38.074Z</time>
      </trkpt>
      <trkpt lat="47.664237" lon="7.875062">
        <ele>512.968906</ele>
        <time>2021-11-08T21:57:38.088Z</time>
      </trkpt>
      <trkpt lat="47.664191" lon="7.875019">
        <ele>512.734099</ele>
        <time>2021-11-08T21:57:38.605Z</time>
      </trkpt>
      <trkpt lat="47.664085" lon="7.874833">
        <ele>512.025246</ele>
        <time>2021-11-08T21:57:40.340Z</time>
      </trkpt>
      <trkpt lat="47.663999" lon="7.874505">
        <ele>511.001250</ele>
        <time>2021-11-08T21:57:42.643Z</time>
      </trkpt>
      <trkpt lat="47.664019" lon="7.873861">
        <ele>509.999161</ele>
        <time>2021-11-08T21:57:47.295Z</time>
      </trkpt>
      <trkpt lat="47.663924" lon="7.872838">
        <ele>509.063597</ele>
        <time>2021-11-08T21:57:55.240Z</time>
      </trkpt>
      <trkpt lat="47.664011" lon="7.872518">
        <ele>508.750959</ele>
        <time>2021-11-08T21:57:58.684Z</time>
      </trkpt>
      <trkpt lat="47.664406" lon="7.872035">
        <ele>508.062623</ele>
        <time>2021-11-08T21:58:05.795Z</time>
      </trkpt>
      <trkpt lat="47.664519" lon="7.871876">
        <ele>507.827447</ele>
        <time>2021-11-08T21:58:07.827Z</time>
      </trkpt>
      <trkpt lat="47.664596" lon="7.871769">
        <ele>507.655491</ele>
        <time>2021-11-08T21:58:09.210Z</time>
      </trkpt>
      <trkpt lat="47.664782" lon="7.871262">
        <ele>507.021503</ele>
        <time>2021-11-08T21:58:14.039Z</time>
      </trkpt>
      <trkpt lat="47.664834" lon="7.871018">
        <ele>506.740469</ele>
        <time>2021-11-08T21:58:16.085Z</time>
      </trkpt>
      <trkpt lat="47.664859" lon="7.870699">
        <ele>506.387808</ele>
        <time>2021-11-08T21:58:18.675Z</time>
      </trkpt>
      <trkpt lat="47.664866" lon="7.870622">
        <ele>506.302487</ele>
        <time>2021-11-08T21:58:19.294Z</time>
      </trkpt>
      <trkpt lat="47.664905" lon="7.870231">
        <ele>505.868443</ele>
        <time>2021-11-08T21:58:22.108Z</time>
      </trkpt>
      <trkpt lat="47.665036" lon="7.869565">
        <ele>505.106549</ele>
        <time>2021-11-08T21:58:27.088Z</time>
      </trkpt>
      <trkpt lat="47.665035" lon="7.869390">
        <ele>504.802170</ele>
        <time>2021-11-08T21:58:28.320Z</time>
      </trkpt>
      <trkpt lat="47.664961" lon="7.869182">
        <ele>504.316562</ele>
        <time>2021-11-08T21:58:29.914Z</time>
      </trkpt>
      <trkpt lat="47.664909" lon="7.869051">
        <ele>504.002658</ele>
        <time>2021-11-08T21:58:30.987Z</time>
      </trkpt>
      <trkpt lat="47.664873" lon="7.868769">
        <ele>503.410154</ele>
        <time>2021-11-08T21:58:32.919Z</time>
      </trkpt>
      <trkpt lat="47.664903" lon="7.868588">
        <ele>503.025362</ele>
        <time>2021-11-08T21:58:34.199Z</time>
      </trkpt>
      <trkpt lat="47.664934" lon="7.868452">
        <ele>502.728971</ele>
        <time>2021-11-08T21:58:35.161Z</time>
      </trkpt>
      <trkpt lat="47.664936" lon="7.868313">
        <ele>502.441965</ele>
        <time>2021-11-08T21:58:36.129Z</time>
      </trkpt>
      <trkpt lat="47.664918" lon="7.868221">
        <ele>502.244196</ele>
        <time>2021-11-08T21:58:36.732Z</time>
      </trkpt>
      <trkpt lat="47.664596" lon="7.867700">
        <ele>500.784436</ele>
        <time>2021-11-08T21:58:41.576Z</time>
      </trkpt>
      <trkpt lat="47.664003" lon="7.866254">
        <ele>497.532870</ele>
        <time>2021-11-08T21:58:53.332Z</time>
      </trkpt>
      <trkpt lat="47.663923" lon="7.866058">
        <ele>497.111167</ele>
        <time>2021-11-08T21:58:54.904Z</time>
      </trkpt>
      <trkpt lat="47.663892" lon="7.865949">
        <ele>496.893456</ele>
        <time>2021-11-08T21:58:55.748Z</time>
      </trkpt>
      <trkpt lat="47.663839" lon="7.865713">
        <ele>496.435708</ele>
        <time>2021-11-08T21:58:57.530Z</time>
      </trkpt>
      <trkpt lat="47.663827" lon="7.865633">
        <ele>496.284900</ele>
        <time>2021-11-08T21:58:58.116Z</time>
      </trkpt>
      <trkpt lat="47.663827" lon="7.865552">
        <ele>496.135859</ele>
        <time>2021-11-08T21:58:58.649Z</time>
      </trkpt>
      <trkpt lat="47.664002" lon="7.864318">
        <ele>493.887359</ele>
        <time>2021-11-08T21:59:07.692Z</time>
      </trkpt>
      <trkpt lat="47.664021" lon="7.864190">
        <ele>493.667874</ele>
        <time>2021-11-08T21:59:08.611Z</time>
      </trkpt>
      <trkpt lat="47.664000" lon="7.863904">
        <ele>493.186119</ele>
        <time>2021-11-08T21:59:10.604Z</time>
      </trkpt>
      <trkpt lat="47.663792" lon="7.863141">
        <ele>491.807746</ele>
        <time>2021-11-08T21:59:16.599Z</time>
      </trkpt>
      <trkpt lat="47.663642" lon="7.862822">
        <ele>491.156250</ele>
        <time>2021-11-08T21:59:19.344Z</time>
      </trkpt>
      <trkpt lat="47.663518" lon="7.862682">
        <ele>490.768928</ele>
        <time>2021-11-08T21:59:21.007Z</time>
      </trkpt>
      <trkpt lat="47.663351" lon="7.862622">
        <ele>490.341716</ele>
        <time>2021-11-08T21:59:22.787Z</time>
      </trkpt>
      <trkpt lat="47.662974" lon="7.862586">
        <ele>489.222152</ele>
        <time>2021-11-08T21:59:26.679Z</time>
      </trkpt>
      <trkpt lat="47.662849" lon="7.862528">
        <ele>488.817217</ele>
        <time>2021-11-08T21:59:28.141Z</time>
      </trkpt>
      <trkpt lat="47.662642" lon="7.862380">
        <ele>488.106828</ele>
        <time>2021-11-08T21:59:30.520Z</time>
      </trkpt>
      <trkpt lat="47.662548" lon="7.862218">
        <ele>487.661532</ele>
        <time>2021-11-08T21:59:32.070Z</time>
      </trkpt>
      <trkpt lat="47.662380" lon="7.861444">
        <ele>485.968064</ele>
        <time>2021-11-08T21:59:37.635Z</time>
      </trkpt>
      <trkpt lat="47.662419" lon="7.860491">
        <ele>483.888633</ele>
        <time>2021-11-08T21:59:44.015Z</time>
      </trkpt>
      <trkpt lat="47.662565" lon="7.859546">
        <ele>481.563378</ele>
        <time>2021-11-08T21:59:50.335Z</time>
      </trkpt>
      <trkpt lat="47.662575" lon="7.859180">
        <ele>480.684882</ele>
        <time>2021-11-08T21:59:52.729Z</time>
      </trkpt>
      <trkpt lat="47.662535" lon="7.858830">
        <ele>479.833481</ele>
        <time>2021-11-08T21:59:55.082Z</time>
      </trkpt>
      <trkpt lat="47.662377" lon="7.858337">
        <ele>478.524081</ele>
        <time>2021-11-08T21:59:58.807Z</time>
      </trkpt>
      <trkpt lat="47.662143" lon="7.857943">
        <ele>478.194361</ele>
        <time>2021-11-08T22:00:02.544Z</time>
      </trkpt>
      <trkpt lat="47.661786" lon="7.857663">
        <ele>478.223148</ele>
        <time>2021-11-08T22:00:07.202Z</time>
      </trkpt>
      <trkpt lat="47.660679" lon="7.857529">
        <ele>478.302337</ele>
        <time>2021-11-08T22:00:29.459Z</time>
      </trkpt>
      <trkpt lat="47.660400" lon="7.857415">
        <ele>478.194476</ele>
        <time>2021-11-08T22:00:36.853Z</time>
      </trkpt>
      <trkpt lat="47.660191" lon="7.857136">
        <ele>478.076268</ele>
        <time>2021-11-08T22:00:42.898Z</time>
      </trkpt>
      <trkpt lat="47.660145" lon="7.856675">
        <ele>477.944252</ele>
        <time>2021-11-08T22:00:49.355Z</time>
      </trkpt>
      <trkpt lat="47.660170" lon="7.856510">
        <ele>477.896343</ele>
        <time>2021-11-08T22:00:52.290Z</time>
      </trkpt>
      <trkpt lat="47.660217" lon="7.856262">
        <ele>477.823362</ele>
        <time>2021-11-08T22:00:54.030Z</time>
      </trkpt>
      <trkpt lat="47.660254" lon="7.856070">
        <ele>477.766790</ele>
        <time>2021-11-08T22:00:56.231Z</time>
      </trkpt>
      <trkpt lat="47.660316" lon="7.855735">
        <ele>477.668375</ele>
        <time>2021-11-08T22:00:58.602Z</time>
      </trkpt>
      <trkpt lat="47.660340" lon="7.855600">
        <ele>477.628823</ele>
        <time>2021-11-08T22:00:59.720Z</time>
      </trkpt>
      <trkpt lat="47.660419" lon="7.854745">
        <ele>474.629500</ele>
        <time>2021-11-08T22:01:05.419Z</time>
      </trkpt>
      <trkpt lat="47.660428" lon="7.854469">
        <ele>473.232362</ele>
        <time>2021-11-08T22:01:07.275Z</time>
      </trkpt>
      <trkpt lat="47.660442" lon="7.854217">
        <ele>471.953879</ele>
        <time>2021-11-08T22:01:08.770Z</time>
      </trkpt>
      <trkpt lat="47.660433" lon="7.853291">
        <ele>467.271376</ele>
        <time>2021-11-08T22:01:14.238Z</time>
      </trkpt>
      <trkpt lat="47.660385" lon="7.852986">
        <ele>465.687703</ele>
        <time>2021-11-08T22:01:16.046Z</time>
      </trkpt>
      <trkpt lat="47.660222" lon="7.852517">
        <ele>462.558905</ele>
        <time>2021-11-08T22:01:19.072Z</time>
      </trkpt>
      <trkpt lat="47.659858" lon="7.852074">
        <ele>457.440450</ele>
        <time>2021-11-08T22:01:23.066Z</time>
      </trkpt>
      <trkpt lat="47.659772" lon="7.851936">
        <ele>456.063344</ele>
        <time>2021-11-08T22:01:24.150Z</time>
      </trkpt>
      <trkpt lat="47.659737" lon="7.851695">
        <ele>454.257529</ele>
        <time>2021-11-08T22:01:25.556Z</time>
      </trkpt>
      <trkpt lat="47.659825" lon="7.851429">
        <ele>452.086823</ele>
        <time>2021-11-08T22:01:27.270Z</time>
      </trkpt>
      <trkpt lat="47.659865" lon="7.851365">
        <ele>451.447308</ele>
        <time>2021-11-08T22:01:27.758Z</time>
      </trkpt>
      <trkpt lat="47.659889" lon="7.851325">
        <ele>451.054928</ele>
        <time>2021-11-08T22:01:28.067Z</time>
      </trkpt>
      <trkpt lat="47.659980" lon="7.851203">
        <ele>449.721551</ele>
        <time>2021-11-08T22:01:29.128Z</time>
      </trkpt>
      <trkpt lat="47.660133" lon="7.850964">
        <ele>447.306382</ele>
        <time>2021-11-08T22:01:31.011Z</time>
      </trkpt>
      <trkpt lat="47.660423" lon="7.850559">
        <ele>443.290710</ele>
        <time>2021-11-08T22:01:34.413Z</time>
      </trkpt>
      <trkpt lat="47.660630" lon="7.850158">
        <ele>440.360480</ele>
        <time>2021-11-08T22:01:37.342Z</time>
      </trkpt>
      <trkpt lat="47.660732" lon="7.849851">
        <ele>438.375097</ele>
        <time>2021-11-08T22:01:39.370Z</time>
      </trkpt>
      <trkpt lat="47.660953" lon="7.848671">
        <ele>431.271729</ele>
        <time>2021-11-08T22:01:46.588Z</time>
      </trkpt>
      <trkpt lat="47.660987" lon="7.848340">
        <ele>429.329821</ele>
        <time>2021-11-08T22:01:48.612Z</time>
      </trkpt>
      <trkpt lat="47.660945" lon="7.847588">
        <ele>426.449130</ele>
        <time>2021-11-08T22:01:53.299Z</time>
      </trkpt>
      <trkpt lat="47.660753" lon="7.846503">
        <ele>422.349622</ele>
        <time>2021-11-08T22:02:00.544Z</time>
      </trkpt>
      <trkpt lat="47.660583" lon="7.846064">
        <ele>420.499108</ele>
        <time>2021-11-08T22:02:03.804Z</time>
      </trkpt>
      <trkpt lat="47.660091" lon="7.845247">
        <ele>415.403303</ele>
        <time>2021-11-08T22:02:10.622Z</time>
      </trkpt>
      <trkpt lat="47.659916" lon="7.844774">
        <ele>412.647078</ele>
        <time>2021-11-08T22:02:13.829Z</time>
      </trkpt>
      <trkpt lat="47.659878" lon="7.844501">
        <ele>411.223321</ele>
        <time>2021-11-08T22:02:15.484Z</time>
      </trkpt>
      <trkpt lat="47.659894" lon="7.844140">
        <ele>409.375598</ele>
        <time>2021-11-08T22:02:17.619Z</time>
      </trkpt>
      <trkpt lat="47.659891" lon="7.843834">
        <ele>407.812599</ele>
        <time>2021-11-08T22:02:19.404Z</time>
      </trkpt>
      <trkpt lat="47.659785" lon="7.843448">
        <ele>405.683616</ele>
        <time>2021-11-08T22:02:21.866Z</time>
      </trkpt>
      <trkpt lat="47.659699" lon="7.843338">
        <ele>404.885719</ele>
        <time>2021-11-08T22:02:22.849Z</time>
      </trkpt>
      <trkpt lat="47.659589" lon="7.843262">
        <ele>404.040228</ele>
        <time>2021-11-08T22:02:23.914Z</time>
      </trkpt>
      <trkpt lat="47.659622" lon="7.843157">
        <ele>403.496381</ele>
        <time>2021-11-08T22:02:24.598Z</time>
      </trkpt>
      <trkpt lat="47.659669" lon="7.843010">
        <ele>402.732621</ele>
        <time>2021-11-08T22:02:25.552Z</time>
      </trkpt>
      <trkpt lat="47.659680" lon="7.842973">
        <ele>402.542791</ele>
        <time>2021-11-08T22:02:25.787Z</time>
      </trkpt>
      <trkpt lat="47.660044" lon="7.841843">
        <ele>396.663621</ele>
        <time>2021-11-08T22:02:33.274Z</time>
      </trkpt>
      <trkpt lat="47.660240" lon="7.841356">
        <ele>394.000841</ele>
        <time>2021-11-08T22:02:36.821Z</time>
      </trkpt>
      <trkpt lat="47.660305" lon="7.841139">
        <ele>393.015669</ele>
        <time>2021-11-08T22:02:38.309Z</time>
      </trkpt>
      <trkpt lat="47.660342" lon="7.841019">
        <ele>392.845579</ele>
        <time>2021-11-08T22:02:39.173Z</time>
      </trkpt>
      <trkpt lat="47.660358" lon="7.840966">
        <ele>392.770725</ele>
        <time>2021-11-08T22:02:39.576Z</time>
      </trkpt>
      <trkpt lat="47.660427" lon="7.840766">
        <ele>392.481119</ele>
        <time>2021-11-08T22:02:41.193Z</time>
      </trkpt>
      <trkpt lat="47.660496" lon="7.840519">
        <ele>392.136494</ele>
        <time>2021-11-08T22:02:43.165Z</time>
      </trkpt>
      <trkpt lat="47.660510" lon="7.840476">
        <ele>392.074940</ele>
        <time>2021-11-08T22:02:43.521Z</time>
      </trkpt>
      <trkpt lat="47.660496" lon="7.840519">
        <ele>392.013387</ele>
        <time>2021-11-08T22:02:43.868Z</time>
      </trkpt>
      <trkpt lat="47.660427" lon="7.840766">
        <ele>391.668762</ele>
        <time>2021-11-08T22:02:45.960Z</time>
      </trkpt>
      <trkpt lat="47.660358" lon="7.840966">
        <ele>391.379156</ele>
        <time>2021-11-08T22:02:47.739Z</time>
      </trkpt>
      <trkpt lat="47.660342" lon="7.841019">
        <ele>391.304302</ele>
        <time>2021-11-08T22:02:48.184Z</time>
      </trkpt>
      <trkpt lat="47.660092" lon="7.840394">
        <ele>390.367462</ele>
        <time>2021-11-08T22:02:54.477Z</time>
      </trkpt>
      <trkpt lat="47.659371" lon="7.839167">
        <ele>388.955132</ele>
        <time>2021-11-08T22:03:08.076Z</time>
      </trkpt>
      <trkpt lat="47.658659" lon="7.838338">
        <ele>388.101209</ele>
        <time>2021-11-08T22:03:19.156Z</time>
      </trkpt>
      <trkpt lat="47.657872" lon="7.837583">
        <ele>387.162638</ele>
        <time>2021-11-08T22:03:30.651Z</time>
      </trkpt>
      <trkpt lat="47.657931" lon="7.837449">
        <ele>387.053079</ele>
        <time>2021-11-08T22:03:31.904Z</time>
      </trkpt>
      <trkpt lat="47.657957" lon="7.837402">
        <ele>387.011456</ele>
        <time>2021-11-08T22:03:32.414Z</time>
      </trkpt>
      <trkpt lat="47.658426" lon="7.836034">
        <ele>385.951334</ele>
        <time>2021-11-08T22:03:45.017Z</time>
      </trkpt>
      <trkpt lat="47.658505" lon="7.835576">
        <ele>385.605061</ele>
        <time>2021-11-08T22:03:48.882Z</time>
      </trkpt>
      <trkpt lat="47.658689" lon="7.834881">
        <ele>385.058121</ele>
        <time>2021-11-08T22:03:55.069Z</time>
      </trkpt>
      <trkpt lat="47.658899" lon="7.834108">
        <ele>384.447647</ele>
        <time>2021-11-08T22:04:01.731Z</time>
      </trkpt>
      <trkpt lat="47.658687" lon="7.834028">
        <ele>384.209788</ele>
        <time>2021-11-08T22:04:04.390Z</time>
      </trkpt>
      <trkpt lat="47.658531" lon="7.833970">
        <ele>384.038871</ele>
        <time>2021-11-08T22:04:06.302Z</time>
      </trkpt>
      <trkpt lat="47.658404" lon="7.833911">
        <ele>383.899503</ele>
        <time>2021-11-08T22:04:07.940Z</time>
      </trkpt>
      <trkpt lat="47.658206" lon="7.833785">
        <ele>383.673890</ele>
        <time>2021-11-08T22:04:10.544Z</time>
      </trkpt>
      <trkpt lat="47.658080" lon="7.833668">
        <ele>383.518245</ele>
        <time>2021-11-08T22:04:12.382Z</time>
      </trkpt>
      <trkpt lat="47.658041" lon="7.833588">
        <ele>383.448581</ele>
        <time>2021-11-08T22:04:13.177Z</time>
      </trkpt>
      <trkpt lat="47.657971" lon="7.833428">
        <ele>383.313995</ele>
        <time>2021-11-08T22:04:14.776Z</time>
      </trkpt>
      <trkpt lat="47.657918" lon="7.833307">
        <ele>383.212178</ele>
        <time>2021-11-08T22:04:15.934Z</time>
      </trkpt>
      <trkpt lat="47.657731" lon="7.832916">
        <ele>382.873900</ele>
        <time>2021-11-08T22:04:19.939Z</time>
      </trkpt>
      <trkpt lat="47.657510" lon="7.832688">
        <ele>382.592049</ele>
        <time>2021-11-08T22:04:23.247Z</time>
      </trkpt>
      <trkpt lat="47.657265" lon="7.832541">
        <ele>382.315297</ele>
        <time>2021-11-08T22:04:26.397Z</time>
      </trkpt>
      <trkpt lat="47.656918" lon="7.832343">
        <ele>381.866472</ele>
        <time>2021-11-08T22:04:30.788Z</time>
      </trkpt>
      <trkpt lat="47.656858" lon="7.832309">
        <ele>381.787178</ele>
        <time>2021-11-08T22:04:31.558Z</time>
      </trkpt>
      <trkpt lat="47.656646" lon="7.832178">
        <ele>381.503655</ele>
        <time>2021-11-08T22:04:34.227Z</time>
      </trkpt>
      <trkpt lat="47.656381" lon="7.832009">
        <ele>381.147551</ele>
        <time>2021-11-08T22:04:37.711Z</time>
      </trkpt>
      <trkpt lat="47.656353" lon="7.831972">
        <ele>381.101269</ele>
        <time>2021-11-08T22:04:38.154Z</time>
      </trkpt>
      <trkpt lat="47.656204" lon="7.831766">
        <ele>380.849881</ele>
        <time>2021-11-08T22:04:40.622Z</time>
      </trkpt>
      <trkpt lat="47.656104" lon="7.831597">
        <ele>380.662800</ele>
        <time>2021-11-08T22:04:42.447Z</time>
      </trkpt>
      <trkpt lat="47.655840" lon="7.831150">
        <ele>380.168380</ele>
        <time>2021-11-08T22:04:47.257Z</time>
      </trkpt>
      <trkpt lat="47.655653" lon="7.830727">
        <ele>379.683867</ele>
        <time>2021-11-08T22:04:51.204Z</time>
      </trkpt>
      <trkpt lat="47.655554" lon="7.830341">
        <ele>379.264913</ele>
        <time>2021-11-08T22:04:54.342Z</time>
      </trkpt>
      <trkpt lat="47.655515" lon="7.830187">
        <ele>379.098030</ele>
        <time>2021-11-08T22:04:55.610Z</time>
      </trkpt>
      <trkpt lat="47.655442" lon="7.830047">
        <ele>378.918446</ele>
        <time>2021-11-08T22:04:56.963Z</time>
      </trkpt>
      <trkpt lat="47.655408" lon="7.830008">
        <ele>378.853744</ele>
        <time>2021-11-08T22:04:57.447Z</time>
      </trkpt>
      <trkpt lat="47.655374" lon="7.829968">
        <ele>378.788417</ele>
        <time>2021-11-08T22:04:57.936Z</time>
      </trkpt>
      <trkpt lat="47.655222" lon="7.829815">
        <ele>378.511873</ele>
        <time>2021-11-08T22:05:00.043Z</time>
      </trkpt>
      <trkpt lat="47.655209" lon="7.829806">
        <ele>378.490272</ele>
        <time>2021-11-08T22:05:00.195Z</time>
      </trkpt>
      <trkpt lat="47.654985" lon="7.829643">
        <ele>378.114615</ele>
        <time>2021-11-08T22:05:03.031Z</time>
      </trkpt>
      <trkpt lat="47.654883" lon="7.829540">
        <ele>377.928851</ele>
        <time>2021-11-08T22:05:04.460Z</time>
      </trkpt>
      <trkpt lat="47.654782" lon="7.829439">
        <ele>377.745471</ele>
        <time>2021-11-08T22:05:05.857Z</time>
      </trkpt>
      <trkpt lat="47.654726" lon="7.829362">
        <ele>377.630529</ele>
        <time>2021-11-08T22:05:06.711Z</time>
      </trkpt>
      <trkpt lat="47.654588" lon="7.829170">
        <ele>377.345722</ele>
        <time>2021-11-08T22:05:08.917Z</time>
      </trkpt>
      <trkpt lat="47.654444" lon="7.828940">
        <ele>377.055141</ele>
        <time>2021-11-08T22:05:11.348Z</time>
      </trkpt>
      <trkpt lat="47.654358" lon="7.828807">
        <ele>376.885432</ele>
        <time>2021-11-08T22:05:12.824Z</time>
      </trkpt>
      <trkpt lat="47.654262" lon="7.828656">
        <ele>376.694300</ele>
        <time>2021-11-08T22:05:14.460Z</time>
      </trkpt>
      <trkpt lat="47.654190" lon="7.828544">
        <ele>376.551785</ele>
        <time>2021-11-08T22:05:15.680Z</time>
      </trkpt>
      <trkpt lat="47.654075" lon="7.828375">
        <ele>376.330653</ele>
        <time>2021-11-08T22:05:17.597Z</time>
      </trkpt>
      <trkpt lat="47.654070" lon="7.828370">
        <ele>376.322414</ele>
        <time>2021-11-08T22:05:17.668Z</time>
      </trkpt>
      <trkpt lat="47.653907" lon="7.828156">
        <ele>376.025052</ele>
        <time>2021-11-08T22:05:20.182Z</time>
      </trkpt>
      <trkpt lat="47.653907" lon="7.828156">
        <ele>376.025052</ele>
        <time>2021-11-08T22:05:20.200Z</time>
      </trkpt>
      <trkpt lat="47.653907" lon="7.828156">
        <ele>376.025052</ele>
        <time>2021-11-08T22:05:20.247Z</time>
      </trkpt>
      <trkpt lat="47.653662" lon="7.827837">
        <ele>375.579713</ele>
        <time>2021-11-08T22:05:24.011Z</time>
      </trkpt>
      <trkpt lat="47.653415" lon="7.827515">
        <ele>375.130497</ele>
        <time>2021-11-08T22:05:27.855Z</time>
      </trkpt>
      <trkpt lat="47.653183" lon="7.827196">
        <ele>374.795562</ele>
        <time>2021-11-08T22:05:31.568Z</time>
      </trkpt>
      <trkpt lat="47.652994" lon="7.826927">
        <ele>374.638990</ele>
        <time>2021-11-08T22:05:34.667Z</time>
      </trkpt>
      <trkpt lat="47.652860" lon="7.826738">
        <ele>374.528459</ele>
        <time>2021-11-08T22:05:36.911Z</time>
      </trkpt>
      <trkpt lat="47.652752" lon="7.826545">
        <ele>374.427389</ele>
        <time>2021-11-08T22:05:39.069Z</time>
      </trkpt>
      <trkpt lat="47.652129" lon="7.825338">
        <ele>373.814865</ele>
        <time>2021-11-08T22:05:53.292Z</time>
      </trkpt>
      <trkpt lat="47.651867" lon="7.824904">
        <ele>374.027478</ele>
        <time>2021-11-08T22:05:59.114Z</time>
      </trkpt>
      <trkpt lat="47.651877" lon="7.824886">
        <ele>374.037589</ele>
        <time>2021-11-08T22:05:59.401Z</time>
      </trkpt>
      <trkpt lat="47.651866" lon="7.824714">
        <ele>374.112461</ele>
        <time>2021-11-08T22:06:01.201Z</time>
      </trkpt>
      <trkpt lat="47.651853" lon="7.824699">
        <ele>374.123053</ele>
        <time>2021-11-08T22:06:01.471Z</time>
      </trkpt>
      <trkpt lat="47.651839" lon="7.824688">
        <ele>374.133243</ele>
        <time>2021-11-08T22:06:01.757Z</time>
      </trkpt>
      <trkpt lat="47.651761" lon="7.824691">
        <ele>374.183438</ele>
        <time>2021-11-08T22:06:02.916Z</time>
      </trkpt>
      <trkpt lat="47.651748" lon="7.824704">
        <ele>374.193522</ele>
        <time>2021-11-08T22:06:03.215Z</time>
      </trkpt>
      <trkpt lat="47.651735" lon="7.824721">
        <ele>374.204667</ele>
        <time>2021-11-08T22:06:03.475Z</time>
      </trkpt>
      <trkpt lat="47.651725" lon="7.824741">
        <ele>374.215461</ele>
        <time>2021-11-08T22:06:03.720Z</time>
      </trkpt>
      <trkpt lat="47.651712" lon="7.824812">
        <ele>374.247345</ele>
        <time>2021-11-08T22:06:04.495Z</time>
      </trkpt>
      <trkpt lat="47.651715" lon="7.824847">
        <ele>374.262635</ele>
        <time>2021-11-08T22:06:04.898Z</time>
      </trkpt>
      <trkpt lat="47.651646" lon="7.824885">
        <ele>374.309980</ele>
        <time>2021-11-08T22:06:06.270Z</time>
      </trkpt>
      <trkpt lat="47.651431" lon="7.825167">
        <ele>374.494545</ele>
        <time>2021-11-08T22:06:11.048Z</time>
      </trkpt>
      <trkpt lat="47.651368" lon="7.825250">
        <ele>374.548733</ele>
        <time>2021-11-08T22:06:12.805Z</time>
      </trkpt>
      <trkpt lat="47.650974" lon="7.825768">
        <ele>374.887312</ele>
        <time>2021-11-08T22:06:23.418Z</time>
      </trkpt>
      <trkpt lat="47.650804" lon="7.825994">
        <ele>375.084433</ele>
        <time>2021-11-08T22:06:28.086Z</time>
      </trkpt>
      <trkpt lat="47.650796" lon="7.826004">
        <ele>375.095320</ele>
        <time>2021-11-08T22:06:28.275Z</time>
      </trkpt>
      <trkpt lat="47.650752" lon="7.826056">
        <ele>375.153861</ele>
        <time>2021-11-08T22:06:29.376Z</time>
      </trkpt>
      <trkpt lat="47.650548" lon="7.826306">
        <ele>375.429216</ele>
        <time>2021-11-08T22:06:34.606Z</time>
      </trkpt>
      <trkpt lat="47.650302" lon="7.826629">
        <ele>375.771072</ele>
        <time>2021-11-08T22:06:40.772Z</time>
      </trkpt>
      <trkpt lat="47.650264" lon="7.826680">
        <ele>375.824396</ele>
        <time>2021-11-08T22:06:41.873Z</time>
      </trkpt>
      <trkpt lat="47.650007" lon="7.827033">
        <ele>376.188857</ele>
        <time>2021-11-08T22:06:48.448Z</time>
      </trkpt>
      <trkpt lat="47.649971" lon="7.827080">
        <ele>376.238761</ele>
        <time>2021-11-08T22:06:49.283Z</time>
      </trkpt>
      <trkpt lat="47.649842" lon="7.827248">
        <ele>376.417389</ele>
        <time>2021-11-08T22:06:52.509Z</time>
      </trkpt>
      <trkpt lat="47.649400" lon="7.827829">
        <ele>376.909043</ele>
        <time>2021-11-08T22:07:03.333Z</time>
      </trkpt>
      <trkpt lat="47.649366" lon="7.827875">
        <ele>376.928503</ele>
        <time>2021-11-08T22:07:04.128Z</time>
      </trkpt>
      <trkpt lat="47.649238" lon="7.827938">
        <ele>376.985546</ele>
        <time>2021-11-08T22:07:06.467Z</time>
      </trkpt>
      <trkpt lat="47.649229" lon="7.827898">
        <ele>376.997563</ele>
        <time>2021-11-08T22:07:06.918Z</time>
      </trkpt>
      <trkpt lat="47.649213" lon="7.827864">
        <ele>377.009382</ele>
        <time>2021-11-08T22:07:07.439Z</time>
      </trkpt>
      <trkpt lat="47.649165" lon="7.827822">
        <ele>377.032951</ele>
        <time>2021-11-08T22:07:08.497Z</time>
      </trkpt>
      <trkpt lat="47.649137" lon="7.827818">
        <ele>377.044850</ele>
        <time>2021-11-08T22:07:08.975Z</time>
      </trkpt>
      <trkpt lat="47.649109" lon="7.827827">
        <ele>377.056969</ele>
        <time>2021-11-08T22:07:09.476Z</time>
      </trkpt>
      <trkpt lat="47.649051" lon="7.827916">
        <ele>377.092255</ele>
        <time>2021-11-08T22:07:10.906Z</time>
      </trkpt>
      <trkpt lat="47.649046" lon="7.827958">
        <ele>377.104409</ele>
        <time>2021-11-08T22:07:11.419Z</time>
      </trkpt>
      <trkpt lat="47.648970" lon="7.827926">
        <ele>377.137826</ele>
        <time>2021-11-08T22:07:12.747Z</time>
      </trkpt>
      <trkpt lat="47.648922" lon="7.827833">
        <ele>377.171211</ele>
        <time>2021-11-08T22:07:14.027Z</time>
      </trkpt>
      <trkpt lat="47.648378" lon="7.826663">
        <ele>377.576322</ele>
        <time>2021-11-08T22:07:28.680Z</time>
      </trkpt>
      <trkpt lat="47.648325" lon="7.826549">
        <ele>377.659885</ele>
        <time>2021-11-08T22:07:30.173Z</time>
      </trkpt>
      <trkpt lat="47.647951" lon="7.825719">
        <ele>378.362093</ele>
        <time>2021-11-08T22:07:41.160Z</time>
      </trkpt>
      <trkpt lat="47.647697" lon="7.825211">
        <ele>378.806976</ele>
        <time>2021-11-08T22:07:48.595Z</time>
      </trkpt>
      <trkpt lat="47.647653" lon="7.825123">
        <ele>378.884042</ele>
        <time>2021-11-08T22:07:49.962Z</time>
      </trkpt>
      <trkpt lat="47.647670" lon="7.825092">
        <ele>378.912152</ele>
        <time>2021-11-08T22:07:50.521Z</time>
      </trkpt>
      <trkpt lat="47.647680" lon="7.825025">
        <ele>378.960411</ele>
        <time>2021-11-08T22:07:51.530Z</time>
      </trkpt>
      <trkpt lat="47.647671" lon="7.824980">
        <ele>378.993421</ele>
        <time>2021-11-08T22:07:52.088Z</time>
      </trkpt>
      <trkpt lat="47.647651" lon="7.824941">
        <ele>379.027890</ele>
        <time>2021-11-08T22:07:52.678Z</time>
      </trkpt>
      <trkpt lat="47.647592" lon="7.824914">
        <ele>379.092338</ele>
        <time>2021-11-08T22:07:53.705Z</time>
      </trkpt>
      <trkpt lat="47.647566" lon="7.824924">
        <ele>379.120374</ele>
        <time>2021-11-08T22:07:54.179Z</time>
      </trkpt>
      <trkpt lat="47.647544" lon="7.824947">
        <ele>379.148463</ele>
        <time>2021-11-08T22:07:54.678Z</time>
      </trkpt>
      <trkpt lat="47.647519" lon="7.825045">
        <ele>379.222156</ele>
        <time>2021-11-08T22:07:55.986Z</time>
      </trkpt>
      <trkpt lat="47.647530" lon="7.825095">
        <ele>379.259145</ele>
        <time>2021-11-08T22:07:56.703Z</time>
      </trkpt>
      <trkpt lat="47.647469" lon="7.825147">
        <ele>379.332574</ele>
        <time>2021-11-08T22:07:58.301Z</time>
      </trkpt>
      <trkpt lat="47.647327" lon="7.825270">
        <ele>379.689678</ele>
        <time>2021-11-08T22:08:02.548Z</time>
      </trkpt>
      <trkpt lat="47.646953" lon="7.825621">
        <ele>382.245606</ele>
        <time>2021-11-08T22:08:14.781Z</time>
      </trkpt>
      <trkpt lat="47.646634" lon="7.825927">
        <ele>384.439536</ele>
        <time>2021-11-08T22:08:28.236Z</time>
      </trkpt>
      <trkpt lat="47.646535" lon="7.826052">
        <ele>385.190296</ele>
        <time>2021-11-08T22:08:33.465Z</time>
      </trkpt>
      <trkpt lat="47.646437" lon="7.826190">
        <ele>385.970582</ele>
        <time>2021-11-08T22:08:39.822Z</time>
      </trkpt>
      <trkpt lat="47.646245" lon="7.826452">
        <ele>387.477081</ele>
        <time>2021-11-08T22:08:50.525Z</time>
      </trkpt>
      <trkpt lat="47.646215" lon="7.826493">
        <ele>387.712636</ele>
        <time>2021-11-08T22:08:53.258Z</time>
      </trkpt>
      <trkpt lat="47.645978" lon="7.826826">
        <ele>389.597693</ele>
        <time>2021-11-08T22:09:08.720Z</time>
      </trkpt>
      <trkpt lat="47.645896" lon="7.826954">
        <ele>390.427573</ele>
        <time>2021-11-08T22:09:15.023Z</time>
      </trkpt>
      <trkpt lat="47.645853" lon="7.827035">
        <ele>390.961201</ele>
        <time>2021-11-08T22:09:17.964Z</time>
      </trkpt>
      <trkpt lat="47.645800" lon="7.827164">
        <ele>391.743056</ele>
        <time>2021-11-08T22:09:23.310Z</time>
      </trkpt>
      <trkpt lat="47.645755" lon="7.827294">
        <ele>392.499352</ele>
        <time>2021-11-08T22:09:28.746Z</time>
      </trkpt>
      <trkpt lat="47.645695" lon="7.827443">
        <ele>393.397595</ele>
        <time>2021-11-08T22:09:34.296Z</time>
      </trkpt>
      <trkpt lat="47.645563" lon="7.827696">
        <ele>395.053446</ele>
        <time>2021-11-08T22:09:44.736Z</time>
      </trkpt>
      <trkpt lat="47.645462" lon="7.827823">
        <ele>396.070143</ele>
        <time>2021-11-08T22:09:51.585Z</time>
      </trkpt>
      <trkpt lat="47.645177" lon="7.828073">
        <ele>398.612837</ele>
        <time>2021-11-08T22:10:07.739Z</time>
      </trkpt>
      <trkpt lat="47.645054" lon="7.828194">
        <ele>399.746219</ele>
        <time>2021-11-08T22:10:14.334Z</time>
      </trkpt>
      <trkpt lat="47.644970" lon="7.828283">
        <ele>400.538911</ele>
        <time>2021-11-08T22:10:19.000Z</time>
      </trkpt>
      <trkpt lat="47.644824" lon="7.828467">
        <ele>402.009991</ele>
        <time>2021-11-08T22:10:26.546Z</time>
      </trkpt>
      <trkpt lat="47.644685" lon="7.828760">
        <ele>403.795969</ele>
        <time>2021-11-08T22:10:36.348Z</time>
      </trkpt>
      <trkpt lat="47.644656" lon="7.828827">
        <ele>404.064791</ele>
        <time>2021-11-08T22:10:38.318Z</time>
      </trkpt>
      <trkpt lat="47.644594" lon="7.828980">
        <ele>404.667493</ele>
        <time>2021-11-08T22:10:42.800Z</time>
      </trkpt>
      <trkpt lat="47.644216" lon="7.830050">
        <ele>408.745895</ele>
        <time>2021-11-08T22:11:09.662Z</time>
      </trkpt>
      <trkpt lat="47.643976" lon="7.830478">
        <ele>410.625643</ele>
        <time>2021-11-08T22:11:21.125Z</time>
      </trkpt>
      <trkpt lat="47.643642" lon="7.830986">
        <ele>413.188297</ele>
        <time>2021-11-08T22:11:37.221Z</time>
      </trkpt>
      <trkpt lat="47.643346" lon="7.831476">
        <ele>416.491535</ele>
        <time>2021-11-08T22:11:54.601Z</time>
      </trkpt>
      <trkpt lat="47.643091" lon="7.831957">
        <ele>419.563586</ele>
        <time>2021-11-08T22:12:13.241Z</time>
      </trkpt>
      <trkpt lat="47.642807" lon="7.832692">
        <ele>423.816389</ele>
        <time>2021-11-08T22:12:41.398Z</time>
      </trkpt>
      <trkpt lat="47.642638" lon="7.833223">
        <ele>426.786324</ele>
        <time>2021-11-08T22:13:01.395Z</time>
      </trkpt>
      <trkpt lat="47.642385" lon="7.833924">
        <ele>430.907738</ele>
        <time>2021-11-08T22:13:28.334Z</time>
      </trkpt>
      <trkpt lat="47.641891" lon="7.835107">
        <ele>438.120867</ele>
        <time>2021-11-08T22:14:11.345Z</time>
      </trkpt>
      <trkpt lat="47.641165" lon="7.836543">
        <ele>444.967036</ele>
        <time>2021-11-08T22:14:56.105Z</time>
      </trkpt>
      <trkpt lat="47.640365" lon="7.837718">
        <ele>450.642580</ele>
        <time>2021-11-08T22:15:32.215Z</time>
      </trkpt>
      <trkpt lat="47.639834" lon="7.838208">
        <ele>453.572277</ele>
        <time>2021-11-08T22:15:53.423Z</time>
      </trkpt>
      <trkpt lat="47.639139" lon="7.838922">
        <ele>457.532750</ele>
        <time>2021-11-08T22:16:22.603Z</time>
      </trkpt>
      <trkpt lat="47.638684" lon="7.839572">
        <ele>459.916405</ele>
        <time>2021-11-08T22:16:43.539Z</time>
      </trkpt>
      <trkpt lat="47.638316" lon="7.840318">
        <ele>462.244506</ele>
        <time>2021-11-08T22:17:03.315Z</time>
      </trkpt>
      <trkpt lat="47.638219" lon="7.840571">
        <ele>462.977496</ele>
        <time>2021-11-08T22:17:08.958Z</time>
      </trkpt>
      <trkpt lat="47.637940" lon="7.841301">
        <ele>464.547998</ele>
        <time>2021-11-08T22:17:22.570Z</time>
      </trkpt>
      <trkpt lat="47.637571" lon="7.842262">
        <ele>465.233793</ele>
        <time>2021-11-08T22:17:36.550Z</time>
      </trkpt>
      <trkpt lat="47.637236" lon="7.842912">
        <ele>465.741183</ele>
        <time>2021-11-08T22:17:45.427Z</time>
      </trkpt>
      <trkpt lat="47.636455" lon="7.843722">
        <ele>466.133976</ele>
        <time>2021-11-08T22:17:59.849Z</time>
      </trkpt>
      <trkpt lat="47.635361" lon="7.844556">
        <ele>466.334690</ele>
        <time>2021-11-08T22:18:18.825Z</time>
      </trkpt>
      <trkpt lat="47.634649" lon="7.845085">
        <ele>466.403211</ele>
        <time>2021-11-08T22:18:31.920Z</time>
      </trkpt>
      <trkpt lat="47.633838" lon="7.846138">
        <ele>466.239103</ele>
        <time>2021-11-08T22:18:48.692Z</time>
      </trkpt>
      <trkpt lat="47.632763" lon="7.847936">
        <ele>463.605820</ele>
        <time>2021-11-08T22:19:06.991Z</time>
      </trkpt>
      <trkpt lat="47.631901" lon="7.849075">
        <ele>459.560198</ele>
        <time>2021-11-08T22:19:18.394Z</time>
      </trkpt>
      <trkpt lat="47.631225" lon="7.850277">
        <ele>455.799858</ele>
        <time>2021-11-08T22:19:28.703Z</time>
      </trkpt>
      <trkpt lat="47.630572" lon="7.851349">
        <ele>452.310316</ele>
        <time>2021-11-08T22:19:38.527Z</time>
      </trkpt>
      <trkpt lat="47.629944" lon="7.852149">
        <ele>449.016850</ele>
        <time>2021-11-08T22:19:46.735Z</time>
      </trkpt>
      <trkpt lat="47.629636" lon="7.852329">
        <ele>447.548708</ele>
        <time>2021-11-08T22:19:49.967Z</time>
      </trkpt>
      <trkpt lat="47.629450" lon="7.852437">
        <ele>446.662867</ele>
        <time>2021-11-08T22:19:51.843Z</time>
      </trkpt>
      <trkpt lat="47.628955" lon="7.852574">
        <ele>444.429624</ele>
        <time>2021-11-08T22:19:56.694Z</time>
      </trkpt>
      <trkpt lat="47.628091" lon="7.852385">
        <ele>440.630677</ele>
        <time>2021-11-08T22:20:04.845Z</time>
      </trkpt>
      <trkpt lat="47.626333" lon="7.851866">
        <ele>434.038947</ele>
        <time>2021-11-08T22:20:22.371Z</time>
      </trkpt>
      <trkpt lat="47.625550" lon="7.851952">
        <ele>432.427379</ele>
        <time>2021-11-08T22:20:31.255Z</time>
      </trkpt>
      <trkpt lat="47.625220" lon="7.852153">
        <ele>431.695174</ele>
        <time>2021-11-08T22:20:35.600Z</time>
      </trkpt>
      <trkpt lat="47.624847" lon="7.852475">
        <ele>431.143373</ele>
        <time>2021-11-08T22:20:41.383Z</time>
      </trkpt>
      <trkpt lat="47.624607" lon="7.852636">
        <ele>430.938246</ele>
        <time>2021-11-08T22:20:44.894Z</time>
      </trkpt>
      <trkpt lat="47.624152" lon="7.852848">
        <ele>430.566832</ele>
        <time>2021-11-08T22:20:51.389Z</time>
      </trkpt>
      <trkpt lat="47.623426" lon="7.853063">
        <ele>429.990274</ele>
        <time>2021-11-08T22:21:00.640Z</time>
      </trkpt>
      <trkpt lat="47.622726" lon="7.853422">
        <ele>428.836890</ele>
        <time>2021-11-08T22:21:09.032Z</time>
      </trkpt>
      <trkpt lat="47.621917" lon="7.853881">
        <ele>427.433097</ele>
        <time>2021-11-08T22:21:18.778Z</time>
      </trkpt>
      <trkpt lat="47.620941" lon="7.854385">
        <ele>425.250249</ele>
        <time>2021-11-08T22:21:30.307Z</time>
      </trkpt>
      <trkpt lat="47.620449" lon="7.854805">
        <ele>423.963326</ele>
        <time>2021-11-08T22:21:36.525Z</time>
      </trkpt>
      <trkpt lat="47.620117" lon="7.855176">
        <ele>423.020992</ele>
        <time>2021-11-08T22:21:40.867Z</time>
      </trkpt>
      <trkpt lat="47.619797" lon="7.855449">
        <ele>420.986685</ele>
        <time>2021-11-08T22:21:44.584Z</time>
      </trkpt>
      <trkpt lat="47.619340" lon="7.855676">
        <ele>418.194260</ele>
        <time>2021-11-08T22:21:49.208Z</time>
      </trkpt>
      <trkpt lat="47.618209" lon="7.856228">
        <ele>410.513456</ele>
        <time>2021-11-08T22:21:59.843Z</time>
      </trkpt>
      <trkpt lat="47.617871" lon="7.856385">
        <ele>407.163431</ele>
        <time>2021-11-08T22:22:02.949Z</time>
      </trkpt>
      <trkpt lat="47.617860" lon="7.856390">
        <ele>407.054613</ele>
        <time>2021-11-08T22:22:03.053Z</time>
      </trkpt>
      <trkpt lat="47.616788" lon="7.856842">
        <ele>396.513483</ele>
        <time>2021-11-08T22:22:12.606Z</time>
      </trkpt>
      <trkpt lat="47.616206" lon="7.856813">
        <ele>392.066112</ele>
        <time>2021-11-08T22:22:17.679Z</time>
      </trkpt>
      <trkpt lat="47.616000" lon="7.856839">
        <ele>390.570067</ele>
        <time>2021-11-08T22:22:19.557Z</time>
      </trkpt>
      <trkpt lat="47.615844" lon="7.856900">
        <ele>389.402661</ele>
        <time>2021-11-08T22:22:20.990Z</time>
      </trkpt>
      <trkpt lat="47.615613" lon="7.857102">
        <ele>387.462293</ele>
        <time>2021-11-08T22:22:23.399Z</time>
      </trkpt>
      <trkpt lat="47.615118" lon="7.857895">
        <ele>382.357004</ele>
        <time>2021-11-08T22:22:29.996Z</time>
      </trkpt>
      <trkpt lat="47.614688" lon="7.858653">
        <ele>380.090358</ele>
        <time>2021-11-08T22:22:36.622Z</time>
      </trkpt>
      <trkpt lat="47.614583" lon="7.858866">
        <ele>379.486618</ele>
        <time>2021-11-08T22:22:38.427Z</time>
      </trkpt>
      <trkpt lat="47.614286" lon="7.859741">
        <ele>377.245173</ele>
        <time>2021-11-08T22:22:45.433Z</time>
      </trkpt>
      <trkpt lat="47.614015" lon="7.860305">
        <ele>375.997442</ele>
        <time>2021-11-08T22:22:50.368Z</time>
      </trkpt>
      <trkpt lat="47.613795" lon="7.860645">
        <ele>375.410776</ele>
        <time>2021-11-08T22:22:53.756Z</time>
      </trkpt>
      <trkpt lat="47.613709" lon="7.860779">
        <ele>375.180461</ele>
        <time>2021-11-08T22:22:55.196Z</time>
      </trkpt>
      <trkpt lat="47.613477" lon="7.861090">
        <ele>374.603037</ele>
        <time>2021-11-08T22:22:58.770Z</time>
      </trkpt>
      <trkpt lat="47.613247" lon="7.861408">
        <ele>374.022440</ele>
        <time>2021-11-08T22:23:02.380Z</time>
      </trkpt>
      <trkpt lat="47.613183" lon="7.861517">
        <ele>373.842500</ele>
        <time>2021-11-08T22:23:03.493Z</time>
      </trkpt>
      <trkpt lat="47.613099" lon="7.861661">
        <ele>373.605446</ele>
        <time>2021-11-08T22:23:04.907Z</time>
      </trkpt>
      <trkpt lat="47.611814" lon="7.864344">
        <ele>369.550768</ele>
        <time>2021-11-08T22:23:30.426Z</time>
      </trkpt>
      <trkpt lat="47.611380" lon="7.864872">
        <ele>367.483820</ele>
        <time>2021-11-08T22:23:36.163Z</time>
      </trkpt>
      <trkpt lat="47.610539" lon="7.865746">
        <ele>363.702454</ele>
        <time>2021-11-08T22:23:46.009Z</time>
      </trkpt>
      <trkpt lat="47.609971" lon="7.866486">
        <ele>360.555499</ele>
        <time>2021-11-08T22:23:53.208Z</time>
      </trkpt>
      <trkpt lat="47.609617" lon="7.867003">
        <ele>358.460840</ele>
        <time>2021-11-08T22:23:57.976Z</time>
      </trkpt>
      <trkpt lat="47.609158" lon="7.867673">
        <ele>355.750524</ele>
        <time>2021-11-08T22:24:04.357Z</time>
      </trkpt>
      <trkpt lat="47.608371" lon="7.868821">
        <ele>351.343368</ele>
        <time>2021-11-08T22:24:15.370Z</time>
      </trkpt>
      <trkpt lat="47.608074" lon="7.869176">
        <ele>349.820423</ele>
        <time>2021-11-08T22:24:19.078Z</time>
      </trkpt>
      <trkpt lat="47.607911" lon="7.869279">
        <ele>349.113017</ele>
        <time>2021-11-08T22:24:20.798Z</time>
      </trkpt>
      <trkpt lat="47.607848" lon="7.869319">
        <ele>348.839402</ele>
        <time>2021-11-08T22:24:21.422Z</time>
      </trkpt>
      <trkpt lat="47.607466" lon="7.869418">
        <ele>346.977934</ele>
        <time>2021-11-08T22:24:25.051Z</time>
      </trkpt>
      <trkpt lat="47.607341" lon="7.869436">
        <ele>346.361595</ele>
        <time>2021-11-08T22:24:26.215Z</time>
      </trkpt>
      <trkpt lat="47.607251" lon="7.869449">
        <ele>345.917817</ele>
        <time>2021-11-08T22:24:27.049Z</time>
      </trkpt>
      <trkpt lat="47.606761" lon="7.869665">
        <ele>343.409115</ele>
        <time>2021-11-08T22:24:31.834Z</time>
      </trkpt>
      <trkpt lat="47.606461" lon="7.869656">
        <ele>341.936522</ele>
        <time>2021-11-08T22:24:34.647Z</time>
      </trkpt>
      <trkpt lat="47.606292" lon="7.869632">
        <ele>341.103338</ele>
        <time>2021-11-08T22:24:36.203Z</time>
      </trkpt>
      <trkpt lat="47.605878" lon="7.869549">
        <ele>339.639811</ele>
        <time>2021-11-08T22:24:40.211Z</time>
      </trkpt>
      <trkpt lat="47.605451" lon="7.869487">
        <ele>339.123241</ele>
        <time>2021-11-08T22:24:44.833Z</time>
      </trkpt>
      <trkpt lat="47.605251" lon="7.869499">
        <ele>338.882242</ele>
        <time>2021-11-08T22:24:46.953Z</time>
      </trkpt>
      <trkpt lat="47.605151" lon="7.869535">
        <ele>338.758345</ele>
        <time>2021-11-08T22:24:48.243Z</time>
      </trkpt>
      <trkpt lat="47.604178" lon="7.870272">
        <ele>337.796243</ele>
        <time>2021-11-08T22:25:06.236Z</time>
      </trkpt>
      <trkpt lat="47.603441" lon="7.870715">
        <ele>338.362321</ele>
        <time>2021-11-08T22:25:22.829Z</time>
      </trkpt>
      <trkpt lat="47.603243" lon="7.870755">
        <ele>338.504568</ele>
        <time>2021-11-08T22:25:26.877Z</time>
      </trkpt>
      <trkpt lat="47.602981" lon="7.870758">
        <ele>338.691076</ele>
        <time>2021-11-08T22:25:31.208Z</time>
      </trkpt>
      <trkpt lat="47.602723" lon="7.870667">
        <ele>338.879854</ele>
        <time>2021-11-08T22:25:35.391Z</time>
      </trkpt>
      <trkpt lat="47.602649" lon="7.870651">
        <ele>338.933088</ele>
        <time>2021-11-08T22:25:36.407Z</time>
      </trkpt>
      <trkpt lat="47.602070" lon="7.870289">
        <ele>337.757997</ele>
        <time>2021-11-08T22:25:44.494Z</time>
      </trkpt>
      <trkpt lat="47.600522" lon="7.868445">
        <ele>333.917591</ele>
        <time>2021-11-08T22:26:05.088Z</time>
      </trkpt>
      <trkpt lat="47.600376" lon="7.868280">
        <ele>333.564866</ele>
        <time>2021-11-08T22:26:06.976Z</time>
      </trkpt>
      <trkpt lat="47.599705" lon="7.867526">
        <ele>332.002877</ele>
        <time>2021-11-08T22:26:16.819Z</time>
      </trkpt>
      <trkpt lat="47.598844" lon="7.866669">
        <ele>332.336671</ele>
        <time>2021-11-08T22:26:33.889Z</time>
      </trkpt>
      <trkpt lat="47.598366" lon="7.866463">
        <ele>332.496905</ele>
        <time>2021-11-08T22:26:43.593Z</time>
      </trkpt>
      <trkpt lat="47.597848" lon="7.866506">
        <ele>332.303645</ele>
        <time>2021-11-08T22:26:52.848Z</time>
      </trkpt>
      <trkpt lat="47.596934" lon="7.867028">
        <ele>331.357504</ele>
        <time>2021-11-08T22:27:06.231Z</time>
      </trkpt>
      <trkpt lat="47.596649" lon="7.867104">
        <ele>331.077777</ele>
        <time>2021-11-08T22:27:09.395Z</time>
      </trkpt>
      <trkpt lat="47.596216" lon="7.866990">
        <ele>330.269468</ele>
        <time>2021-11-08T22:27:13.697Z</time>
      </trkpt>
      <trkpt lat="47.595529" lon="7.866433">
        <ele>327.931684</ele>
        <time>2021-11-08T22:27:21.578Z</time>
      </trkpt>
      <trkpt lat="47.595188" lon="7.866380">
        <ele>326.907964</ele>
        <time>2021-11-08T22:27:25.226Z</time>
      </trkpt>
      <trkpt lat="47.594961" lon="7.866424">
        <ele>326.224432</ele>
        <time>2021-11-08T22:27:27.495Z</time>
      </trkpt>
      <trkpt lat="47.594779" lon="7.866515">
        <ele>325.650965</ele>
        <time>2021-11-08T22:27:29.841Z</time>
      </trkpt>
      <trkpt lat="47.594420" lon="7.866749">
        <ele>323.618554</ele>
        <time>2021-11-08T22:27:33.962Z</time>
      </trkpt>
      <trkpt lat="47.594096" lon="7.866777">
        <ele>321.802788</ele>
        <time>2021-11-08T22:27:37.231Z</time>
      </trkpt>
      <trkpt lat="47.593941" lon="7.866752">
        <ele>320.930491</ele>
        <time>2021-11-08T22:27:38.645Z</time>
      </trkpt>
      <trkpt lat="47.593497" lon="7.866682">
        <ele>318.432433</ele>
        <time>2021-11-08T22:27:42.730Z</time>
      </trkpt>
      <trkpt lat="47.593114" lon="7.866603">
        <ele>316.269023</ele>
        <time>2021-11-08T22:27:46.239Z</time>
      </trkpt>
      <trkpt lat="47.592687" lon="7.866538">
        <ele>312.533463</ele>
        <time>2021-11-08T22:27:49.971Z</time>
      </trkpt>
      <trkpt lat="47.592389" lon="7.866483">
        <ele>309.393816</ele>
        <time>2021-11-08T22:27:52.545Z</time>
      </trkpt>
      <trkpt lat="47.592194" lon="7.866446">
        <ele>307.338456</ele>
        <time>2021-11-08T22:27:54.191Z</time>
      </trkpt>
      <trkpt lat="47.591755" lon="7.866378">
        <ele>302.723713</ele>
        <time>2021-11-08T22:27:57.930Z</time>
      </trkpt>
      <trkpt lat="47.591538" lon="7.866361">
        <ele>300.451802</ele>
        <time>2021-11-08T22:27:59.759Z</time>
      </trkpt>
      <trkpt lat="47.591332" lon="7.866357">
        <ele>298.297877</ele>
        <time>2021-11-08T22:28:01.537Z</time>
      </trkpt>
      <trkpt lat="47.591128" lon="7.866362">
        <ele>296.410725</ele>
        <time>2021-11-08T22:28:03.260Z</time>
      </trkpt>
      <trkpt lat="47.590822" lon="7.866391">
        <ele>295.023978</ele>
        <time>2021-11-08T22:28:05.930Z</time>
      </trkpt>
      <trkpt lat="47.590711" lon="7.865706">
        <ele>292.875158</ele>
        <time>2021-11-08T22:28:10.355Z</time>
      </trkpt>
      <trkpt lat="47.590697" lon="7.865616">
        <ele>292.593437</ele>
        <time>2021-11-08T22:28:10.974Z</time>
      </trkpt>
      <trkpt lat="47.590641" lon="7.865166">
        <ele>291.197693</ele>
        <time>2021-11-08T22:28:14.081Z</time>
      </trkpt>
      <trkpt lat="47.590547" lon="7.864188">
        <ele>288.482711</ele>
        <time>2021-11-08T22:28:22.134Z</time>
      </trkpt>
      <trkpt lat="47.590529" lon="7.863327">
        <ele>288.662084</ele>
        <time>2021-11-08T22:28:32.243Z</time>
      </trkpt>
      <trkpt lat="47.590535" lon="7.862855">
        <ele>288.760386</ele>
        <time>2021-11-08T22:28:37.914Z</time>
      </trkpt>
      <trkpt lat="47.590556" lon="7.861868">
        <ele>288.966012</ele>
        <time>2021-11-08T22:28:49.066Z</time>
      </trkpt>
      <trkpt lat="47.590583" lon="7.860850">
        <ele>289.232437</ele>
        <time>2021-11-08T22:29:00.547Z</time>
      </trkpt>
      <trkpt lat="47.590588" lon="7.860647">
        <ele>289.289162</ele>
        <time>2021-11-08T22:29:03.019Z</time>
      </trkpt>
      <trkpt lat="47.590611" lon="7.859435">
        <ele>289.627743</ele>
        <time>2021-11-08T22:29:16.571Z</time>
      </trkpt>
      <trkpt lat="47.590610" lon="7.858648">
        <ele>289.731786</ele>
        <time>2021-11-08T22:29:24.932Z</time>
      </trkpt>
      <trkpt lat="47.590607" lon="7.858460">
        <ele>289.711770</ele>
        <time>2021-11-08T22:29:27.001Z</time>
      </trkpt>
      <trkpt lat="47.590561" lon="7.857127">
        <ele>289.569704</ele>
        <time>2021-11-08T22:29:39.900Z</time>
      </trkpt>
      <trkpt lat="47.590520" lon="7.855958">
        <ele>289.389682</ele>
        <time>2021-11-08T22:29:50.313Z</time>
      </trkpt>
      <trkpt lat="47.590424" lon="7.854393">
        <ele>288.955635</ele>
        <time>2021-11-08T22:30:04.105Z</time>
      </trkpt>
      <trkpt lat="47.590329" lon="7.852851">
        <ele>288.890687</ele>
        <time>2021-11-08T22:30:19.448Z</time>
      </trkpt>
      <trkpt lat="47.590057" lon="7.850113">
        <ele>289.430127</ele>
        <time>2021-11-08T22:30:50.318Z</time>
      </trkpt>
      <trkpt lat="47.590017" lon="7.849859">
        <ele>289.484182</ele>
        <time>2021-11-08T22:30:53.169Z</time>
      </trkpt>
      <trkpt lat="47.589928" lon="7.849282">
        <ele>289.606848</ele>
        <time>2021-11-08T22:30:59.606Z</time>
      </trkpt>
      <trkpt lat="47.589635" lon="7.847510">
        <ele>289.895877</ele>
        <time>2021-11-08T22:31:18.928Z</time>
      </trkpt>
      <trkpt lat="47.589339" lon="7.845650">
        <ele>290.110191</ele>
        <time>2021-11-08T22:31:38.463Z</time>
      </trkpt>
      <trkpt lat="47.589208" lon="7.844692">
        <ele>290.283650</ele>
        <time>2021-11-08T22:31:48.631Z</time>
      </trkpt>
      <trkpt lat="47.589148" lon="7.843298">
        <ele>290.531522</ele>
        <time>2021-11-08T22:32:03.818Z</time>
      </trkpt>
      <trkpt lat="47.589148" lon="7.842161">
        <ele>290.878146</ele>
        <time>2021-11-08T22:32:16.710Z</time>
      </trkpt>
      <trkpt lat="47.589184" lon="7.841335">
        <ele>291.147499</ele>
        <time>2021-11-08T22:32:26.241Z</time>
      </trkpt>
      <trkpt lat="47.589403" lon="7.839556">
        <ele>291.627286</ele>
        <time>2021-11-08T22:32:46.490Z</time>
      </trkpt>
      <trkpt lat="47.589698" lon="7.838226">
        <ele>291.922422</ele>
        <time>2021-11-08T22:33:01.624Z</time>
      </trkpt>
      <trkpt lat="47.589864" lon="7.837623">
        <ele>291.786042</ele>
        <time>2021-11-08T22:33:08.702Z</time>
      </trkpt>
      <trkpt lat="47.589926" lon="7.837360">
        <ele>291.615661</ele>
        <time>2021-11-08T22:33:11.559Z</time>
      </trkpt>
      <trkpt lat="47.590050" lon="7.836868">
        <ele>291.294454</ele>
        <time>2021-11-08T22:33:16.490Z</time>
      </trkpt>
      <trkpt lat="47.590062" lon="7.836819">
        <ele>291.262574</ele>
        <time>2021-11-08T22:33:16.940Z</time>
      </trkpt>
      <trkpt lat="47.590166" lon="7.836338">
        <ele>290.953670</ele>
        <time>2021-11-08T22:33:21.332Z</time>
      </trkpt>
      <trkpt lat="47.590212" lon="7.836109">
        <ele>290.807545</ele>
        <time>2021-11-08T22:33:23.238Z</time>
      </trkpt>
      <trkpt lat="47.590263" lon="7.835856">
        <ele>290.646060</ele>
        <time>2021-11-08T22:33:25.345Z</time>
      </trkpt>
      <trkpt lat="47.589181" lon="7.835983">
        <ele>287.904748</ele>
        <time>2021-11-08T22:33:36.670Z</time>
      </trkpt>
      <trkpt lat="47.588272" lon="7.836090">
        <ele>284.992674</ele>
        <time>2021-11-08T22:33:45.641Z</time>
      </trkpt>
      <trkpt lat="47.587903" lon="7.836007">
        <ele>284.024313</ele>
        <time>2021-11-08T22:33:49.339Z</time>
      </trkpt>
      <trkpt lat="47.587628" lon="7.835942">
        <ele>283.379290</ele>
        <time>2021-11-08T22:33:52.154Z</time>
      </trkpt>
      <trkpt lat="47.587848" lon="7.834235">
        <ele>280.664287</ele>
        <time>2021-11-08T22:34:04.792Z</time>
      </trkpt>
      <trkpt lat="47.586496" lon="7.833050">
        <ele>280.583729</ele>
        <time>2021-11-08T22:34:27.105Z</time>
      </trkpt>
      <trkpt lat="47.586276" lon="7.833601">
        <ele>280.933809</ele>
        <time>2021-11-08T22:34:35.358Z</time>
      </trkpt>
      <trkpt lat="47.585278" lon="7.832688">
        <ele>284.334076</ele>
        <time>2021-11-08T22:35:06.811Z</time>
      </trkpt>
      <trkpt lat="47.585247" lon="7.832651">
        <ele>284.449468</ele>
        <time>2021-11-08T22:35:08.112Z</time>
      </trkpt>
      <trkpt lat="47.585195" lon="7.832588">
        <ele>284.644183</ele>
        <time>2021-11-08T22:35:10.308Z</time>
      </trkpt>
      <trkpt lat="47.585027" lon="7.832425">
        <ele>285.226341</ele>
        <time>2021-11-08T22:35:15.716Z</time>
      </trkpt>
      <trkpt lat="47.584717" lon="7.832264">
        <ele>286.341859</ele>
        <time>2021-11-08T22:35:25.381Z</time>
      </trkpt>
      <trkpt lat="47.584367" lon="7.832247">
        <ele>287.829933</ele>
        <time>2021-11-08T22:35:36.482Z</time>
      </trkpt>
      <trkpt lat="47.584156" lon="7.832334">
        <ele>288.760578</ele>
        <time>2021-11-08T22:35:44.189Z</time>
      </trkpt>
      <trkpt lat="47.584029" lon="7.832543">
        <ele>289.566861</ele>
        <time>2021-11-08T22:35:50.924Z</time>
      </trkpt>
      <trkpt lat="47.583849" lon="7.832883">
        <ele>290.805707</ele>
        <time>2021-11-08T22:36:01.313Z</time>
      </trkpt>
      <trkpt lat="47.583696" lon="7.833171">
        <ele>291.856474</ele>
        <time>2021-11-08T22:36:10.019Z</time>
      </trkpt>
      <trkpt lat="47.583523" lon="7.833509">
        <ele>293.072611</ele>
        <time>2021-11-08T22:36:18.479Z</time>
      </trkpt>
      <trkpt lat="47.583401" lon="7.833658">
        <ele>293.614950</ele>
        <time>2021-11-08T22:36:22.352Z</time>
      </trkpt>
      <trkpt lat="47.583327" lon="7.833750">
        <ele>293.830783</ele>
        <time>2021-11-08T22:36:25.478Z</time>
      </trkpt>
      <trkpt lat="47.583163" lon="7.833942">
        <ele>294.297800</ele>
        <time>2021-11-08T22:36:30.971Z</time>
      </trkpt>
      <trkpt lat="47.582828" lon="7.834117">
        <ele>295.091594</ele>
        <time>2021-11-08T22:36:39.418Z</time>
      </trkpt>
      <trkpt lat="47.580816" lon="7.834599">
        <ele>298.422262</ele>
        <time>2021-11-08T22:37:23.298Z</time>
      </trkpt>
      <trkpt lat="47.580667" lon="7.834627">
        <ele>298.567268</ele>
        <time>2021-11-08T22:37:25.679Z</time>
      </trkpt>
      <trkpt lat="47.579073" lon="7.834987">
        <ele>298.798852</ele>
        <time>2021-11-08T22:37:50.899Z</time>
      </trkpt>
      <trkpt lat="47.576501" lon="7.835585">
        <ele>296.287080</ele>
        <time>2021-11-08T22:38:21.972Z</time>
      </trkpt>
      <trkpt lat="47.576219" lon="7.835650">
        <ele>296.011392</ele>
        <time>2021-11-08T22:38:25.155Z</time>
      </trkpt>
      <trkpt lat="47.575959" lon="7.835718">
        <ele>295.776115</ele>
        <time>2021-11-08T22:38:28.209Z</time>
      </trkpt>
      <trkpt lat="47.575291" lon="7.835854">
        <ele>295.175241</ele>
        <time>2021-11-08T22:38:36.448Z</time>
      </trkpt>
      <trkpt lat="47.575033" lon="7.835907">
        <ele>294.943127</ele>
        <time>2021-11-08T22:38:39.755Z</time>
      </trkpt>
      <trkpt lat="47.574568" lon="7.836025">
        <ele>294.633417</ele>
        <time>2021-11-08T22:38:46.129Z</time>
      </trkpt>
      <trkpt lat="47.574158" lon="7.836106">
        <ele>294.763840</ele>
        <time>2021-11-08T22:38:52.792Z</time>
      </trkpt>
      <trkpt lat="47.573815" lon="7.836215">
        <ele>294.874452</ele>
        <time>2021-11-08T22:39:00.429Z</time>
      </trkpt>
      <trkpt lat="47.573348" lon="7.836386">
        <ele>295.026132</ele>
        <time>2021-11-08T22:39:11.220Z</time>
      </trkpt>
      <trkpt lat="47.572760" lon="7.836606">
        <ele>295.264464</ele>
        <time>2021-11-08T22:39:24.831Z</time>
      </trkpt>
      <trkpt lat="47.572296" lon="7.836777">
        <ele>295.570549</ele>
        <time>2021-11-08T22:39:35.256Z</time>
      </trkpt>
      <trkpt lat="47.572139" lon="7.836834">
        <ele>295.674028</ele>
        <time>2021-11-08T22:39:38.742Z</time>
      </trkpt>
      <trkpt lat="47.571871" lon="7.836932">
        <ele>295.850739</ele>
        <time>2021-11-08T22:39:44.779Z</time>
      </trkpt>
      <trkpt lat="47.571771" lon="7.836971">
        <ele>295.916935</ele>
        <time>2021-11-08T22:39:47.016Z</time>
      </trkpt>
      <trkpt lat="47.571254" lon="7.837161">
        <ele>296.257928</ele>
        <time>2021-11-08T22:39:59.466Z</time>
      </trkpt>
      <trkpt lat="47.570985" lon="7.837265">
        <ele>296.561334</ele>
        <time>2021-11-08T22:40:06.420Z</time>
      </trkpt>
      <trkpt lat="47.570872" lon="7.837307">
        <ele>296.718833</ele>
        <time>2021-11-08T22:40:09.436Z</time>
      </trkpt>
      <trkpt lat="47.570298" lon="7.837528">
        <ele>297.520603</ele>
        <time>2021-11-08T22:40:24.758Z</time>
      </trkpt>
      <trkpt lat="47.570038" lon="7.837643">
        <ele>297.887425</ele>
        <time>2021-11-08T22:40:31.881Z</time>
      </trkpt>
      <trkpt lat="47.569907" lon="7.837696">
        <ele>298.071009</ele>
        <time>2021-11-08T22:40:35.402Z</time>
      </trkpt>
      <trkpt lat="47.569814" lon="7.837733">
        <ele>298.201190</ele>
        <time>2021-11-08T22:40:37.964Z</time>
      </trkpt>
      <trkpt lat="47.569665" lon="7.837789">
        <ele>298.409005</ele>
        <time>2021-11-08T22:40:41.928Z</time>
      </trkpt>
      <trkpt lat="47.569522" lon="7.837844">
        <ele>298.608736</ele>
        <time>2021-11-08T22:40:45.783Z</time>
      </trkpt>
      <trkpt lat="47.569310" lon="7.837922">
        <ele>298.878536</ele>
        <time>2021-11-08T22:40:51.530Z</time>
      </trkpt>
      <trkpt lat="47.568988" lon="7.838054">
        <ele>299.253034</ele>
        <time>2021-11-08T22:41:00.307Z</time>
      </trkpt>
      <trkpt lat="47.568420" lon="7.838300">
        <ele>299.916360</ele>
        <time>2021-11-08T22:41:15.565Z</time>
      </trkpt>
      <trkpt lat="47.568160" lon="7.838415">
        <ele>300.220509</ele>
        <time>2021-11-08T22:41:21.978Z</time>
      </trkpt>
      <trkpt lat="47.568042" lon="7.838436">
        <ele>300.353731</ele>
        <time>2021-11-08T22:41:24.713Z</time>
      </trkpt>
      <trkpt lat="47.567936" lon="7.838380">
        <ele>300.479875</ele>
        <time>2021-11-08T22:41:27.245Z</time>
      </trkpt>
      <trkpt lat="47.567846" lon="7.838609">
        <ele>300.680313</ele>
        <time>2021-11-08T22:41:30.274Z</time>
      </trkpt>
      <trkpt lat="47.567823" lon="7.838648">
        <ele>300.719489</ele>
        <time>2021-11-08T22:41:30.930Z</time>
      </trkpt>
      <trkpt lat="47.567634" lon="7.839037">
        <ele>300.982801</ele>
        <time>2021-11-08T22:41:36.345Z</time>
      </trkpt>
      <trkpt lat="47.567626" lon="7.839064">
        <ele>300.997990</ele>
        <time>2021-11-08T22:41:36.759Z</time>
      </trkpt>
      <trkpt lat="47.567564" lon="7.839283">
        <ele>301.120318</ele>
        <time>2021-11-08T22:41:39.476Z</time>
      </trkpt>
      <trkpt lat="47.567530" lon="7.839459">
        <ele>301.214613</ele>
        <time>2021-11-08T22:41:41.666Z</time>
      </trkpt>
      <trkpt lat="47.567510" lon="7.839548">
        <ele>301.262930</ele>
        <time>2021-11-08T22:41:42.788Z</time>
      </trkpt>
      <trkpt lat="47.567481" lon="7.839664">
        <ele>301.326648</ele>
        <time>2021-11-08T22:41:44.129Z</time>
      </trkpt>
      <trkpt lat="47.567406" lon="7.839778">
        <ele>301.408660</ele>
        <time>2021-11-08T22:41:46.179Z</time>
      </trkpt>
      <trkpt lat="47.567111" lon="7.839998">
        <ele>301.660761</ele>
        <time>2021-11-08T22:41:52.160Z</time>
      </trkpt>
      <trkpt lat="47.566826" lon="7.840179">
        <ele>301.897460</ele>
        <time>2021-11-08T22:41:57.681Z</time>
      </trkpt>
      <trkpt lat="47.566592" lon="7.840279">
        <ele>302.083370</ele>
        <time>2021-11-08T22:42:02.310Z</time>
      </trkpt>
      <trkpt lat="47.566515" lon="7.840312">
        <ele>302.144859</ele>
        <time>2021-11-08T22:42:03.600Z</time>
      </trkpt>
      <trkpt lat="47.566450" lon="7.840326">
        <ele>302.221337</ele>
        <time>2021-11-08T22:42:04.838Z</time>
      </trkpt>
      <trkpt lat="47.566350" lon="7.840350">
        <ele>302.339288</ele>
        <time>2021-11-08T22:42:06.746Z</time>
      </trkpt>
      <trkpt lat="47.566221" lon="7.840340">
        <ele>302.489694</ele>
        <time>2021-11-08T22:42:09.079Z</time>
      </trkpt>
      <trkpt lat="47.566142" lon="7.840322">
        <ele>302.582759</ele>
        <time>2021-11-08T22:42:10.312Z</time>
      </trkpt>
      <trkpt lat="47.566081" lon="7.840309">
        <ele>302.654514</ele>
        <time>2021-11-08T22:42:11.524Z</time>
      </trkpt>
      <trkpt lat="47.565906" lon="7.840272">
        <ele>302.860338</ele>
        <time>2021-11-08T22:42:14.975Z</time>
      </trkpt>
      <trkpt lat="47.565343" lon="7.840185">
        <ele>303.519419</ele>
        <time>2021-11-08T22:42:26.296Z</time>
      </trkpt>
      <trkpt lat="47.565233" lon="7.840176">
        <ele>303.647693</ele>
        <time>2021-11-08T22:42:28.634Z</time>
      </trkpt>
      <trkpt lat="47.565168" lon="7.840179">
        <ele>303.723412</ele>
        <time>2021-11-08T22:42:30.009Z</time>
      </trkpt>
      <trkpt lat="47.565057" lon="7.840213">
        <ele>303.855386</ele>
        <time>2021-11-08T22:42:32.252Z</time>
      </trkpt>
      <trkpt lat="47.564936" lon="7.840261">
        <ele>304.001232</ele>
        <time>2021-11-08T22:42:34.968Z</time>
      </trkpt>
      <trkpt lat="47.564558" lon="7.840516">
        <ele>304.459299</ele>
        <time>2021-11-08T22:42:43.250Z</time>
      </trkpt>
      <trkpt lat="47.564534" lon="7.840532">
        <ele>304.486771</ele>
        <time>2021-11-08T22:42:43.748Z</time>
      </trkpt>
      <trkpt lat="47.564463" lon="7.840580">
        <ele>304.568235</ele>
        <time>2021-11-08T22:42:45.362Z</time>
      </trkpt>
      <trkpt lat="47.564094" lon="7.840838">
        <ele>304.994150</ele>
        <time>2021-11-08T22:42:53.022Z</time>
      </trkpt>
      <trkpt lat="47.563986" lon="7.840916">
        <ele>305.119566</ele>
        <time>2021-11-08T22:42:55.310Z</time>
      </trkpt>
      <trkpt lat="47.563941" lon="7.840948">
        <ele>305.171669</ele>
        <time>2021-11-08T22:42:56.235Z</time>
      </trkpt>
      <trkpt lat="47.563805" lon="7.841046">
        <ele>305.329532</ele>
        <time>2021-11-08T22:42:59.042Z</time>
      </trkpt>
      <trkpt lat="47.563659" lon="7.841150">
        <ele>305.498633</ele>
        <time>2021-11-08T22:43:01.933Z</time>
      </trkpt>
      <trkpt lat="47.563483" lon="7.841269">
        <ele>305.700577</ele>
        <time>2021-11-08T22:43:05.662Z</time>
      </trkpt>
      <trkpt lat="47.563300" lon="7.841391">
        <ele>305.910049</ele>
        <time>2021-11-08T22:43:09.222Z</time>
      </trkpt>
      <trkpt lat="47.563016" lon="7.841568">
        <ele>306.255308</ele>
        <time>2021-11-08T22:43:15.079Z</time>
      </trkpt>
      <trkpt lat="47.562965" lon="7.841597">
        <ele>306.323969</ele>
        <time>2021-11-08T22:43:16.058Z</time>
      </trkpt>
      <trkpt lat="47.562904" lon="7.841632">
        <ele>306.406189</ele>
        <time>2021-11-08T22:43:17.286Z</time>
      </trkpt>
      <trkpt lat="47.562574" lon="7.841873">
        <ele>306.868615</ele>
        <time>2021-11-08T22:43:24.252Z</time>
      </trkpt>
      <trkpt lat="47.562440" lon="7.842083">
        <ele>307.113757</ele>
        <time>2021-11-08T22:43:27.872Z</time>
      </trkpt>
      <trkpt lat="47.562385" lon="7.842183">
        <ele>307.223180</ele>
        <time>2021-11-08T22:43:29.438Z</time>
      </trkpt>
      <trkpt lat="47.562300" lon="7.842326">
        <ele>307.384815</ele>
        <time>2021-11-08T22:43:32.338Z</time>
      </trkpt>
      <trkpt lat="47.562179" lon="7.842500">
        <ele>307.596741</ele>
        <time>2021-11-08T22:43:35.817Z</time>
      </trkpt>
      <trkpt lat="47.561498" lon="7.843130">
        <ele>308.543852</ele>
        <time>2021-11-08T22:43:52.528Z</time>
      </trkpt>
      <trkpt lat="47.561434" lon="7.843181">
        <ele>308.610492</ele>
        <time>2021-11-08T22:43:54.333Z</time>
      </trkpt>
      <trkpt lat="47.561038" lon="7.843502">
        <ele>309.024433</ele>
        <time>2021-11-08T22:44:03.034Z</time>
      </trkpt>
      <trkpt lat="47.560934" lon="7.843550">
        <ele>309.124327</ele>
        <time>2021-11-08T22:44:04.952Z</time>
      </trkpt>
      <trkpt lat="47.560934" lon="7.843550">
        <ele>309.124327</ele>
        <time>2021-11-08T22:44:05.009Z</time>
      </trkpt>
      <trkpt lat="47.560812" lon="7.843560">
        <ele>309.236381</ele>
        <time>2021-11-08T22:44:07.253Z</time>
      </trkpt>
      <trkpt lat="47.560515" lon="7.843379">
        <ele>309.530885</ele>
        <time>2021-11-08T22:44:12.990Z</time>
      </trkpt>
      <trkpt lat="47.560430" lon="7.843341">
        <ele>309.612306</ele>
        <time>2021-11-08T22:44:14.792Z</time>
      </trkpt>
      <trkpt lat="47.560338" lon="7.843341">
        <ele>309.696677</ele>
        <time>2021-11-08T22:44:15.997Z</time>
      </trkpt>
      <trkpt lat="47.560209" lon="7.843393">
        <ele>309.819278</ele>
        <time>2021-11-08T22:44:18.501Z</time>
      </trkpt>
      <trkpt lat="47.560139" lon="7.843433">
        <ele>309.888080</ele>
        <time>2021-11-08T22:44:19.820Z</time>
      </trkpt>
      <trkpt lat="47.559847" lon="7.843604">
        <ele>310.006938</ele>
        <time>2021-11-08T22:44:24.988Z</time>
      </trkpt>
      <trkpt lat="47.559583" lon="7.843813">
        <ele>309.971797</ele>
        <time>2021-11-08T22:44:29.479Z</time>
      </trkpt>
      <trkpt lat="47.559158" lon="7.844233">
        <ele>309.911822</ele>
        <time>2021-11-08T22:44:36.688Z</time>
      </trkpt>
      <trkpt lat="47.559109" lon="7.844229">
        <ele>309.906061</ele>
        <time>2021-11-08T22:44:37.278Z</time>
      </trkpt>
      <trkpt lat="47.559060" lon="7.844197">
        <ele>309.899774</ele>
        <time>2021-11-08T22:44:37.910Z</time>
      </trkpt>
      <trkpt lat="47.558884" lon="7.843836">
        <ele>309.864489</ele>
        <time>2021-11-08T22:44:42.062Z</time>
      </trkpt>
      <trkpt lat="47.558555" lon="7.843392">
        <ele>309.818400</ele>
        <time>2021-11-08T22:44:48.098Z</time>
      </trkpt>
      <trkpt lat="47.558471" lon="7.843365">
        <ele>309.831209</ele>
        <time>2021-11-08T22:44:49.355Z</time>
      </trkpt>
      <trkpt lat="47.558405" lon="7.843371">
        <ele>309.841063</ele>
        <time>2021-11-08T22:44:50.524Z</time>
      </trkpt>
      <trkpt lat="47.558136" lon="7.843582">
        <ele>309.886420</ele>
        <time>2021-11-08T22:44:54.731Z</time>
      </trkpt>
      <trkpt lat="47.557967" lon="7.843683">
        <ele>309.913576</ele>
        <time>2021-11-08T22:44:57.449Z</time>
      </trkpt>
      <trkpt lat="47.557846" lon="7.843756">
        <ele>309.933045</ele>
        <time>2021-11-08T22:44:59.293Z</time>
      </trkpt>
      <trkpt lat="47.557759" lon="7.843839">
        <ele>309.948464</ele>
        <time>2021-11-08T22:45:01.070Z</time>
      </trkpt>
      <trkpt lat="47.557715" lon="7.843940">
        <ele>309.960554</ele>
        <time>2021-11-08T22:45:02.298Z</time>
      </trkpt>
      <trkpt lat="47.557560" lon="7.844433">
        <ele>310.015251</ele>
        <time>2021-11-08T22:45:08.260Z</time>
      </trkpt>
      <trkpt lat="47.557282" lon="7.844832">
        <ele>310.072926</ele>
        <time>2021-11-08T22:45:14.703Z</time>
      </trkpt>
      <trkpt lat="47.557134" lon="7.845095">
        <ele>310.208237</ele>
        <time>2021-11-08T22:45:18.479Z</time>
      </trkpt>
      <trkpt lat="47.556636" lon="7.845928">
        <ele>310.783429</ele>
        <time>2021-11-08T22:45:31.330Z</time>
      </trkpt>
      <trkpt lat="47.556374" lon="7.846351">
        <ele>311.080189</ele>
        <time>2021-11-08T22:45:38.352Z</time>
      </trkpt>
      <trkpt lat="47.556060" lon="7.846859">
        <ele>311.436247</ele>
        <time>2021-11-08T22:45:47.456Z</time>
      </trkpt>
      <trkpt lat="47.555990" lon="7.846965">
        <ele>311.549465</ele>
        <time>2021-11-08T22:45:49.441Z</time>
      </trkpt>
      <trkpt lat="47.555966" lon="7.846932">
        <ele>311.592055</ele>
        <time>2021-11-08T22:45:50.029Z</time>
      </trkpt>
      <trkpt lat="47.555892" lon="7.846856">
        <ele>311.709173</ele>
        <time>2021-11-08T22:45:51.585Z</time>
      </trkpt>
      <trkpt lat="47.555855" lon="7.846815">
        <ele>311.769272</ele>
        <time>2021-11-08T22:45:52.495Z</time>
      </trkpt>
      <trkpt lat="47.555727" lon="7.846715">
        <ele>311.957497</ele>
        <time>2021-11-08T22:45:55.497Z</time>
      </trkpt>
      <trkpt lat="47.555199" lon="7.846687">
        <ele>312.644750</ele>
        <time>2021-11-08T22:46:05.464Z</time>
      </trkpt>
      <trkpt lat="47.555068" lon="7.846672">
        <ele>312.815660</ele>
        <time>2021-11-08T22:46:08.297Z</time>
      </trkpt>
      <trkpt lat="47.554995" lon="7.846915">
        <ele>313.049163</ele>
        <time>2021-11-08T22:46:12.041Z</time>
      </trkpt>
      <trkpt lat="47.554892" lon="7.847148">
        <ele>313.293682</ele>
        <time>2021-11-08T22:46:16.024Z</time>
      </trkpt>
      <trkpt lat="47.554759" lon="7.847388">
        <ele>313.566301</ele>
        <time>2021-11-08T22:46:20.353Z</time>
      </trkpt>
      <trkpt lat="47.554618" lon="7.847626">
        <ele>313.848704</ele>
        <time>2021-11-08T22:46:24.878Z</time>
      </trkpt>
      <trkpt lat="47.554465" lon="7.847858">
        <ele>314.161777</ele>
        <time>2021-11-08T22:46:29.560Z</time>
      </trkpt>
      <trkpt lat="47.554364" lon="7.848027">
        <ele>314.379650</ele>
        <time>2021-11-08T22:46:32.567Z</time>
      </trkpt>
      <trkpt lat="47.554351" lon="7.848049">
        <ele>314.407872</ele>
        <time>2021-11-08T22:46:33.020Z</time>
      </trkpt>
      <trkpt lat="47.554269" lon="7.848188">
        <ele>314.586058</ele>
        <time>2021-11-08T22:46:35.542Z</time>
      </trkpt>
      <trkpt lat="47.554209" lon="7.848300">
        <ele>314.724072</ele>
        <time>2021-11-08T22:46:37.629Z</time>
      </trkpt>
      <trkpt lat="47.554055" lon="7.848586">
        <ele>315.077201</ele>
        <time>2021-11-08T22:46:42.489Z</time>
      </trkpt>
      <trkpt lat="47.553960" lon="7.848790">
        <ele>315.316419</ele>
        <time>2021-11-08T22:46:45.577Z</time>
      </trkpt>
      <trkpt lat="47.553725" lon="7.849291">
        <ele>315.905289</ele>
        <time>2021-11-08T22:46:53.823Z</time>
      </trkpt>
      <trkpt lat="47.553605" lon="7.849629">
        <ele>316.273902</ele>
        <time>2021-11-08T22:46:59.318Z</time>
      </trkpt>
      <trkpt lat="47.553537" lon="7.849904">
        <ele>316.650408</ele>
        <time>2021-11-08T22:47:03.507Z</time>
      </trkpt>
      <trkpt lat="47.553380" lon="7.850453">
        <ele>317.519128</ele>
        <time>2021-11-08T22:47:12.354Z</time>
      </trkpt>
      <trkpt lat="47.553344" lon="7.850525">
        <ele>317.649681</ele>
        <time>2021-11-08T22:47:13.630Z</time>
      </trkpt>
      <trkpt lat="47.553283" lon="7.850634">
        <ele>317.855987</ele>
        <time>2021-11-08T22:47:15.699Z</time>
      </trkpt>
      <trkpt lat="47.552876" lon="7.851300">
        <ele>319.165017</ele>
        <time>2021-11-08T22:47:29.481Z</time>
      </trkpt>
      <trkpt lat="47.552678" lon="7.851709">
        <ele>319.898373</ele>
        <time>2021-11-08T22:47:38.163Z</time>
      </trkpt>
      <trkpt lat="47.552449" lon="7.852231">
        <ele>321.086214</ele>
        <time>2021-11-08T22:47:49.463Z</time>
      </trkpt>
      <trkpt lat="47.552272" lon="7.852167">
        <ele>321.680242</ele>
        <time>2021-11-08T22:47:54.863Z</time>
      </trkpt>
      <trkpt lat="47.552097" lon="7.852063">
        <ele>322.294999</ele>
        <time>2021-11-08T22:48:00.110Z</time>
      </trkpt>
      <trkpt lat="47.552042" lon="7.852007">
        <ele>322.512581</ele>
        <time>2021-11-08T22:48:02.510Z</time>
      </trkpt>
      <trkpt lat="47.551925" lon="7.851845">
        <ele>323.034690</ele>
        <time>2021-11-08T22:48:06.775Z</time>
      </trkpt>
      <trkpt lat="47.551830" lon="7.851603">
        <ele>323.650745</ele>
        <time>2021-11-08T22:48:12.597Z</time>
      </trkpt>
      <trkpt lat="47.551660" lon="7.851725">
        <ele>324.266608</ele>
        <time>2021-11-08T22:48:17.831Z</time>
      </trkpt>
      <trkpt lat="47.551516" lon="7.851950">
        <ele>324.948937</ele>
        <time>2021-11-08T22:48:24.389Z</time>
      </trkpt>
      <trkpt lat="47.550221" lon="7.853833">
        <ele>329.625387</ele>
        <time>2021-11-08T22:49:11.681Z</time>
      </trkpt>
      <trkpt lat="47.549883" lon="7.854434">
        <ele>330.513651</ele>
        <time>2021-11-08T22:49:21.801Z</time>
      </trkpt>
      <trkpt lat="47.549566" lon="7.855225">
        <ele>330.720053</ele>
        <time>2021-11-08T22:49:35.660Z</time>
      </trkpt>
      <trkpt lat="47.549362" lon="7.855774">
        <ele>330.860664</ele>
        <time>2021-11-08T22:49:44.149Z</time>
      </trkpt>
      <trkpt lat="47.548887" lon="7.857308">
        <ele>331.179143</ele>
        <time>2021-11-08T22:50:06.257Z</time>
      </trkpt>
      <trkpt lat="47.548743" lon="7.857692">
        <ele>331.246346</ele>
        <time>2021-11-08T22:50:12.229Z</time>
      </trkpt>
      <trkpt lat="47.548701" lon="7.857893">
        <ele>331.278535</ele>
        <time>2021-11-08T22:50:15.200Z</time>
      </trkpt>
      <trkpt lat="47.548686" lon="7.857973">
        <ele>331.291238</ele>
        <time>2021-11-08T22:50:16.323Z</time>
      </trkpt>
      <trkpt lat="47.548611" lon="7.858381">
        <ele>331.355928</ele>
        <time>2021-11-08T22:50:22.537Z</time>
      </trkpt>
      <trkpt lat="47.548334" lon="7.859801">
        <ele>332.157014</ele>
        <time>2021-11-08T22:50:45.575Z</time>
      </trkpt>
      <trkpt lat="47.548049" lon="7.860929">
        <ele>333.193984</ele>
        <time>2021-11-08T22:51:06.593Z</time>
      </trkpt>
      <trkpt lat="47.547930" lon="7.861711">
        <ele>333.910365</ele>
        <time>2021-11-08T22:51:21.357Z</time>
      </trkpt>
      <trkpt lat="47.547568" lon="7.863151">
        <ele>335.495885</ele>
        <time>2021-11-08T22:51:50.485Z</time>
      </trkpt>
      <trkpt lat="47.547320" lon="7.863864">
        <ele>336.323509</ele>
        <time>2021-11-08T22:52:04.425Z</time>
      </trkpt>
      <trkpt lat="47.546974" lon="7.864423">
        <ele>336.418159</ele>
        <time>2021-11-08T22:52:15.248Z</time>
      </trkpt>
      <trkpt lat="47.546885" lon="7.864500">
        <ele>336.396410</ele>
        <time>2021-11-08T22:52:18.333Z</time>
      </trkpt>
      <trkpt lat="47.546894" lon="7.864837">
        <ele>336.348371</ele>
        <time>2021-11-08T22:52:22.217Z</time>
      </trkpt>
      <trkpt lat="47.546889" lon="7.865225">
        <ele>336.293094</ele>
        <time>2021-11-08T22:52:27.642Z</time>
      </trkpt>
      <trkpt lat="47.546819" lon="7.865489">
        <ele>336.252693</ele>
        <time>2021-11-08T22:52:31.586Z</time>
      </trkpt>
      <trkpt lat="47.546510" lon="7.865766">
        <ele>336.176478</ele>
        <time>2021-11-08T22:52:38.220Z</time>
      </trkpt>
      <trkpt lat="47.546327" lon="7.865959">
        <ele>336.129075</ele>
        <time>2021-11-08T22:52:41.736Z</time>
      </trkpt>
      <trkpt lat="47.546096" lon="7.866147">
        <ele>335.996059</ele>
        <time>2021-11-08T22:52:46.292Z</time>
      </trkpt>
      <trkpt lat="47.545240" lon="7.866887">
        <ele>335.453782</ele>
        <time>2021-11-08T22:53:02.965Z</time>
      </trkpt>
      <trkpt lat="47.545160" lon="7.866985">
        <ele>335.396983</ele>
        <time>2021-11-08T22:53:04.921Z</time>
      </trkpt>
      <trkpt lat="47.545003" lon="7.867278">
        <ele>335.258817</ele>
        <time>2021-11-08T22:53:10.589Z</time>
      </trkpt>
      <trkpt lat="47.544568" lon="7.867693">
        <ele>335.540422</ele>
        <time>2021-11-08T22:53:23.380Z</time>
      </trkpt>
      <trkpt lat="47.544469" lon="7.867776">
        <ele>335.694893</ele>
        <time>2021-11-08T22:53:26.242Z</time>
      </trkpt>
      <trkpt lat="47.544410" lon="7.867825">
        <ele>335.786743</ele>
        <time>2021-11-08T22:53:28.330Z</time>
      </trkpt>
      <trkpt lat="47.544246" lon="7.867967">
        <ele>336.044695</ele>
        <time>2021-11-08T22:53:33.014Z</time>
      </trkpt>
      <trkpt lat="47.544214" lon="7.867988">
        <ele>336.092222</ele>
        <time>2021-11-08T22:53:33.862Z</time>
      </trkpt>
      <trkpt lat="47.543801" lon="7.868269">
        <ele>336.709375</ele>
        <time>2021-11-08T22:53:45.465Z</time>
      </trkpt>
      <trkpt lat="47.543657" lon="7.868359">
        <ele>336.921609</ele>
        <time>2021-11-08T22:53:49.816Z</time>
      </trkpt>
      <trkpt lat="47.543201" lon="7.868657">
        <ele>337.580365</ele>
        <time>2021-11-08T22:54:00.251Z</time>
      </trkpt>
      <trkpt lat="47.543105" lon="7.868711">
        <ele>337.580365</ele>
        <time>2021-11-08T22:54:02.896Z</time>
      </trkpt>
      <trkpt lat="47.543049" lon="7.868759">
        <ele>337.580365</ele>
        <time>2021-11-08T22:54:04.274Z</time>
      </trkpt>
      <trkpt lat="47.542882" lon="7.868984">
        <ele>337.580365</ele>
        <time>2021-11-08T22:54:09.142Z</time>
      </trkpt>
      <trkpt lat="47.542722" lon="7.869201">
        <ele>337.580365</ele>
        <time>2021-11-08T22:54:13.875Z</time>
      </trkpt>
      <trkpt lat="47.542696" lon="7.869257">
        <ele>337.580365</ele>
        <time>2021-11-08T22:54:14.621Z</time>
      </trkpt>
      <trkpt lat="47.542657" lon="7.869354">
        <ele>337.580365</ele>
        <time>2021-11-08T22:54:16.029Z</time>
      </trkpt>
      <trkpt lat="47.542522" lon="7.869539">
        <ele>337.580365</ele>
        <time>2021-11-08T22:54:19.701Z</time>
      </trkpt>
    </trkseg>
  </trk>
</gpx>